
Distance (Route):
Temperature : -51.3°C
Humidity : 1.1%
Pressure : 27.6hPa| Receiver | Frames | First received | Last received |
|---|---|---|---|
| SQ9EZE-13 | 315 | 2026-09-04 23:23:54 | 2026-09-05 01:15:34 |
| SP9KGR-15 | 215 | 2026-09-04 23:22:30 | 2026-09-05 00:25:25 |
| HA6NAB-11 | 120 | 2026-09-05 00:24:55 | 2026-09-05 01:15:14 |
| GYPAP8-17 | 100 | 2026-09-04 23:18:37 | 2026-09-05 01:15:06 |
| OM5KV | 81 | 2026-09-04 23:37:36 | 2026-09-04 23:53:20 |
| SQ9EZE-14 | 70 | 2026-09-04 23:24:56 | 2026-09-05 01:14:15 |
| OE5DRO-10 | 43 | 2026-09-05 00:53:57 | 2026-09-05 01:13:43 |
| OE3JTB-15 | 16 | 2026-09-04 23:32:30 | 2026-09-04 23:49:38 |
| LZ4TU-5 | 14 | 2026-09-05 00:39:42 | 2026-09-05 01:07:50 |
| POL1PZ | 9 | 2026-09-05 01:12:11 | 2026-09-05 01:15:26 |
| Receiver | Date | Latitude | Longitude | Direction | Speed | Altitude | Climb | Temperature | Humidity | Pressure | Voltage | Killtimer | Uptime | BKT | XDATA |
|---|---|---|---|---|---|---|---|---|---|---|---|---|---|---|---|
| SQ9EZE-13 | 2026-09-05 01:15:34 | 48.95309 | 21.64544 | 176° | 9km/h | 24892m | -33.5m/s | -51.3°C | 1.1% | 27.6hPa | 2.5V | 00:00:00 | 00:00:00 | 00:00:00 | |
| POL1PZ | 2026-09-05 01:15:26 | 48.95319 | 21.64514 | 105° | 20km/h | 25156m | -37.2m/s | 0°C | 0% | 26.5hPa | 2.5V | 00:00:00 | 00:00:00 | 00:00:00 | |
| SQ9EZE-13 | 2026-09-05 01:15:19 | 48.95332 | 21.64486 | 154° | 5km/h | 25405m | -36.2m/s | -50.2°C | 1.0% | 25.5hPa | 2.5V | 00:00:00 | 00:00:00 | 00:00:00 | |
| HA6NAB-11 | 2026-09-05 01:15:14 | 48.95335 | 21.64493 | 344° | 5km/h | 25592m | -37.7m/s | -50.1°C | 1.0% | 24.8hPa | 2.5V | 08:26:00 | 00:00:00 | 00:00:00 | |
| HA6NAB-11 | 2026-09-05 01:15:08 | 48.95333 | 21.64484 | 91° | 18km/h | 25812m | -34.1m/s | -49.8°C | 0.9% | 24.0hPa | 2.5V | 08:26:00 | 00:00:00 | 00:00:00 | |
| GYPAP8-17 | 2026-09-05 01:15:06 | 48.95334 | 21.64461 | 100° | 22km/h | 25910m | -33.4m/s | -49.8°C | 0.9% | 23.6hPa | 2.5V | 00:00:00 | 00:00:00 | 00:00:00 | |
| HA6NAB-11 | 2026-09-05 01:15:03 | 48.95338 | 21.64444 | 110° | 20km/h | 25978m | -34.4m/s | -50.0°C | 1.0% | 23.3hPa | 2.5V | 08:26:00 | 00:00:00 | 00:00:00 | |
| HA6NAB-11 | 2026-09-05 01:14:57 | 48.95351 | 21.64414 | 157° | 7km/h | 26191m | -35.2m/s | -50.2°C | 1.0% | 22.6hPa | 2.5V | 08:26:00 | 00:00:00 | 00:00:00 | |
| HA6NAB-11 | 2026-09-05 01:14:52 | 48.95353 | 21.64415 | 46° | 5km/h | 26369m | -35.1m/s | -50.6°C | 1.0% | 22.0hPa | 2.5V | 00:00:00 | 00:00:00 | 00:00:00 | |
| HA6NAB-11 | 2026-09-05 01:14:47 | 48.95353 | 21.64406 | 38° | 5km/h | 26538m | -33.5m/s | -49.6°C | 1.0% | 21.4hPa | 2.5V | 00:00:00 | 00:00:00 | 00:00:00 | |
| POL1PZ | 2026-09-05 01:14:42 | 48.95350 | 21.64409 | 347° | 5km/h | 26693m | -28.6m/s | 0°C | 0% | 20.9hPa | 2.5V | 08:27:00 | 00:00:00 | 00:00:00 | |
| HA6NAB-11 | 2026-09-05 01:14:41 | 48.95348 | 21.64409 | 21° | 9km/h | 26720m | -28.8m/s | -49.0°C | 0.9% | 20.8hPa | 2.5V | 00:00:00 | 00:00:00 | 00:00:00 | |
| HA6NAB-11 | 2026-09-05 01:14:36 | 48.95340 | 21.64392 | 64° | 15km/h | 26875m | -37.4m/s | -48.6°C | 0.9% | 20.4hPa | 2.5V | 00:00:00 | 00:00:00 | 00:00:00 | |
| SQ9EZE-13 | 2026-09-05 01:14:31 | 48.95335 | 21.64373 | 24° | 7km/h | 27072m | -40.8m/s | -48.6°C | 0.9% | 19.8hPa | 2.5V | 08:27:00 | 00:00:00 | 00:00:00 | |
| HA6NAB-11 | 2026-09-05 01:14:29 | 48.95332 | 21.64373 | 32° | 13km/h | 27153m | -40.6m/s | -48.7°C | 0.9% | 19.5hPa | 2.5V | 00:00:00 | 00:00:00 | 00:00:00 | |
| HA6NAB-11 | 2026-09-05 01:14:22 | 48.95323 | 21.64354 | 105° | 22km/h | 27437m | -39.3m/s | -48.4°C | 0.9% | 18.7hPa | 2.5V | 00:00:00 | 00:00:00 | 00:00:00 | |
| POL1PZ | 2026-09-05 01:14:20 | 48.95328 | 21.64338 | 126° | 27km/h | 27514m | -35.6m/s | 0°C | 0% | 18.5hPa | 2.5V | 08:27:00 | 00:00:00 | 00:00:00 | |
| SQ9EZE-14 | 2026-09-05 01:14:15 | 48.95353 | 21.64299 | 158° | 24km/h | 27677m | -32.3m/s | -48.2°C | 0.9% | 18.0hPa | 2.5V | 08:27:00 | 00:00:00 | 00:00:00 | |
| GYPAP8-17 | 2026-09-05 01:14:11 | 48.95363 | 21.64287 | 192° | 4km/h | 27805m | -33.6m/s | -47.8°C | 0.9% | 17.6hPa | 2.5V | 00:00:00 | 00:00:00 | 00:00:00 | |
| SQ9EZE-13 | 2026-09-05 01:14:00 | 48.95365 | 21.64262 | 131° | 18km/h | 28172m | -38.1m/s | -46.7°C | 0.8% | 16.7hPa | 2.5V | 08:28:00 | 00:00:00 | 00:00:00 | |
| SQ9EZE-14 | 2026-09-05 01:13:59 | 48.95367 | 21.64258 | 139° | 13km/h | 28212m | -36.2m/s | -46.8°C | 0.8% | 16.5hPa | 2.5V | 00:00:00 | 00:00:00 | 00:00:00 | |
| POL1PZ | 2026-09-05 01:13:58 | 48.95369 | 21.64253 | 140° | 18km/h | 28252m | -35.6m/s | 0°C | 0% | 16.4hPa | 2.5V | 08:28:00 | 00:00:00 | 00:00:00 | |
| OE5DRO-10 | 2026-09-05 01:13:43 | 48.95404 | 21.64193 | 71° | 13km/h | 28856m | -40.5m/s | -46.3°C | 3.2% | 15.0hPa | 2.5V | 00:00:00 | 00:00:00 | 00:00:00 | |
| POL1PZ | 2026-09-05 01:13:38 | 48.95401 | 21.64175 | 79° | 15km/h | 29019m | -41.1m/s | 0°C | 0% | 14.7hPa | 2.5V | 08:28:00 | 00:00:00 | 00:00:00 | |
| SQ9EZE-13 | 2026-09-05 01:13:31 | 48.95396 | 21.64154 | 107° | 11km/h | 29318m | -43.7m/s | -45.9°C | 0.8% | 14.1hPa | 2.5V | 08:28:00 | 00:00:00 | 00:00:00 | |
| OE5DRO-10 | 2026-09-05 01:13:24 | 48.95383 | 21.64099 | 70° | 24km/h | 29649m | -36.5m/s | -44.7°C | 3.0% | 13.3hPa | 2.5V | 00:00:00 | 00:00:00 | 00:00:00 | |
| POL1PZ | 2026-09-05 01:13:17 | 48.95364 | 21.64036 | 70° | 29km/h | 29881m | -44.0m/s | 0°C | 0% | 13.0hPa | 2.6V | 08:28:00 | 00:00:00 | 00:00:00 | |
| SQ9EZE-13 | 2026-09-05 01:13:16 | 48.95361 | 21.64026 | 70° | 26km/h | 29924m | -44.0m/s | -43.9°C | 0.7% | 12.9hPa | 2.6V | 08:28:00 | 00:00:00 | 00:00:00 | |
| HA6NAB-11 | 2026-09-05 01:13:08 | 48.95356 | 21.63953 | 100° | 13km/h | 30277m | -46.3m/s | -43.4°C | 0.7% | 12.2hPa | 2.6V | 00:00:00 | 00:00:00 | 00:00:00 | |
| OE5DRO-10 | 2026-09-05 01:13:05 | 48.95357 | 21.63935 | 66° | 26km/h | 30452m | -45.5m/s | -43.1°C | 2.7% | 11.8hPa | 2.6V | 00:00:00 | 00:00:00 | 00:00:00 | |
| SQ9EZE-13 | 2026-09-05 01:13:00 | 48.95345 | 21.63921 | 19° | 22km/h | 30628m | -42.0m/s | -43.3°C | 0.7% | 11.6hPa | 2.6V | 08:29:00 | 00:00:00 | 00:00:00 | |
| POL1PZ | 2026-09-05 01:12:54 | 48.95325 | 21.63873 | 73° | 31km/h | 30892m | -43.3m/s | 0°C | 0% | 0hPa | 2.6V | 08:29:00 | 00:00:00 | 00:00:00 | |
| OE5DRO-10 | 2026-09-05 01:12:46 | 48.95324 | 21.63776 | 97° | 24km/h | 31288m | -42.4m/s | -41.8°C | 2.6% | 10.5hPa | 2.6V | 00:00:00 | 00:00:00 | 00:00:00 | |
| SQ9EZE-13 | 2026-09-05 01:12:36 | 48.95333 | 21.63708 | 82° | 24km/h | 31675m | -42.9m/s | -41.6°C | 0.7% | 9.9hPa | 2.6V | 08:29:00 | 00:00:00 | 00:00:00 | |
| POL1PZ | 2026-09-05 01:12:34 | 48.95329 | 21.63677 | 79° | 31km/h | 31802m | -43.4m/s | 0°C | 0% | 0hPa | 2.6V | 08:29:00 | 00:00:00 | 00:00:00 | |
| OE5DRO-10 | 2026-09-05 01:12:27 | 48.95324 | 21.63602 | 100° | 20km/h | 32101m | -42.8m/s | -40.0°C | 2.4% | 9.3hPa | 2.6V | 00:00:00 | 00:00:00 | 00:00:00 | |
| GYPAP8-17 | 2026-09-05 01:12:23 | 48.95325 | 21.63571 | 92° | 33km/h | 32227m | -44.1m/s | -40.4°C | 0.6% | 9.2hPa | 2.5V | 00:00:00 | 00:00:00 | 00:00:00 | |
| SQ9EZE-13 | 2026-09-05 01:12:21 | 48.95327 | 21.63547 | 86° | 29km/h | 32315m | -47.3m/s | -39.7°C | 0.6% | 9.0hPa | 2.5V | 08:29:00 | 00:00:00 | 00:00:00 | |
| POL1PZ | 2026-09-05 01:12:11 | 48.95358 | 21.63452 | 133° | 20km/h | 32781m | -46.8m/s | 0°C | 0% | 0hPa | 2.5V | 00:00:00 | 00:00:00 | 00:00:00 | |
| SQ9EZE-13 | 2026-09-05 01:12:06 | 48.95376 | 21.63429 | 144° | 15km/h | 33024m | -57.6m/s | -37.9°C | 0.5% | 8.1hPa | 2.5V | 00:00:00 | 00:00:00 | 00:00:00 | |
| HA6NAB-11 | 2026-09-05 01:11:56 | 48.95372 | 21.63392 | 60° | 11km/h | 33572m | -52.8m/s | -37.1°C | 0.5% | 7.6hPa | 2.5V | 00:00:00 | 00:00:00 | 00:00:00 | |
| HA6NAB-11 | 2026-09-05 01:11:50 | 48.95367 | 21.63353 | 86° | 15km/h | 33897m | -54.9m/s | -37.6°C | 0.5% | 7.2hPa | 2.5V | 00:00:00 | 00:00:00 | 00:00:00 | |
| SQ9EZE-13 | 2026-09-05 01:11:49 | 48.95367 | 21.63349 | 114° | 13km/h | 33951m | -57.4m/s | -37.6°C | 0.5% | 7.1hPa | 2.5V | 00:00:00 | 00:00:00 | 00:00:00 | |
| HA6NAB-11 | 2026-09-05 01:11:45 | 48.95370 | 21.63312 | 93° | 27km/h | 34153m | -50.2m/s | -37.3°C | 0.5% | 6.9hPa | 2.5V | 00:00:00 | 00:00:00 | 00:00:00 | |
| OE5DRO-10 | 2026-09-05 01:11:41 | 48.95367 | 21.63283 | 34° | 33km/h | 34385m | -49.8m/s | -37.1°C | 2.1% | 6.6hPa | 2.5V | 00:00:00 | 00:00:00 | 00:00:00 | |
| HA6NAB-11 | 2026-09-05 01:11:39 | 48.95365 | 21.63280 | 39° | 24km/h | 34431m | -50.5m/s | -37.1°C | 0.5% | 6.6hPa | 2.5V | 00:00:00 | 00:00:00 | 00:00:00 | |
| HA6NAB-11 | 2026-09-05 01:11:34 | 48.95342 | 21.63227 | 106° | 27km/h | 34662m | -40.1m/s | -37.4°C | 0.5% | 6.4hPa | 2.5V | 00:00:00 | 00:00:00 | 00:00:00 | |
| GYPAP8-17 | 2026-09-05 01:11:29 | 48.95366 | 21.63143 | 110° | 49km/h | 34827m | -40.6m/s | -35.8°C | 0.5% | 6.1hPa | 2.5V | 00:00:00 | 00:00:00 | 00:00:00 | |
| HA6NAB-11 | 2026-09-05 01:11:28 | 48.95372 | 21.63128 | 124° | 42km/h | 34863m | -42.8m/s | -35.7°C | 0.5% | 6.1hPa | 2.5V | 00:00:00 | 00:00:00 | 00:00:00 | |
| OE5DRO-10 | 2026-09-05 01:11:22 | 48.95402 | 21.63081 | 68° | 49km/h | 35085m | -43.1m/s | -35.6°C | 2.0% | 5.8hPa | 2.5V | 00:00:00 | 00:00:00 | 00:00:00 | |
| SQ9EZE-13 | 2026-09-05 01:11:19 | 48.95282 | 21.63100 | 0° | 0km/h | 36880m | 0.0m/s | -35.4°C | 0.5% | 5.7hPa | 2.5V | 00:00:00 | 00:00:00 | 00:00:00 | |
| SQ9EZE-13 | 2026-09-05 01:10:53 | 48.95282 | 21.63100 | 0° | 0km/h | 36880m | 0.0m/s | -33.1°C | 0.4% | 4.9hPa | 2.5V | 00:00:00 | 00:00:00 | 00:00:00 | |
| GYPAP8-17 | 2026-09-05 01:10:38 | 48.95432 | 21.62871 | 157° | 44km/h | 36739m | 5.7m/s | -31.3°C | 0.4% | 4.7hPa | 2.5V | 00:00:00 | 00:00:00 | 00:00:00 | |
| OE5DRO-10 | 2026-09-05 01:10:32 | 48.95446 | 21.62780 | 194° | 40km/h | 36702m | 16.1m/s | -31.2°C | 1.5% | 4.7hPa | 2.5V | 00:00:00 | 00:00:00 | 08:30:00 | |
| SQ9EZE-13 | 2026-09-05 01:10:19 | 48.95584 | 21.62748 | 14° | 22km/h | 36570m | 4.6m/s | -31.5°C | 0.3% | 4.8hPa | 2.5V | 00:00:00 | 00:00:00 | 00:00:00 | |
| OE5DRO-10 | 2026-09-05 01:10:12 | 48.95642 | 21.62745 | 164° | 31km/h | 36557m | 0.6m/s | -31.8°C | 1.6% | 4.8hPa | 2.5V | 00:00:00 | 00:00:00 | 00:00:00 | |
| SQ9EZE-13 | 2026-09-05 01:10:04 | 48.95677 | 21.62723 | 264° | 9km/h | 36507m | 4.7m/s | -32.1°C | 0.4% | 4.8hPa | 2.5V | 00:00:00 | 00:00:00 | 00:00:00 | |
| SQ9EZE-14 | 2026-09-05 01:09:59 | 48.95690 | 21.62733 | 180° | 38km/h | 36477m | 6.2m/s | -32.2°C | 0.4% | 4.9hPa | 2.5V | 00:00:00 | 00:00:00 | 00:00:00 | |
| OE5DRO-10 | 2026-09-05 01:09:53 | 48.95753 | 21.62696 | 102° | 27km/h | 36391m | 1.6m/s | -32.6°C | 1.6% | 4.8hPa | 2.5V | 00:00:00 | 00:00:00 | 00:00:00 | |
| SQ9EZE-13 | 2026-09-05 01:09:48 | 48.95752 | 21.62693 | 343° | 4km/h | 36392m | 2.2m/s | -32.9°C | 0.4% | 4.9hPa | 2.5V | 00:00:00 | 00:00:00 | 00:00:00 | |
| GYPAP8-17 | 2026-09-05 01:09:44 | 48.95756 | 21.62693 | 139° | 27km/h | 36393m | 4.7m/s | -33.3°C | 0.4% | 4.9hPa | 2.5V | 00:00:00 | 00:00:00 | 00:00:00 | |
| SQ9EZE-14 | 2026-09-05 01:09:43 | 48.95761 | 21.62686 | 126° | 31km/h | 36393m | 3.8m/s | -33.4°C | 0.4% | 4.9hPa | 2.5V | 00:00:00 | 00:00:00 | 00:00:00 | |
| OE5DRO-10 | 2026-09-05 01:09:34 | 48.96058 | 21.62828 | 35° | 64km/h | 36855m | 34.8m/s | -33.9°C | 1.7% | 4.9hPa | 2.5V | 00:00:00 | 00:00:00 | 00:00:00 | |
| SQ9EZE-13 | 2026-09-05 01:09:32 | 48.95840 | 21.62773 | 79° | 148km/h | 36837m | 36.3m/s | -33.9°C | 0.4% | 5.0hPa | 2.5V | 00:00:00 | 00:00:00 | 00:00:00 | |
| SQ9EZE-13 | 2026-09-05 01:09:17 | 48.95892 | 21.62458 | 188° | 51km/h | 36180m | 1.0m/s | -34.6°C | 0.4% | 5.0hPa | 2.5V | 00:00:00 | 00:00:00 | 00:00:00 | |
| OE5DRO-10 | 2026-09-05 01:09:10 | 48.95912 | 21.62402 | 41° | 26km/h | 36161m | 1.6m/s | -34.7°C | 1.8% | 5.0hPa | 2.5V | 00:00:00 | 00:00:00 | 00:00:00 | |
| SQ9EZE-13 | 2026-09-05 01:09:01 | 48.95941 | 21.62405 | 179° | 29km/h | 36136m | -2.5m/s | -34.6°C | 0.4% | 5.1hPa | 2.5V | 00:00:00 | 00:00:00 | 00:00:00 | |
| OE5DRO-10 | 2026-09-05 01:08:51 | 48.95945 | 21.62347 | 200° | 22km/h | 36155m | 5.3m/s | -34.8°C | 1.8% | 5.1hPa | 2.5V | 00:00:00 | 00:00:00 | 00:00:00 | |
| GYPAP8-17 | 2026-09-05 01:08:50 | 48.95945 | 21.62347 | 200° | 20km/h | 36155m | 5.3m/s | -34.8°C | 0.4% | 5.1hPa | 2.5V | 00:00:00 | 00:00:00 | 00:00:00 | |
| SQ9EZE-13 | 2026-09-05 01:08:46 | 48.95969 | 21.62353 | 192° | 24km/h | 36153m | 3.9m/s | -35.0°C | 0.4% | 5.2hPa | 2.5V | 00:00:00 | 00:00:00 | 00:00:00 | |
| OE5DRO-10 | 2026-09-05 01:08:32 | 48.96046 | 21.62325 | 127° | 22km/h | 36076m | 6.0m/s | -35.1°C | 1.8% | 5.2hPa | 2.5V | 00:00:00 | 00:00:00 | 00:00:00 | |
| SQ9EZE-13 | 2026-09-05 01:08:28 | 48.96053 | 21.62311 | 134° | 13km/h | 36061m | 5.6m/s | -35.1°C | 0.4% | 5.2hPa | 2.5V | 00:00:00 | 00:00:00 | 00:00:00 | |
| OE5DRO-10 | 2026-09-05 01:08:13 | 48.96109 | 21.62187 | 170° | 24km/h | 35979m | 12.5m/s | -35.3°C | 1.8% | 5.2hPa | 2.5V | 00:00:00 | 00:00:00 | 00:00:00 | |
| SQ9EZE-13 | 2026-09-05 01:07:57 | 48.96144 | 21.62151 | 179° | 44km/h | 35851m | 3.9m/s | -35.5°C | 0.4% | 5.3hPa | 2.5V | 00:00:00 | 00:00:00 | 00:00:00 | |
| OE5DRO-10 | 2026-09-05 01:07:54 | 48.96178 | 21.62140 | 141° | 20km/h | 35853m | 3.9m/s | -35.5°C | 1.9% | 5.3hPa | 2.5V | 00:00:00 | 00:00:00 | 00:00:00 | |
| LZ4TU-5 | 2026-09-05 01:07:50 | 48.96178 | 21.62118 | 70° | 20km/h | 35847m | 2.8m/s | -35.6°C | 0% | 0hPa | 2.5V | 00:00:00 | 00:00:00 | 00:00:00 | |
| SQ9EZE-14 | 2026-09-05 01:07:43 | 48.96178 | 21.62042 | 149° | 35km/h | 35911m | 9.3m/s | -35.6°C | 0.4% | 5.4hPa | 2.5V | 00:00:00 | 00:00:00 | 00:00:00 | |
| SQ9EZE-13 | 2026-09-05 01:07:41 | 48.96189 | 21.62017 | 149° | 33km/h | 35923m | 11.7m/s | -35.6°C | 0.5% | 5.4hPa | 2.5V | 00:00:00 | 00:00:00 | 00:00:00 | |
| OE5DRO-10 | 2026-09-05 01:07:35 | 48.96221 | 21.62015 | 90° | 16km/h | 35761m | 6.8m/s | -35.5°C | 1.8% | 5.4hPa | 2.5V | 00:00:00 | 00:00:00 | 08:30:00 | |
| SQ9EZE-14 | 2026-09-05 01:07:27 | 48.96251 | 21.61967 | 106° | 27km/h | 35703m | 4.8m/s | -35.5°C | 0.4% | 5.5hPa | 2.5V | 00:00:00 | 00:00:00 | 00:00:00 | |
| SQ9EZE-13 | 2026-09-05 01:07:26 | 48.96253 | 21.61954 | 104° | 29km/h | 35695m | 4.9m/s | -35.5°C | 0.4% | 5.4hPa | 2.5V | 00:00:00 | 00:00:00 | 00:00:00 | |
| OE5DRO-10 | 2026-09-05 01:07:12 | 48.96262 | 21.61892 | 136° | 27km/h | 35588m | 5.3m/s | -35.9°C | 1.9% | 5.5hPa | 2.5V | 00:00:00 | 00:00:00 | 00:00:00 | |
| SQ9EZE-13 | 2026-09-05 01:07:10 | 48.96267 | 21.61884 | 133° | 31km/h | 35581m | 5.6m/s | -36.0°C | 0.4% | 5.5hPa | 2.5V | 00:00:00 | 00:00:00 | 00:00:00 | |
| GYPAP8-17 | 2026-09-05 01:07:02 | 48.96295 | 21.61867 | 82° | 9km/h | 35561m | 4.3m/s | -36.2°C | 0.5% | 5.5hPa | 2.5V | 00:00:00 | 00:00:00 | 00:00:00 | |
| SQ9EZE-13 | 2026-09-05 01:06:55 | 48.96336 | 21.61831 | 145° | 26km/h | 35515m | 5.6m/s | -36.5°C | 0.5% | 5.6hPa | 2.5V | 00:00:00 | 00:00:00 | 00:00:00 | |
| SQ9EZE-13 | 2026-09-05 01:06:36 | 48.96392 | 21.61749 | 123° | 15km/h | 35395m | 4.2m/s | -36.9°C | 0.5% | 5.6hPa | 2.5V | 00:00:00 | 00:00:00 | 00:00:00 | |
| OE5DRO-10 | 2026-09-05 01:06:24 | 48.96434 | 21.61680 | 168° | 33km/h | 35346m | 4.0m/s | -37.2°C | 2.0% | 5.7hPa | 2.5V | 00:00:00 | 00:00:00 | 00:00:00 | |
| SQ9EZE-13 | 2026-09-05 01:06:20 | 48.96447 | 21.61666 | 147° | 15km/h | 35321m | 5.3m/s | -37.4°C | 0.5% | 5.7hPa | 2.5V | 00:00:00 | 00:00:00 | 00:00:00 | |
| GYPAP8-17 | 2026-09-05 01:06:08 | 48.96452 | 21.61526 | 115° | 29km/h | 35244m | 2.3m/s | -37.4°C | 0.5% | 5.8hPa | 2.5V | 00:00:00 | 00:00:00 | 00:00:00 | |
| OE5DRO-10 | 2026-09-05 01:06:05 | 48.96456 | 21.61488 | 58° | 38km/h | 35249m | 2.9m/s | -37.4°C | 2.0% | 5.7hPa | 2.5V | 00:00:00 | 00:00:00 | 00:00:00 | |
| SQ9EZE-13 | 2026-09-05 01:05:46 | 48.96434 | 21.61271 | 84° | 35km/h | 35168m | 6.2m/s | -37.7°C | 0.5% | 5.9hPa | 2.5V | 00:00:00 | 00:00:00 | 00:00:00 | |
| OE5DRO-10 | 2026-09-05 01:05:45 | 48.96435 | 21.61246 | 95° | 42km/h | 35159m | 4.6m/s | -37.6°C | 2.0% | 5.8hPa | 2.5V | 00:00:00 | 00:00:00 | 00:00:00 | |
| SQ9EZE-14 | 2026-09-05 01:05:34 | 48.96453 | 21.61142 | 62° | 57km/h | 35133m | 4.6m/s | -37.5°C | 0.5% | 5.9hPa | 2.5V | 00:00:00 | 00:00:00 | 00:00:00 | |
| OE5DRO-10 | 2026-09-05 01:05:26 | 48.96435 | 21.61024 | 88° | 47km/h | 34977m | 1.0m/s | -37.8°C | 2.0% | 5.9hPa | 2.5V | 00:00:00 | 00:00:00 | 00:00:00 | |
| GYPAP8-17 | 2026-09-05 01:05:14 | 48.96442 | 21.60929 | 73° | 57km/h | 34999m | 9.5m/s | -38.4°C | 0.5% | 6.0hPa | 2.5V | 00:00:00 | 00:00:00 | 00:00:00 | |
| HA6NAB-11 | 2026-09-05 01:05:03 | 48.96447 | 21.60835 | 45° | 22km/h | 34890m | 2.5m/s | -39.3°C | 0.5% | 6.1hPa | 2.5V | 00:00:00 | 00:00:00 | 00:00:00 | |
| OE5DRO-10 | 2026-09-05 01:05:01 | 48.96428 | 21.60790 | 69° | 33km/h | 34874m | 2.3m/s | -39.3°C | 2.2% | 6.0hPa | 2.5V | 00:00:00 | 00:00:00 | 00:00:00 | |
| HA6NAB-11 | 2026-09-05 01:04:58 | 48.96427 | 21.60760 | 104° | 35km/h | 34867m | 3.7m/s | -39.4°C | 0.5% | 6.1hPa | 2.6V | 00:00:00 | 00:00:00 | 00:00:00 | |
| HA6NAB-11 | 2026-09-05 01:04:53 | 48.96440 | 21.60738 | 56° | 18km/h | 34849m | 2.1m/s | -39.4°C | 0.5% | 6.1hPa | 2.6V | 00:00:00 | 00:00:00 | 00:00:00 | |
| HA6NAB-11 | 2026-09-05 01:04:48 | 48.96412 | 21.60697 | 51° | 49km/h | 34805m | 1.1m/s | -39.5°C | 0.5% | 6.2hPa | 2.6V | 00:00:00 | 00:00:00 | 00:00:00 | |
| HA6NAB-11 | 2026-09-05 01:04:43 | 48.96392 | 21.60642 | 77° | 11km/h | 34811m | 9.2m/s | -39.5°C | 0.6% | 6.2hPa | 2.6V | 00:00:00 | 00:00:00 | 00:00:00 | |
| HA6NAB-11 | 2026-09-05 01:04:38 | 48.96387 | 21.60647 | 71° | 20km/h | 34746m | 8.3m/s | -39.3°C | 0.6% | 6.2hPa | 2.6V | 00:00:00 | 00:00:00 | 00:00:00 | |
| OE5DRO-10 | 2026-09-05 01:04:34 | 48.96369 | 21.60601 | 54° | 37km/h | 34727m | 0.8m/s | -39.1°C | 2.3% | 6.2hPa | 2.6V | 00:00:00 | 00:00:00 | 00:00:00 | |
| HA6NAB-11 | 2026-09-05 01:04:32 | 48.96362 | 21.60592 | 37° | 42km/h | 34726m | 0.5m/s | -39.1°C | 0.5% | 6.2hPa | 2.6V | 00:00:00 | 00:00:00 | 00:00:00 | |
| HA6NAB-11 | 2026-09-05 01:04:26 | 48.96323 | 21.60589 | 12° | 13km/h | 34695m | 13.9m/s | -38.8°C | 0.5% | 6.3hPa | 2.6V | 00:00:00 | 00:00:00 | 00:00:00 | |
| HA6NAB-11 | 2026-09-05 01:04:21 | 48.96321 | 21.60567 | 75° | 27km/h | 34582m | 16.3m/s | -38.6°C | 0.5% | 6.3hPa | 2.6V | 00:00:00 | 00:00:00 | 00:00:00 | |
| HA6NAB-11 | 2026-09-05 01:04:15 | 48.96276 | 21.60550 | 23° | 16km/h | 34441m | 3.7m/s | -38.5°C | 0.5% | 6.3hPa | 2.6V | 00:00:00 | 00:00:00 | 00:00:00 | |
| GYPAP8-17 | 2026-09-05 01:04:11 | 48.96270 | 21.60546 | 89° | 49km/h | 34293m | -47.6m/s | -38.3°C | 0.5% | 6.4hPa | 2.6V | 00:00:00 | 00:00:00 | 00:00:00 | |
| HA6NAB-11 | 2026-09-05 01:04:09 | 48.96263 | 21.60503 | 110° | 9km/h | 34445m | -14.6m/s | -38.2°C | 0.5% | 6.4hPa | 2.6V | 00:00:00 | 00:00:00 | 00:00:00 | |
| LZ4TU-5 | 2026-09-05 01:04:01 | 48.96232 | 21.60443 | 102° | 13km/h | 34536m | 8.4m/s | -37.9°C | 0% | 0hPa | 2.6V | 00:00:00 | 00:00:00 | 00:00:00 | |
| OE5DRO-10 | 2026-09-05 01:03:49 | 48.96195 | 21.60391 | 73° | 24km/h | 34444m | 7.2m/s | -37.9°C | 2.1% | 6.4hPa | 2.6V | 00:00:00 | 00:00:00 | 08:30:00 | |
| SQ9EZE-13 | 2026-09-05 01:03:33 | 48.96203 | 21.60359 | 70° | 18km/h | 34231m | -5.4m/s | -38.0°C | 0.5% | 6.6hPa | 2.6V | 00:00:00 | 00:00:00 | 00:00:00 | |
| OE5DRO-10 | 2026-09-05 01:03:30 | 48.96154 | 21.60277 | 132° | 16km/h | 34345m | 6.2m/s | -37.8°C | 2.1% | 6.6hPa | 2.6V | 00:00:00 | 00:00:00 | 00:00:00 | |
| SQ9EZE-14 | 2026-09-05 01:03:20 | 48.96140 | 21.60251 | 112° | 24km/h | 34292m | 6.1m/s | -37.9°C | 0.5% | 6.7hPa | 2.6V | 00:00:00 | 00:00:00 | 00:00:00 | |
| SQ9EZE-13 | 2026-09-05 01:03:17 | 48.96147 | 21.60224 | 102° | 27km/h | 34271m | 5.3m/s | -37.8°C | 0.5% | 6.7hPa | 2.6V | 00:00:00 | 00:00:00 | 00:00:00 | |
| OE5DRO-10 | 2026-09-05 01:03:11 | 48.96151 | 21.60190 | 86° | 22km/h | 34227m | 6.4m/s | -37.7°C | 2.1% | 6.7hPa | 2.6V | 00:00:00 | 00:00:00 | 00:00:00 | |
| SQ9EZE-14 | 2026-09-05 01:03:04 | 48.96153 | 21.60140 | 80° | 22km/h | 34186m | 6.9m/s | -37.7°C | 0.5% | 6.8hPa | 2.6V | 00:00:00 | 00:00:00 | 00:00:00 | |
| SQ9EZE-13 | 2026-09-05 01:03:01 | 48.96153 | 21.60126 | 74° | 13km/h | 34165m | 5.0m/s | -37.7°C | 0.5% | 6.8hPa | 2.6V | 00:00:00 | 00:00:00 | 00:00:00 | |
| GYPAP8-17 | 2026-09-05 01:02:57 | 48.96156 | 21.60101 | 114° | 24km/h | 34155m | 5.1m/s | -37.7°C | 0.5% | 6.8hPa | 2.6V | 00:00:00 | 00:00:00 | 00:00:00 | |
| HA6NAB-11 | 2026-09-05 01:02:52 | 48.96152 | 21.60055 | 49° | 22km/h | 34125m | 7.7m/s | -37.8°C | 0.5% | 6.9hPa | 2.6V | 00:00:00 | 00:00:00 | 00:00:00 | |
| OE5DRO-10 | 2026-09-05 01:02:50 | 48.96140 | 21.60042 | 55° | 27km/h | 34105m | 5.2m/s | -37.8°C | 2.1% | 6.8hPa | 2.6V | 00:00:00 | 00:00:00 | 00:00:00 | |
| HA6NAB-11 | 2026-09-05 01:02:47 | 48.96140 | 21.60028 | 112° | 31km/h | 34092m | 7.5m/s | -37.9°C | 0.5% | 6.9hPa | 2.7V | 00:00:00 | 00:00:00 | 00:00:00 | |
| SQ9EZE-13 | 2026-09-05 01:02:45 | 48.96147 | 21.60008 | 123° | 31km/h | 34078m | 6.5m/s | -38.0°C | 0.5% | 6.9hPa | 2.7V | 00:00:00 | 00:00:00 | 00:00:00 | |
| HA6NAB-11 | 2026-09-05 01:02:41 | 48.96157 | 21.59975 | 68° | 20km/h | 34044m | 6.6m/s | -38.1°C | 0.5% | 6.9hPa | 2.7V | 00:00:00 | 00:00:00 | 00:00:00 | |
| HA6NAB-11 | 2026-09-05 01:02:36 | 48.96135 | 21.59929 | 73° | 29km/h | 34014m | 4.5m/s | -38.2°C | 0.5% | 6.9hPa | 2.7V | 00:00:00 | 00:00:00 | 00:00:00 | |
| OE5DRO-10 | 2026-09-05 01:02:31 | 48.96127 | 21.59862 | 84° | 26km/h | 33986m | 5.9m/s | -38.2°C | 2.1% | 6.9hPa | 2.7V | 00:00:00 | 00:00:00 | 00:00:00 | |
| HA6NAB-11 | 2026-09-05 01:02:30 | 48.96127 | 21.59862 | 85° | 22km/h | 33986m | 5.9m/s | -38.2°C | 0.5% | 7.0hPa | 2.7V | 00:00:00 | 00:00:00 | 00:00:00 | |
| SQ9EZE-13 | 2026-09-05 01:02:29 | 48.96126 | 21.59853 | 105° | 15km/h | 33984m | 7.6m/s | -38.2°C | 0.5% | 7.0hPa | 2.7V | 00:00:00 | 00:00:00 | 00:00:00 | |
| HA6NAB-11 | 2026-09-05 01:02:24 | 48.96122 | 21.59799 | 62° | 33km/h | 33954m | 6.7m/s | -38.2°C | 0.5% | 7.0hPa | 2.7V | 00:00:00 | 00:00:00 | 00:00:00 | |
| HA6NAB-11 | 2026-09-05 01:02:18 | 48.96099 | 21.59748 | 68° | 24km/h | 33911m | 10.1m/s | -38.3°C | 0.5% | 7.1hPa | 2.7V | 00:00:00 | 00:00:00 | 00:00:00 | |
| SQ9EZE-13 | 2026-09-05 01:02:14 | 48.96109 | 21.59712 | 109° | 26km/h | 33863m | 5.6m/s | -38.2°C | 0.5% | 7.1hPa | 2.7V | 00:00:00 | 00:00:00 | 00:00:00 | |
| OE5DRO-10 | 2026-09-05 01:02:12 | 48.96110 | 21.59688 | 58° | 31km/h | 33834m | 3.2m/s | -38.1°C | 2.2% | 7.1hPa | 2.7V | 00:00:00 | 00:00:00 | 00:00:00 | |
| SQ9EZE-13 | 2026-09-05 01:01:58 | 48.96069 | 21.59551 | 71° | 31km/h | 33741m | 4.2m/s | -37.8°C | 0.5% | 7.2hPa | 2.7V | 00:00:00 | 00:00:00 | 00:00:00 | |
| GYPAP8-17 | 2026-09-05 01:01:56 | 48.96065 | 21.59526 | 62° | 33km/h | 33729m | 1.5m/s | -37.7°C | 0.5% | 7.2hPa | 2.7V | 00:00:00 | 00:00:00 | 00:00:00 | |
| OE5DRO-10 | 2026-09-05 01:01:53 | 48.96051 | 21.59497 | 48° | 20km/h | 33704m | 1.9m/s | 0°C | 0% | 0hPa | 2.7V | 00:00:00 | 00:00:00 | 00:00:00 | |
| LZ4TU-5 | 2026-09-05 01:01:47 | 48.96048 | 21.59468 | 77° | 38km/h | 33685m | 4.5m/s | -37.4°C | 0% | 0hPa | 2.7V | 00:00:00 | 00:00:00 | 00:00:00 | |
| SQ9EZE-13 | 2026-09-05 01:01:43 | 48.96041 | 21.59412 | 60° | 29km/h | 33661m | 3.1m/s | -37.3°C | 0.5% | 7.3hPa | 2.7V | 00:00:00 | 00:00:00 | 00:00:00 | |
| OE5DRO-10 | 2026-09-05 01:01:34 | 48.96010 | 21.59366 | 75° | 20km/h | 33638m | 4.5m/s | 0°C | 0% | 0hPa | 2.7V | 00:00:00 | 00:00:00 | 00:00:00 | |
| SQ9EZE-13 | 2026-09-05 01:01:28 | 48.95987 | 21.59342 | 17° | 24km/h | 33622m | 3.1m/s | -36.9°C | 0.5% | 7.4hPa | 2.7V | 00:00:00 | 00:00:00 | 00:00:00 | |
| OE5DRO-10 | 2026-09-05 01:01:15 | 48.95964 | 21.59305 | 63° | 20km/h | 33520m | 0.3m/s | 0°C | 0% | 0hPa | 2.7V | 00:00:00 | 00:00:00 | 00:00:00 | |
| SQ9EZE-13 | 2026-09-05 01:01:11 | 48.95948 | 21.59306 | 322° | 20km/h | 33512m | 3.7m/s | -37.1°C | 0.5% | 7.5hPa | 2.7V | 00:00:00 | 00:00:00 | 00:00:00 | |
| HA6NAB-11 | 2026-09-05 01:01:03 | 48.95951 | 21.59289 | 118° | 29km/h | 33478m | 5.6m/s | -37.3°C | 0.5% | 7.5hPa | 2.7V | 00:00:00 | 00:00:00 | 00:00:00 | |
| HA6NAB-11 | 2026-09-05 01:00:58 | 48.95968 | 21.59252 | 151° | 18km/h | 33451m | 5.0m/s | -37.8°C | 0.5% | 7.5hPa | 2.7V | 00:00:00 | 00:00:00 | 00:00:00 | |
| OE5DRO-10 | 2026-09-05 01:00:55 | 48.95974 | 21.59245 | 42° | 15km/h | 33427m | 7.5m/s | 0°C | 0% | 0hPa | 2.7V | 00:00:00 | 00:00:00 | 00:00:00 | |
| HA6NAB-11 | 2026-09-05 01:00:53 | 48.95971 | 21.59243 | 12° | 11km/h | 33420m | 5.8m/s | -38.0°C | 0.5% | 7.6hPa | 2.7V | 00:00:00 | 00:00:00 | 00:00:00 | |
| HA6NAB-11 | 2026-09-05 01:00:48 | 48.95970 | 21.59220 | 155° | 24km/h | 33385m | 4.6m/s | -38.3°C | 0.5% | 7.6hPa | 2.7V | 00:00:00 | 00:00:00 | 00:00:00 | |
| HA6NAB-11 | 2026-09-05 01:00:41 | 48.95982 | 21.59209 | 29° | 20km/h | 33350m | 5.5m/s | -38.3°C | 0.5% | 7.6hPa | 2.7V | 00:00:00 | 00:00:00 | 00:00:00 | |
| SQ9EZE-13 | 2026-09-05 01:00:39 | 48.95972 | 21.59203 | 33° | 26km/h | 33339m | 6.7m/s | -38.4°C | 0.6% | 7.6hPa | 2.7V | 00:00:00 | 00:00:00 | 00:00:00 | |
| OE5DRO-10 | 2026-09-05 01:00:36 | 48.95958 | 21.59184 | 71° | 13km/h | 33312m | 6.1m/s | 0°C | 0% | 0hPa | 2.7V | 00:00:00 | 00:00:00 | 00:00:00 | |
| HA6NAB-11 | 2026-09-05 01:00:35 | 48.95958 | 21.59184 | 71° | 15km/h | 33312m | 6.2m/s | -38.4°C | 0.5% | 7.7hPa | 2.7V | 00:00:00 | 00:00:00 | 00:00:00 | |
| GYPAP8-17 | 2026-09-05 01:00:33 | 48.95955 | 21.59176 | 43° | 11km/h | 33297m | 4.7m/s | -38.4°C | 0.5% | 7.7hPa | 2.7V | 00:00:00 | 00:00:00 | 00:00:00 | |
| HA6NAB-11 | 2026-09-05 01:00:29 | 48.95961 | 21.59169 | 149° | 15km/h | 33275m | 7.0m/s | -38.3°C | 0.5% | 7.7hPa | 2.7V | 00:00:00 | 00:00:00 | 00:00:00 | |
| SQ9EZE-13 | 2026-09-05 01:00:25 | 48.95968 | 21.59163 | 42° | 9km/h | 33236m | 4.8m/s | -38.2°C | 0.5% | 7.7hPa | 2.7V | 00:00:00 | 00:00:00 | 00:00:00 | |
| OE5DRO-10 | 2026-09-05 01:00:18 | 48.95973 | 21.59130 | 150° | 24km/h | 33201m | 5.2m/s | 0°C | 0% | 0hPa | 2.7V | 00:00:00 | 00:00:00 | 00:00:00 | |
| SQ9EZE-13 | 2026-09-05 01:00:08 | 48.95995 | 21.59122 | 166° | 16km/h | 33155m | 6.5m/s | -38.1°C | 0.5% | 7.8hPa | 2.7V | 00:00:00 | 00:00:00 | 00:00:00 | |
| OE5DRO-10 | 2026-09-05 00:59:55 | 48.96032 | 21.59068 | 105° | 13km/h | 33103m | -5.1m/s | 0°C | 0% | 0hPa | 2.7V | 00:00:00 | 00:00:00 | 00:00:00 | |
| SQ9EZE-13 | 2026-09-05 00:59:52 | 48.96040 | 21.59066 | 44° | 16km/h | 33094m | -0.8m/s | -38.4°C | 0.5% | 8.0hPa | 2.7V | 00:00:00 | 00:00:00 | 00:00:00 | |
| LZ4TU-5 | 2026-09-05 00:59:48 | 48.96066 | 21.59058 | 139° | 27km/h | 33053m | 4.5m/s | -38.3°C | 0% | 0hPa | 2.7V | 00:00:00 | 00:00:00 | 00:00:00 | |
| SQ9EZE-14 | 2026-09-05 00:59:47 | 48.96069 | 21.59051 | 139° | 18km/h | 33045m | 4.3m/s | -38.3°C | 0.5% | 8.0hPa | 2.7V | 00:00:00 | 00:00:00 | 00:00:00 | |
| SQ9EZE-13 | 2026-09-05 00:59:36 | 48.96128 | 21.59008 | 149° | 38km/h | 32957m | 9.3m/s | -38.3°C | 0.5% | 8.1hPa | 2.7V | 00:00:00 | 00:00:00 | 00:00:00 | |
| SQ9EZE-13 | 2026-09-05 00:59:20 | 48.96196 | 21.58935 | 125° | 44km/h | 32906m | 2.8m/s | -38.2°C | 0.5% | 8.2hPa | 2.7V | 00:00:00 | 00:00:00 | 00:00:00 | |
| GYPAP8-17 | 2026-09-05 00:59:19 | 48.96202 | 21.58926 | 124° | 38km/h | 32908m | 1.7m/s | -38.2°C | 0.5% | 8.2hPa | 2.7V | 00:00:00 | 00:00:00 | 00:00:00 | |
| HA6NAB-11 | 2026-09-05 00:59:17 | 48.96212 | 21.58903 | 100° | 35km/h | 32909m | 5.6m/s | -38.2°C | 0.5% | 8.2hPa | 2.7V | 00:00:00 | 00:00:00 | 00:00:00 | |
| HA6NAB-11 | 2026-09-05 00:59:11 | 48.96219 | 21.58867 | 80° | 27km/h | 32860m | 8.2m/s | -38.4°C | 0.5% | 8.2hPa | 2.7V | 00:00:00 | 00:00:00 | 00:00:00 | |
| HA6NAB-11 | 2026-09-05 00:59:05 | 48.96270 | 21.58806 | 131° | 35km/h | 32812m | 6.2m/s | -38.6°C | 0.5% | 8.3hPa | 2.7V | 00:00:00 | 00:00:00 | 00:00:00 | |
| HA6NAB-11 | 2026-09-05 00:59:00 | 48.96280 | 21.58773 | 72° | 22km/h | 32781m | 5.9m/s | -38.8°C | 0.5% | 8.3hPa | 2.7V | 00:00:00 | 00:00:00 | 00:00:00 | |
| HA6NAB-11 | 2026-09-05 00:58:55 | 48.96296 | 21.58706 | 124° | 40km/h | 32744m | 5.6m/s | -38.9°C | 0.6% | 8.4hPa | 2.7V | 00:00:00 | 00:00:00 | 00:00:00 | |
| HA6NAB-11 | 2026-09-05 00:58:48 | 48.96318 | 21.58643 | 109° | 27km/h | 32704m | 5.2m/s | -39.1°C | 0.6% | 8.4hPa | 2.7V | 00:00:00 | 00:00:00 | 00:00:00 | |
| SQ9EZE-13 | 2026-09-05 00:58:47 | 48.96320 | 21.58631 | 91° | 35km/h | 32696m | 6.3m/s | -39.1°C | 0.6% | 8.4hPa | 2.7V | 00:00:00 | 00:00:00 | 00:00:00 | |
| SQ9EZE-13 | 2026-09-05 00:58:15 | 48.96277 | 21.58290 | 91° | 29km/h | 32508m | 3.8m/s | -39.6°C | 0.5% | 8.7hPa | 2.7V | 00:00:00 | 00:00:00 | 00:00:00 | |
| GYPAP8-17 | 2026-09-05 00:58:05 | 48.96265 | 21.58189 | 103° | 31km/h | 32450m | 3.3m/s | -40.5°C | 0.6% | 8.7hPa | 2.7V | 00:00:00 | 00:00:00 | 00:00:00 | |
| SQ9EZE-13 | 2026-09-05 00:57:59 | 48.96275 | 21.58125 | 115° | 26km/h | 32418m | 5.4m/s | -41.0°C | 0.6% | 8.8hPa | 2.7V | 00:00:00 | 00:00:00 | 00:00:00 | |
| LZ4TU-5 | 2026-09-05 00:57:39 | 48.96301 | 21.57928 | 79° | 20km/h | 32285m | 6.9m/s | -42.1°C | 0% | 0hPa | 2.7V | 00:00:00 | 00:00:00 | 00:00:00 | |
| LZ4TU-5 | 2026-09-05 00:57:34 | 48.96289 | 21.57908 | 46° | 18km/h | 32263m | 3.7m/s | -42.0°C | 0% | 0hPa | 2.7V | 00:00:00 | 00:00:00 | 00:00:00 | |
| GYPAP8-17 | 2026-09-05 00:56:50 | 48.96259 | 21.57547 | 37° | 26km/h | 32053m | 3.1m/s | -43.4°C | 0.7% | 9.3hPa | 2.7V | 00:00:00 | 00:00:00 | 00:00:00 | |
| HA6NAB-11 | 2026-09-05 00:56:46 | 48.96237 | 21.57526 | 59° | 13km/h | 32037m | 5.4m/s | -43.3°C | 0.7% | 9.3hPa | 2.7V | 00:00:00 | 00:00:00 | 00:00:00 | |
| HA6NAB-11 | 2026-09-05 00:56:40 | 48.96230 | 21.57477 | 73° | 27km/h | 32012m | 3.0m/s | -43.2°C | 0.7% | 9.3hPa | 2.7V | 00:00:00 | 00:00:00 | 00:00:00 | |
| HA6NAB-11 | 2026-09-05 00:56:34 | 48.96206 | 21.57448 | 11° | 22km/h | 31978m | 5.2m/s | -43.3°C | 0.7% | 9.4hPa | 2.7V | 00:00:00 | 00:00:00 | 00:00:00 | |
| HA6NAB-11 | 2026-09-05 00:56:28 | 48.96185 | 21.57428 | 78° | 11km/h | 31944m | 6.2m/s | -43.3°C | 0.7% | 9.4hPa | 2.7V | 00:00:00 | 00:00:00 | 00:00:00 | |
| HA6NAB-11 | 2026-09-05 00:56:23 | 48.96183 | 21.57393 | 72° | 27km/h | 31914m | 7.3m/s | -43.4°C | 0.7% | 9.5hPa | 2.7V | 00:00:00 | 00:00:00 | 00:00:00 | |
| HA6NAB-11 | 2026-09-05 00:56:18 | 48.96179 | 21.57360 | 40° | 7km/h | 31880m | 5.5m/s | -43.3°C | 0.7% | 9.5hPa | 2.7V | 00:00:00 | 00:00:00 | 00:00:00 | |
| HA6NAB-11 | 2026-09-05 00:56:10 | 48.96160 | 21.57340 | 69° | 11km/h | 31840m | 5.7m/s | -43.3°C | 0.7% | 9.6hPa | 2.7V | 00:00:00 | 00:00:00 | 00:00:00 | |
| HA6NAB-11 | 2026-09-05 00:56:05 | 48.96158 | 21.57310 | 71° | 22km/h | 31806m | 6.9m/s | -43.1°C | 0.7% | 9.6hPa | 2.7V | 00:00:00 | 00:00:00 | 00:00:00 | |
| HA6NAB-11 | 2026-09-05 00:55:59 | 48.96163 | 21.57289 | 113° | 4km/h | 31768m | 5.5m/s | -43.0°C | 0.7% | 9.7hPa | 2.7V | 00:00:00 | 00:00:00 | 00:00:00 | |
| HA6NAB-11 | 2026-09-05 00:55:54 | 48.96164 | 21.57272 | 121° | 13km/h | 31740m | 6.2m/s | -42.9°C | 0.7% | 9.7hPa | 2.7V | 00:00:00 | 00:00:00 | 00:00:00 | |
| HA6NAB-11 | 2026-09-05 00:55:48 | 48.96177 | 21.57244 | 109° | 20km/h | 31699m | 6.4m/s | -43.0°C | 0.7% | 9.8hPa | 2.7V | 00:00:00 | 00:00:00 | 00:00:00 | |
| GYPAP8-17 | 2026-09-05 00:55:46 | 48.96181 | 21.57231 | 117° | 15km/h | 31689m | 5.3m/s | -43.0°C | 0.7% | 9.8hPa | 2.7V | 00:00:00 | 00:00:00 | 00:00:00 | |
| OE5DRO-10 | 2026-09-05 00:55:35 | 48.96213 | 21.57171 | 141° | 24km/h | 31624m | 5.3m/s | 0°C | 0% | 0hPa | 2.7V | 00:00:00 | 00:00:00 | 00:00:00 | |
| SQ9EZE-13 | 2026-09-05 00:55:28 | 48.96226 | 21.57143 | 94° | 13km/h | 31581m | 4.9m/s | -42.3°C | 0.7% | 10.0hPa | 2.7V | 00:00:00 | 00:00:00 | 00:00:00 | |
| LZ4TU-5 | 2026-09-05 00:55:25 | 48.96234 | 21.57132 | 113° | 20km/h | 31564m | 4.9m/s | -42.4°C | 0% | 0hPa | 2.7V | 00:00:00 | 00:00:00 | 00:00:00 | |
| LZ4TU-5 | 2026-09-05 00:55:21 | 48.96239 | 21.57093 | 92° | 26km/h | 31546m | 4.0m/s | -42.4°C | 0% | 0hPa | 2.7V | 00:00:00 | 00:00:00 | 00:00:00 | |
| OE5DRO-10 | 2026-09-05 00:55:16 | 48.96245 | 21.57060 | 94° | 26km/h | 31518m | 6.3m/s | 0°C | 0% | 0hPa | 2.7V | 00:00:00 | 00:00:00 | 00:00:00 | |
| SQ9EZE-14 | 2026-09-05 00:55:12 | 48.96243 | 21.57040 | 92° | 18km/h | 31503m | 5.8m/s | -42.4°C | 0.7% | 10.1hPa | 2.7V | 00:00:00 | 00:00:00 | 00:00:00 | |
| OE5DRO-10 | 2026-09-05 00:54:56 | 48.96265 | 21.56880 | 86° | 22km/h | 31395m | 6.1m/s | 0°C | 0% | 0hPa | 2.7V | 00:00:00 | 00:00:00 | 00:00:00 | |
| SQ9EZE-13 | 2026-09-05 00:54:41 | 48.96264 | 21.56734 | 168° | 20km/h | 31352m | 9.8m/s | -42.7°C | 0.7% | 10.4hPa | 2.7V | 00:00:00 | 00:00:00 | 00:00:00 | |
| OE5DRO-10 | 2026-09-05 00:54:37 | 48.96292 | 21.56727 | 89° | 27km/h | 31257m | 5.6m/s | 0°C | 0% | 0hPa | 2.7V | 00:00:00 | 00:00:00 | 00:00:00 | |
| GYPAP8-17 | 2026-09-05 00:54:36 | 48.96292 | 21.56726 | 89° | 26km/h | 31257m | 5.6m/s | -42.8°C | 0.7% | 10.4hPa | 2.7V | 00:00:00 | 00:00:00 | 00:00:00 | |
| SQ9EZE-13 | 2026-09-05 00:54:25 | 48.96300 | 21.56608 | 116° | 20km/h | 31182m | 4.0m/s | -43.0°C | 0.7% | 10.6hPa | 2.7V | 00:00:00 | 00:00:00 | 00:00:00 | |
| OE5DRO-10 | 2026-09-05 00:54:16 | 48.96288 | 21.56514 | 101° | 33km/h | 31131m | 5.2m/s | 0°C | 0% | 0hPa | 2.7V | 00:00:00 | 00:00:00 | 00:00:00 | |
| SQ9EZE-13 | 2026-09-05 00:54:10 | 48.96279 | 21.56457 | 69° | 29km/h | 31095m | 4.3m/s | -42.7°C | 0.7% | 10.7hPa | 2.7V | 00:00:00 | 00:00:00 | 00:00:00 | |
| OE5DRO-10 | 2026-09-05 00:53:57 | 48.96243 | 21.56292 | 60° | 31km/h | 30994m | 3.9m/s | 0°C | 0% | 0hPa | 2.7V | 00:00:00 | 00:00:00 | 00:00:00 | |
| SQ9EZE-13 | 2026-09-05 00:53:55 | 48.96238 | 21.56283 | 40° | 35km/h | 30989m | 6.5m/s | -42.9°C | 0.7% | 10.8hPa | 2.7V | 00:00:00 | 00:00:00 | 00:00:00 | |
| HA6NAB-11 | 2026-09-05 00:53:53 | 48.96225 | 21.56266 | 47° | 33km/h | 30977m | 4.7m/s | -42.9°C | 0.7% | 10.9hPa | 2.7V | 00:00:00 | 00:00:00 | 00:00:00 | |
| HA6NAB-11 | 2026-09-05 00:53:48 | 48.96206 | 21.56218 | 80° | 27km/h | 30946m | 4.9m/s | -43.0°C | 0.7% | 10.9hPa | 2.7V | 00:00:00 | 00:00:00 | 00:00:00 | |
| HA6NAB-11 | 2026-09-05 00:53:42 | 48.96183 | 21.56156 | 50° | 22km/h | 30916m | 6.2m/s | -42.9°C | 0.7% | 11.0hPa | 2.7V | 00:00:00 | 00:00:00 | 00:00:00 | |
| SQ9EZE-13 | 2026-09-05 00:53:39 | 48.96167 | 21.56134 | 37° | 27km/h | 30899m | 6.0m/s | -42.8°C | 0.7% | 11.0hPa | 2.7V | 00:00:00 | 00:00:00 | 00:00:00 | |
| HA6NAB-11 | 2026-09-05 00:53:37 | 48.96155 | 21.56119 | 43° | 29km/h | 30887m | 4.3m/s | -42.8°C | 0.7% | 11.0hPa | 2.7V | 00:00:00 | 00:00:00 | 00:00:00 | |
| HA6NAB-11 | 2026-09-05 00:53:31 | 48.96133 | 21.56056 | 62° | 24km/h | 30880m | 1.9m/s | -42.9°C | 0.7% | 11.1hPa | 2.7V | 00:00:00 | 00:00:00 | 00:00:00 | |
| HA6NAB-11 | 2026-09-05 00:53:25 | 48.96086 | 21.56001 | 345° | 9km/h | 30888m | 11.9m/s | -43.0°C | 0.7% | 11.2hPa | 2.7V | 00:00:00 | 00:00:00 | 00:00:00 | |
| SQ9EZE-13 | 2026-09-05 00:53:23 | 48.96087 | 21.56008 | 37° | 13km/h | 30851m | 9.4m/s | -43.1°C | 0.7% | 11.2hPa | 2.7V | 00:00:00 | 00:00:00 | 00:00:00 | |
| SQ9EZE-13 | 2026-09-05 00:53:07 | 48.96050 | 21.55978 | 55° | 11km/h | 30709m | 6.3m/s | -43.4°C | 0.7% | 11.3hPa | 2.7V | 00:00:00 | 00:00:00 | 00:00:00 | |
| LZ4TU-5 | 2026-09-05 00:53:05 | 48.96051 | 21.55977 | 0° | 0km/h | 30697m | 4.2m/s | -43.4°C | 0% | 0hPa | 2.7V | 00:00:00 | 00:00:00 | 00:00:00 | |
| SQ9EZE-14 | 2026-09-05 00:52:56 | 48.96018 | 21.55971 | 11° | 18km/h | 30652m | 3.5m/s | -43.4°C | 0.7% | 11.4hPa | 2.7V | 00:00:00 | 00:00:00 | 00:00:00 | |
| SQ9EZE-13 | 2026-09-05 00:52:51 | 48.96013 | 21.55931 | 120° | 22km/h | 30625m | 6.8m/s | -43.5°C | 0.7% | 11.5hPa | 2.7V | 00:00:00 | 00:00:00 | 00:00:00 | |
| SQ9EZE-14 | 2026-09-05 00:52:41 | 48.96009 | 21.55914 | 9° | 7km/h | 30555m | 5.0m/s | -43.7°C | 0.7% | 11.6hPa | 2.7V | 00:00:00 | 00:00:00 | 00:00:00 | |
| SQ9EZE-13 | 2026-09-05 00:52:36 | 48.96016 | 21.55904 | 142° | 22km/h | 30533m | 5.6m/s | -43.7°C | 0.7% | 11.6hPa | 2.7V | 00:00:00 | 00:00:00 | 00:00:00 | |
| GYPAP8-17 | 2026-09-05 00:52:33 | 48.96026 | 21.55892 | 98° | 9km/h | 30514m | 6.0m/s | -43.7°C | 0.7% | 11.7hPa | 2.7V | 00:00:00 | 00:00:00 | 00:00:00 | |
| SQ9EZE-13 | 2026-09-05 00:52:21 | 48.96012 | 21.55845 | 80° | 20km/h | 30446m | 7.2m/s | -43.7°C | 0.7% | 11.8hPa | 2.7V | 00:00:00 | 00:00:00 | 00:00:00 | |
| SQ9EZE-13 | 2026-09-05 00:52:05 | 48.96032 | 21.55733 | 124° | 22km/h | 30324m | 2.6m/s | -44.1°C | 0.7% | 11.9hPa | 2.7V | 00:00:00 | 00:00:00 | 00:00:00 | |
| SQ9EZE-13 | 2026-09-05 00:51:48 | 48.96033 | 21.55582 | 66° | 18km/h | 30260m | 4.6m/s | -44.6°C | 0.7% | 12.1hPa | 2.7V | 00:00:00 | 00:00:00 | 00:00:00 | |
| SQ9EZE-13 | 2026-09-05 00:51:30 | 48.96032 | 21.55410 | 83° | 29km/h | 30168m | 5.4m/s | -44.6°C | 0.7% | 12.3hPa | 2.7V | 00:00:00 | 00:00:00 | 00:00:00 | |
| GYPAP8-17 | 2026-09-05 00:51:04 | 48.95974 | 21.55190 | 51° | 31km/h | 30012m | 3.5m/s | -45.3°C | 0.7% | 12.6hPa | 2.7V | 00:00:00 | 00:00:00 | 00:00:00 | |
| LZ4TU-5 | 2026-09-05 00:50:50 | 48.95914 | 21.55088 | 46° | 22km/h | 29939m | 4.7m/s | -45.4°C | 0% | 0hPa | 2.7V | 00:00:00 | 00:00:00 | 00:00:00 | |
| LZ4TU-5 | 2026-09-05 00:50:45 | 48.95906 | 21.55038 | 90° | 33km/h | 29909m | 4.6m/s | -45.6°C | 0% | 0hPa | 2.7V | 00:00:00 | 00:00:00 | 00:00:00 | |
| HA6NAB-11 | 2026-09-05 00:50:29 | 48.95852 | 21.54921 | 128° | 20km/h | 29836m | 5.6m/s | -46.0°C | 0.8% | 12.9hPa | 2.7V | 00:00:00 | 00:00:00 | 00:00:00 | |
| HA6NAB-11 | 2026-09-05 00:50:23 | 48.95849 | 21.54911 | 24° | 26km/h | 29802m | 6.5m/s | -46.2°C | 0.8% | 13.0hPa | 2.7V | 00:00:00 | 00:00:00 | 00:00:00 | |
| HA6NAB-11 | 2026-09-05 00:43:19 | 48.96062 | 21.52900 | 257° | 4km/h | 27367m | 4.9m/s | -49.7°C | 1.0% | 18.8hPa | 2.7V | 00:00:00 | 00:00:00 | 00:00:00 | |
| GYPAP8-17 | 2026-09-05 00:43:18 | 48.96062 | 21.52900 | 257° | 4km/h | 27367m | 4.9m/s | -49.7°C | 1.0% | 18.8hPa | 2.7V | 00:00:00 | 00:00:00 | 00:00:00 | |
| HA6NAB-11 | 2026-09-05 00:43:12 | 48.96059 | 21.52906 | 105° | 13km/h | 27336m | 5.6m/s | -49.9°C | 1.0% | 18.9hPa | 2.7V | 00:00:00 | 00:00:00 | 00:00:00 | |
| HA6NAB-11 | 2026-09-05 00:43:06 | 48.96049 | 21.52862 | 50° | 15km/h | 27304m | 4.7m/s | -50.0°C | 1.0% | 19.0hPa | 2.7V | 00:00:00 | 00:00:00 | 00:00:00 | |
| HA6NAB-11 | 2026-09-05 00:43:01 | 48.96047 | 21.52840 | 97° | 11km/h | 27277m | 5.1m/s | -50.1°C | 1.0% | 19.0hPa | 2.7V | 00:00:00 | 00:00:00 | 00:00:00 | |
| HA6NAB-11 | 2026-09-05 00:42:56 | 48.96051 | 21.52813 | 110° | 22km/h | 27254m | 5.6m/s | -50.1°C | 1.0% | 19.1hPa | 2.7V | 00:00:00 | 00:00:00 | 00:00:00 | |
| HA6NAB-11 | 2026-09-05 00:42:50 | 48.96058 | 21.52758 | 74° | 20km/h | 27221m | 4.4m/s | -50.1°C | 1.0% | 19.2hPa | 2.7V | 00:00:00 | 00:00:00 | 00:00:00 | |
| LZ4TU-5 | 2026-09-05 00:42:45 | 48.96058 | 21.52725 | 84° | 15km/h | 27198m | 5.6m/s | -50.0°C | 0% | 0hPa | 2.7V | 00:00:00 | 00:00:00 | 00:00:00 | |
| LZ4TU-5 | 2026-09-05 00:42:41 | 48.96053 | 21.52697 | 77° | 22km/h | 27178m | 5.5m/s | 0°C | 0% | 0hPa | 2.7V | 00:00:00 | 00:00:00 | 00:00:00 | |
| SQ9EZE-13 | 2026-09-05 00:42:26 | 48.96039 | 21.52620 | 107° | 9km/h | 27083m | 4.9m/s | -49.7°C | 1.0% | 19.6hPa | 2.7V | 00:00:00 | 00:00:00 | 00:00:00 | |
| SQ9EZE-13 | 2026-09-05 00:42:10 | 48.96034 | 21.52590 | 179° | 4km/h | 26997m | 4.3m/s | -49.5°C | 1.0% | 19.9hPa | 2.7V | 00:00:00 | 00:00:00 | 00:00:00 | |
| SQ9EZE-13 | 2026-09-05 00:41:54 | 48.96017 | 21.52552 | 173° | 11km/h | 26915m | 4.4m/s | -49.7°C | 1.0% | 20.1hPa | 2.7V | 00:00:00 | 00:00:00 | 00:00:00 | |
| SQ9EZE-13 | 2026-09-05 00:41:38 | 48.96028 | 21.52536 | 196° | 7km/h | 26825m | 4.8m/s | -49.5°C | 1.0% | 20.4hPa | 2.7V | 00:00:00 | 00:00:00 | 00:00:00 | |
| GYPAP8-17 | 2026-09-05 00:41:32 | 48.96027 | 21.52530 | 105° | 11km/h | 26785m | 5.4m/s | -49.5°C | 1.0% | 20.5hPa | 2.7V | 00:00:00 | 00:00:00 | 00:00:00 | |
| SQ9EZE-13 | 2026-09-05 00:41:23 | 48.96044 | 21.52508 | 187° | 9km/h | 26742m | 4.6m/s | -49.3°C | 1.0% | 20.7hPa | 2.7V | 00:00:00 | 00:00:00 | 00:00:00 | |
| SQ9EZE-14 | 2026-09-05 00:41:08 | 48.96050 | 21.52483 | 183° | 7km/h | 26656m | 4.4m/s | -49.2°C | 1.0% | 20.9hPa | 2.7V | 00:00:00 | 00:00:00 | 00:00:00 | |
| HA6NAB-11 | 2026-09-05 00:41:02 | 48.96045 | 21.52488 | 46° | 11km/h | 26626m | 5.5m/s | -49.3°C | 1.0% | 21.0hPa | 2.7V | 00:00:00 | 00:00:00 | 00:00:00 | |
| HA6NAB-11 | 2026-09-05 00:40:57 | 48.96047 | 21.52461 | 116° | 15km/h | 26599m | 5.6m/s | -49.3°C | 0.9% | 21.1hPa | 2.7V | 00:00:00 | 00:00:00 | 00:00:00 | |
| SQ9EZE-14 | 2026-09-05 00:40:53 | 48.96056 | 21.52453 | 165° | 9km/h | 26574m | 5.9m/s | -49.4°C | 0.9% | 21.2hPa | 2.7V | 00:00:00 | 00:00:00 | 00:00:00 | |
| SQ9EZE-13 | 2026-09-05 00:40:52 | 48.96056 | 21.52453 | 165° | 9km/h | 26574m | 5.9m/s | -49.4°C | 0.9% | 21.2hPa | 2.7V | 00:00:00 | 00:00:00 | 00:00:00 | |
| HA6NAB-11 | 2026-09-05 00:40:51 | 48.96058 | 21.52451 | 157° | 11km/h | 26569m | 5.1m/s | -49.4°C | 1.0% | 21.2hPa | 2.7V | 00:00:00 | 00:00:00 | 00:00:00 | |
| HA6NAB-11 | 2026-09-05 00:40:46 | 48.96060 | 21.52447 | 6° | 7km/h | 26546m | 4.7m/s | -49.4°C | 0.9% | 21.3hPa | 2.7V | 00:00:00 | 00:00:00 | 00:00:00 | |
| HA6NAB-11 | 2026-09-05 00:40:40 | 48.96060 | 21.52429 | 137° | 11km/h | 26517m | 5.5m/s | -49.6°C | 1.0% | 21.4hPa | 2.7V | 00:00:00 | 00:00:00 | 00:00:00 | |
| SQ9EZE-13 | 2026-09-05 00:40:37 | 48.96066 | 21.52426 | 190° | 7km/h | 26499m | 5.1m/s | -49.8°C | 1.0% | 21.4hPa | 2.7V | 00:00:00 | 00:00:00 | 00:00:00 | |
| SQ9EZE-13 | 2026-09-05 00:40:21 | 48.96067 | 21.52406 | 78° | 4km/h | 26409m | 5.8m/s | -50.0°C | 1.0% | 21.7hPa | 2.7V | 00:00:00 | 00:00:00 | 00:00:00 | |
| GYPAP8-17 | 2026-09-05 00:40:19 | 48.96066 | 21.52403 | 54° | 2km/h | 26397m | 4.2m/s | -50.1°C | 1.0% | 21.8hPa | 2.7V | 00:00:00 | 00:00:00 | 00:00:00 | |
| SQ9EZE-13 | 2026-09-05 00:40:05 | 48.96078 | 21.52399 | 111° | 4km/h | 26318m | 4.4m/s | -50.2°C | 1.0% | 22.0hPa | 2.7V | 00:00:00 | 00:00:00 | 00:00:00 | |
| SQ9EZE-13 | 2026-09-05 00:39:49 | 48.96115 | 21.52370 | 154° | 15km/h | 26232m | 5.6m/s | -49.9°C | 1.0% | 22.3hPa | 2.7V | 00:00:00 | 00:00:00 | 00:00:00 | |
| LZ4TU-5 | 2026-09-05 00:39:42 | 48.96143 | 21.52339 | 143° | 27km/h | 26193m | 4.6m/s | 0°C | 0% | 0hPa | 2.7V | 00:00:00 | 00:00:00 | 00:00:00 | |
| SQ9EZE-13 | 2026-09-05 00:39:33 | 48.96183 | 21.52295 | 136° | 16km/h | 26144m | 5.2m/s | -49.6°C | 1.0% | 22.6hPa | 2.7V | 00:00:00 | 00:00:00 | 00:00:00 | |
| SQ9EZE-13 | 2026-09-05 00:39:18 | 48.96245 | 21.52190 | 118° | 26km/h | 26066m | 6.1m/s | -49.7°C | 1.0% | 22.9hPa | 2.7V | 00:00:00 | 00:00:00 | 00:00:00 | |
| SQ9EZE-13 | 2026-09-05 00:39:02 | 48.96290 | 21.52049 | 90° | 22km/h | 25977m | 4.3m/s | -49.6°C | 1.0% | 23.2hPa | 2.7V | 00:00:00 | 00:00:00 | 00:00:00 | |
| HA6NAB-11 | 2026-09-05 00:38:57 | 48.96290 | 21.51994 | 89° | 29km/h | 25953m | 5.0m/s | -49.7°C | 1.0% | 23.3hPa | 2.7V | 00:00:00 | 00:00:00 | 00:00:00 | |
| GYPAP8-17 | 2026-09-05 00:38:56 | 48.96290 | 21.51983 | 96° | 24km/h | 25947m | 4.9m/s | -49.7°C | 1.0% | 23.3hPa | 2.7V | 00:00:00 | 00:00:00 | 00:00:00 | |
| HA6NAB-11 | 2026-09-05 00:38:51 | 48.96299 | 21.51941 | 119° | 22km/h | 25920m | 3.6m/s | -49.6°C | 1.0% | 23.4hPa | 2.7V | 00:00:00 | 00:00:00 | 00:00:00 | |
| HA6NAB-11 | 2026-09-05 00:38:46 | 48.96308 | 21.51908 | 110° | 22km/h | 25896m | 5.6m/s | -49.5°C | 1.0% | 23.5hPa | 2.7V | 00:00:00 | 00:00:00 | 00:00:00 | |
| HA6NAB-11 | 2026-09-05 00:38:41 | 48.96316 | 21.51868 | 100° | 16km/h | 25867m | 5.1m/s | -49.3°C | 1.0% | 23.6hPa | 2.7V | 00:00:00 | 00:00:00 | 00:00:00 | |
| SQ9EZE-14 | 2026-09-05 00:38:36 | 48.96322 | 21.51836 | 110° | 15km/h | 25842m | 5.1m/s | -49.3°C | 1.0% | 23.7hPa | 2.7V | 00:00:00 | 00:00:00 | 00:00:00 | |
| HA6NAB-11 | 2026-09-05 00:38:35 | 48.96323 | 21.51832 | 107° | 11km/h | 25835m | 6.4m/s | -49.3°C | 1.0% | 23.7hPa | 2.7V | 00:00:00 | 00:00:00 | 00:00:00 | |
| SQ9EZE-13 | 2026-09-05 00:38:30 | 48.96330 | 21.51813 | 118° | 16km/h | 25807m | 4.2m/s | -49.3°C | 1.0% | 23.8hPa | 2.7V | 00:00:00 | 00:00:00 | 00:00:00 | |
| HA6NAB-11 | 2026-09-05 00:38:29 | 48.96332 | 21.51808 | 110° | 15km/h | 25802m | 5.8m/s | -49.4°C | 1.0% | 23.8hPa | 2.7V | 00:00:00 | 00:00:00 | 00:00:00 | |
| HA6NAB-11 | 2026-09-05 00:38:22 | 48.96340 | 21.51775 | 130° | 13km/h | 25764m | 4.2m/s | -49.4°C | 1.0% | 23.9hPa | 2.7V | 00:00:00 | 00:00:00 | 00:00:00 | |
| SQ9EZE-13 | 2026-09-05 00:38:14 | 48.96350 | 21.51760 | 142° | 9km/h | 25721m | 5.5m/s | -49.4°C | 1.0% | 24.1hPa | 2.7V | 00:00:00 | 00:00:00 | 00:00:00 | |
| SQ9EZE-13 | 2026-09-05 00:37:58 | 48.96356 | 21.51751 | 279° | 11km/h | 25639m | 6.4m/s | -49.8°C | 1.0% | 24.4hPa | 2.7V | 00:00:00 | 00:00:00 | 00:00:00 | |
| GYPAP8-17 | 2026-09-05 00:37:44 | 48.96377 | 21.51810 | 233° | 13km/h | 25564m | 5.5m/s | -49.8°C | 1.0% | 24.7hPa | 2.7V | 00:00:00 | 00:00:00 | 00:00:00 | |
| SQ9EZE-13 | 2026-09-05 00:37:42 | 48.96379 | 21.51817 | 247° | 7km/h | 25553m | 4.7m/s | -49.8°C | 1.0% | 24.8hPa | 2.7V | 00:00:00 | 00:00:00 | 00:00:00 | |
| SQ9EZE-13 | 2026-09-05 00:37:26 | 48.96420 | 21.51825 | 145° | 11km/h | 25475m | 4.3m/s | -49.9°C | 1.0% | 25.1hPa | 2.7V | 00:00:00 | 00:00:00 | 00:00:00 | |
| SQ9EZE-13 | 2026-09-05 00:37:10 | 48.96461 | 21.51765 | 112° | 20km/h | 25386m | 5.1m/s | -50.0°C | 1.0% | 25.4hPa | 2.7V | 00:00:00 | 00:00:00 | 00:00:00 | |
| SQ9EZE-13 | 2026-09-05 00:36:55 | 48.96474 | 21.51665 | 89° | 24km/h | 25305m | 5.9m/s | -50.0°C | 1.0% | 25.7hPa | 2.7V | 00:00:00 | 00:00:00 | 00:00:00 | |
| SQ9EZE-13 | 2026-09-05 00:36:39 | 48.96461 | 21.51525 | 80° | 33km/h | 25218m | 6.0m/s | -50.2°C | 1.0% | 26.1hPa | 2.7V | 00:00:00 | 00:00:00 | 00:00:00 | |
| GYPAP8-17 | 2026-09-05 00:36:38 | 48.96460 | 21.51512 | 89° | 33km/h | 25213m | 4.7m/s | -50.2°C | 1.0% | 26.1hPa | 2.7V | 00:00:00 | 00:00:00 | 00:00:00 | |
| SQ9EZE-14 | 2026-09-05 00:36:32 | 48.96454 | 21.51454 | 76° | 24km/h | 25181m | 5.5m/s | -50.2°C | 1.0% | 26.2hPa | 2.7V | 00:00:00 | 00:00:00 | 00:00:00 | |
| SQ9EZE-13 | 2026-09-05 00:36:22 | 48.96448 | 21.51358 | 94° | 22km/h | 25126m | 5.0m/s | -50.3°C | 1.0% | 26.4hPa | 2.7V | 00:00:00 | 00:00:00 | 00:00:00 | |
| SQ9EZE-14 | 2026-09-05 00:36:17 | 48.96445 | 21.51330 | 90° | 13km/h | 25098m | 5.9m/s | -50.4°C | 1.0% | 26.5hPa | 2.7V | 00:00:00 | 00:00:00 | 00:00:00 | |
| SQ9EZE-13 | 2026-09-05 00:36:06 | 48.96446 | 21.51268 | 55° | 5km/h | 25037m | 4.8m/s | -50.9°C | 1.0% | 26.8hPa | 2.7V | 00:00:00 | 00:00:00 | 00:00:00 | |
| SQ9EZE-13 | 2026-09-05 00:35:50 | 48.96445 | 21.51248 | 284° | 7km/h | 24951m | 4.4m/s | -51.2°C | 1.1% | 27.1hPa | 2.7V | 00:00:00 | 00:00:00 | 00:00:00 | |
| SQ9EZE-13 | 2026-09-05 00:35:34 | 48.96465 | 21.51260 | 177° | 7km/h | 24863m | 6.1m/s | -51.1°C | 1.1% | 27.5hPa | 2.7V | 00:00:00 | 00:00:00 | 00:00:00 | |
| SQ9EZE-13 | 2026-09-05 00:35:11 | 48.96502 | 21.51194 | 133° | 18km/h | 24742m | 5.3m/s | -50.7°C | 1.1% | 28.0hPa | 2.7V | 00:00:00 | 00:00:00 | 00:00:00 | |
| SQ9EZE-13 | 2026-09-05 00:34:53 | 48.96530 | 21.51092 | 103° | 20km/h | 24650m | 5.5m/s | -50.8°C | 1.1% | 28.4hPa | 2.7V | 00:00:00 | 00:00:00 | 00:00:00 | |
| GYPAP8-17 | 2026-09-05 00:34:34 | 48.96523 | 21.50914 | 85° | 22km/h | 24550m | 4.7m/s | -51.1°C | 1.1% | 28.9hPa | 2.7V | 00:00:00 | 00:00:00 | 00:00:00 | |
| SQ9EZE-13 | 2026-09-05 00:34:33 | 48.96522 | 21.50906 | 78° | 20km/h | 24546m | 4.7m/s | -51.1°C | 1.1% | 28.9hPa | 2.7V | 00:00:00 | 00:00:00 | 00:00:00 | |
| SQ9EZE-14 | 2026-09-05 00:34:18 | 48.96484 | 21.50773 | 49° | 29km/h | 24469m | 5.7m/s | -51.3°C | 1.1% | 29.2hPa | 2.7V | 00:00:00 | 00:00:00 | 00:00:00 | |
| SQ9EZE-13 | 2026-09-05 00:34:17 | 48.96479 | 21.50764 | 47° | 31km/h | 24464m | 4.7m/s | -51.3°C | 1.1% | 29.3hPa | 2.7V | 00:00:00 | 00:00:00 | 00:00:00 | |
| HA6NAB-11 | 2026-09-05 00:34:13 | 48.96462 | 21.50727 | 75° | 27km/h | 24443m | 4.6m/s | -51.4°C | 1.1% | 29.3hPa | 2.7V | 00:00:00 | 00:00:00 | 00:00:00 | |
| HA6NAB-11 | 2026-09-05 00:34:06 | 48.96445 | 21.50672 | 58° | 16km/h | 24408m | 5.0m/s | -51.4°C | 1.1% | 29.5hPa | 2.7V | 00:00:00 | 00:00:00 | 00:00:00 | |
| SQ9EZE-13 | 2026-09-05 00:34:02 | 48.96432 | 21.50652 | 37° | 20km/h | 24387m | 4.4m/s | -51.4°C | 1.1% | 29.6hPa | 2.7V | 00:00:00 | 00:00:00 | 00:00:00 | |
| HA6NAB-11 | 2026-09-05 00:33:59 | 48.96424 | 21.50637 | 72° | 15km/h | 24372m | 4.8m/s | -51.4°C | 1.1% | 29.7hPa | 2.7V | 00:00:00 | 00:00:00 | 00:00:00 | |
| HA6NAB-11 | 2026-09-05 00:33:53 | 48.96416 | 21.50611 | 62° | 16km/h | 24345m | 5.3m/s | -51.4°C | 1.1% | 29.8hPa | 2.7V | 00:00:00 | 00:00:00 | 00:00:00 | |
| HA6NAB-11 | 2026-09-05 00:33:48 | 48.96408 | 21.50584 | 39° | 9km/h | 24319m | 5.0m/s | -51.6°C | 1.1% | 29.9hPa | 2.7V | 00:00:00 | 00:00:00 | 00:00:00 | |
| SQ9EZE-13 | 2026-09-05 00:33:46 | 48.96405 | 21.50581 | 19° | 5km/h | 24309m | 4.9m/s | -51.8°C | 1.1% | 30.0hPa | 2.7V | 00:00:00 | 00:00:00 | 00:00:00 | |
| HA6NAB-11 | 2026-09-05 00:33:42 | 48.96401 | 21.50575 | 47° | 7km/h | 24290m | 5.4m/s | -51.9°C | 1.1% | 30.0hPa | 2.7V | 00:00:00 | 00:00:00 | 00:00:00 | |
| HA6NAB-11 | 2026-09-05 00:33:35 | 48.96382 | 21.50550 | 34° | 16km/h | 24256m | 5.1m/s | -52.0°C | 1.1% | 30.2hPa | 2.7V | 00:00:00 | 00:00:00 | 00:00:00 | |
| SQ9EZE-13 | 2026-09-05 00:33:31 | 48.96371 | 21.50548 | 333° | 5km/h | 24236m | 5.6m/s | -52.0°C | 1.1% | 30.3hPa | 2.7V | 00:00:00 | 00:00:00 | 00:00:00 | |
| HA6NAB-11 | 2026-09-05 00:33:30 | 48.96370 | 21.50549 | 0° | 0km/h | 24231m | 5.2m/s | -52.0°C | 1.1% | 30.3hPa | 2.7V | 00:00:00 | 00:00:00 | 00:00:00 | |
| HA6NAB-11 | 2026-09-05 00:33:25 | 48.96363 | 21.50547 | 17° | 15km/h | 24207m | 4.5m/s | -51.9°C | 1.1% | 30.4hPa | 2.7V | 00:00:00 | 00:00:00 | 00:00:00 | |
| GYPAP8-17 | 2026-09-05 00:33:22 | 48.96352 | 21.50536 | 44° | 18km/h | 24192m | 4.8m/s | -51.8°C | 1.1% | 30.5hPa | 2.7V | 00:00:00 | 00:00:00 | 00:00:00 | |
| HA6NAB-11 | 2026-09-05 00:33:20 | 48.96345 | 21.50527 | 36° | 18km/h | 24182m | 5.8m/s | -51.8°C | 1.1% | 30.5hPa | 2.7V | 00:00:00 | 00:00:00 | 00:00:00 | |
| HA6NAB-11 | 2026-09-05 00:33:15 | 48.96332 | 21.50525 | 285° | 4km/h | 24157m | 4.3m/s | -51.9°C | 1.1% | 30.7hPa | 2.7V | 00:00:00 | 00:00:00 | 00:00:00 | |
| HA6NAB-11 | 2026-09-05 00:33:09 | 48.96325 | 21.50533 | 26° | 9km/h | 24129m | 5.9m/s | -51.9°C | 1.1% | 30.8hPa | 2.7V | 00:00:00 | 00:00:00 | 00:00:00 | |
| SQ9EZE-13 | 2026-09-05 00:33:00 | 48.96317 | 21.50523 | 191° | 4km/h | 24085m | 4.3m/s | -51.9°C | 1.1% | 31.0hPa | 2.7V | 00:00:00 | 00:00:00 | 00:00:00 | |
| SQ9EZE-13 | 2026-09-05 00:32:44 | 48.96321 | 21.50506 | 172° | 2km/h | 24008m | 5.3m/s | -52.2°C | 1.1% | 31.4hPa | 2.7V | 00:00:00 | 00:00:00 | 00:00:00 | |
| SQ9EZE-13 | 2026-09-05 00:32:29 | 48.96321 | 21.50479 | 0° | 0km/h | 23936m | 4.2m/s | -52.5°C | 1.1% | 31.7hPa | 2.7V | 00:00:00 | 00:00:00 | 00:00:00 | |
| SQ9EZE-13 | 2026-09-05 00:32:14 | 48.96344 | 21.50417 | 150° | 7km/h | 23864m | 3.6m/s | -53.0°C | 1.1% | 32.1hPa | 2.7V | 00:00:00 | 00:00:00 | 00:00:00 | |
| GYPAP8-17 | 2026-09-05 00:32:13 | 48.96346 | 21.50415 | 148° | 11km/h | 23859m | 5.4m/s | -53.0°C | 1.1% | 32.1hPa | 2.7V | 00:00:00 | 00:00:00 | 00:00:00 | |
| SQ9EZE-13 | 2026-09-05 00:31:58 | 48.96362 | 21.50332 | 108° | 18km/h | 23787m | 5.3m/s | -53.8°C | 1.2% | 32.5hPa | 2.7V | 00:00:00 | 00:00:00 | 00:00:00 | |
| SQ9EZE-14 | 2026-09-05 00:31:46 | 48.96347 | 21.50232 | 79° | 24km/h | 23727m | 5.6m/s | -54.2°C | 1.2% | 32.8hPa | 2.7V | 00:00:00 | 00:00:00 | 00:00:00 | |
| SQ9EZE-13 | 2026-09-05 00:31:42 | 48.96349 | 21.50198 | 104° | 18km/h | 23706m | 5.5m/s | -54.5°C | 1.2% | 32.9hPa | 2.7V | 00:00:00 | 00:00:00 | 00:00:00 | |
| SQ9EZE-13 | 2026-09-05 00:31:26 | 48.96366 | 21.50072 | 126° | 24km/h | 23628m | 4.0m/s | -54.6°C | 1.2% | 33.3hPa | 2.7V | 00:00:00 | 00:00:00 | 00:00:00 | |
| SQ9EZE-13 | 2026-09-05 00:31:10 | 48.96359 | 21.49953 | 90° | 20km/h | 23548m | 5.3m/s | -55.0°C | 1.3% | 33.7hPa | 2.7V | 00:00:00 | 00:00:00 | 00:00:00 | |
| SQ9EZE-13 | 2026-09-05 00:30:54 | 48.96325 | 21.49862 | 66° | 15km/h | 23467m | 4.5m/s | -55.1°C | 1.3% | 34.1hPa | 2.7V | 00:00:00 | 00:00:00 | 00:00:00 | |
| GYPAP8-17 | 2026-09-05 00:30:43 | 48.96296 | 21.49818 | 25° | 9km/h | 23413m | 4.4m/s | -55.1°C | 1.3% | 34.4hPa | 2.7V | 00:00:00 | 00:00:00 | 00:00:00 | |
| SQ9EZE-13 | 2026-09-05 00:30:37 | 48.96285 | 21.49804 | 55° | 5km/h | 23382m | 5.1m/s | -54.9°C | 1.3% | 34.6hPa | 2.7V | 00:00:00 | 00:00:00 | 00:00:00 | |
| HA6NAB-11 | 2026-09-05 00:30:30 | 48.96276 | 21.49777 | 55° | 11km/h | 23347m | 4.7m/s | -54.8°C | 1.3% | 34.8hPa | 2.7V | 00:00:00 | 00:00:00 | 00:00:00 | |
| HA6NAB-11 | 2026-09-05 00:30:24 | 48.96262 | 21.49767 | 14° | 7km/h | 23318m | 6.0m/s | -54.7°C | 1.3% | 34.9hPa | 2.7V | 00:00:00 | 00:00:00 | 00:00:00 | |
| SQ9EZE-13 | 2026-09-05 00:30:21 | 48.96260 | 21.49762 | 81° | 9km/h | 23303m | 5.6m/s | -54.6°C | 1.3% | 35.0hPa | 2.7V | 00:00:00 | 00:00:00 | 00:00:00 | |
| HA6NAB-11 | 2026-09-05 00:30:19 | 48.96258 | 21.49752 | 70° | 18km/h | 23293m | 4.7m/s | -54.6°C | 1.3% | 35.1hPa | 2.7V | 00:00:00 | 00:00:00 | 00:00:00 | |
| HA6NAB-11 | 2026-09-05 00:30:13 | 48.96247 | 21.49716 | 65° | 18km/h | 23263m | 5.8m/s | -54.5°C | 1.3% | 35.2hPa | 2.7V | 00:00:00 | 00:00:00 | 00:00:00 | |
| HA6NAB-11 | 2026-09-05 00:30:07 | 48.96240 | 21.49688 | 68° | 15km/h | 23233m | 6.0m/s | -54.4°C | 1.3% | 35.4hPa | 2.7V | 00:00:00 | 00:00:00 | 00:00:00 | |
| SQ9EZE-13 | 2026-09-05 00:30:04 | 48.96235 | 21.49669 | 74° | 18km/h | 23217m | 5.3m/s | -54.4°C | 1.3% | 35.5hPa | 2.7V | 00:00:00 | 00:00:00 | 00:00:00 | |
| HA6NAB-11 | 2026-09-05 00:29:56 | 48.96223 | 21.49619 | 54° | 11km/h | 23176m | 5.1m/s | -54.2°C | 1.3% | 35.7hPa | 2.7V | 00:00:00 | 00:00:00 | 00:00:00 | |
| SQ9EZE-13 | 2026-09-05 00:29:49 | 48.96209 | 21.49589 | 76° | 15km/h | 23142m | 5.4m/s | -54.1°C | 1.3% | 35.9hPa | 2.7V | 00:00:00 | 00:00:00 | 00:00:00 | |
| SQ9EZE-14 | 2026-09-05 00:29:48 | 48.96208 | 21.49583 | 84° | 15km/h | 23137m | 4.6m/s | -54.0°C | 1.3% | 35.9hPa | 2.7V | 00:00:00 | 00:00:00 | 00:00:00 | |
| SQ9EZE-14 | 2026-09-05 00:29:33 | 48.96181 | 21.49507 | 86° | 20km/h | 23061m | 5.9m/s | -53.9°C | 1.2% | 36.4hPa | 2.7V | 00:00:00 | 00:00:00 | 00:00:00 | |
| SQ9EZE-13 | 2026-09-05 00:29:31 | 48.96180 | 21.49490 | 91° | 20km/h | 23051m | 4.0m/s | -53.9°C | 1.2% | 36.4hPa | 2.7V | 00:00:00 | 00:00:00 | 00:00:00 | |
| SQ9EZE-14 | 2026-09-05 00:29:17 | 48.96146 | 21.49429 | 46° | 16km/h | 22980m | 4.1m/s | -53.8°C | 1.3% | 36.8hPa | 2.7V | 00:00:00 | 00:00:00 | 00:00:00 | |
| SQ9EZE-13 | 2026-09-05 00:29:15 | 48.96139 | 21.49420 | 25° | 9km/h | 22965m | 4.6m/s | -53.9°C | 1.3% | 36.9hPa | 2.7V | 00:00:00 | 00:00:00 | 00:00:00 | |
| GYPAP8-17 | 2026-09-05 00:29:05 | 48.96106 | 21.49391 | 39° | 20km/h | 22920m | 5.6m/s | -53.8°C | 1.2% | 37.2hPa | 2.7V | 00:00:00 | 00:00:00 | 00:00:00 | |
| SQ9EZE-13 | 2026-09-05 00:28:58 | 48.96089 | 21.49362 | 69° | 9km/h | 22886m | 5.7m/s | -54.0°C | 1.3% | 37.4hPa | 2.7V | 00:00:00 | 00:00:00 | 00:00:00 | |
| SQ9EZE-13 | 2026-09-05 00:28:42 | 48.96054 | 21.49320 | 66° | 9km/h | 22807m | 4.5m/s | -53.8°C | 1.3% | 37.8hPa | 2.7V | 00:00:00 | 00:00:00 | 00:00:00 | |
| SQ9EZE-13 | 2026-09-05 00:28:26 | 48.96036 | 21.49277 | 100° | 11km/h | 22727m | 5.9m/s | -53.4°C | 1.2% | 38.3hPa | 2.7V | 00:00:00 | 00:00:00 | 00:00:00 | |
| HA6NAB-11 | 2026-09-05 00:28:16 | 48.96033 | 21.49246 | 99° | 11km/h | 22677m | 5.6m/s | -53.4°C | 1.2% | 38.6hPa | 2.7V | 00:00:00 | 00:00:00 | 00:00:00 | |
| HA6NAB-11 | 2026-09-05 00:28:11 | 48.96046 | 21.49220 | 140° | 20km/h | 22652m | 4.7m/s | 0°C | 0% | 38.7hPa | 2.7V | 00:00:00 | 00:00:00 | 00:00:00 | |
| HA6NAB-11 | 2026-09-05 00:28:05 | 48.96064 | 21.49195 | 135° | 9km/h | 22623m | 4.2m/s | 0°C | 0% | 38.9hPa | 2.7V | 00:00:00 | 00:00:00 | 00:00:00 | |
| HA6NAB-11 | 2026-09-05 00:28:00 | 48.96071 | 21.49170 | 124° | 16km/h | 22599m | 5.6m/s | 0°C | 0% | 39.1hPa | 2.7V | 00:00:00 | 00:00:00 | 00:00:00 | |
| GYPAP8-17 | 2026-09-05 00:27:55 | 48.96086 | 21.49148 | 129° | 18km/h | 22576m | 4.9m/s | -53.5°C | 1.3% | 39.2hPa | 2.7V | 00:00:00 | 00:00:00 | 00:00:00 | |
| HA6NAB-11 | 2026-09-05 00:27:54 | 48.96088 | 21.49142 | 128° | 18km/h | 22571m | 4.2m/s | 0°C | 0% | 0hPa | 2.7V | 00:00:00 | 00:00:00 | 00:00:00 | |
| HA6NAB-11 | 2026-09-05 00:27:48 | 48.96100 | 21.49112 | 97° | 18km/h | 22542m | 4.4m/s | 0°C | 0% | 0hPa | 2.7V | 00:00:00 | 00:00:00 | 00:00:00 | |
| SQ9EZE-13 | 2026-09-05 00:27:40 | 48.96106 | 21.49053 | 89° | 20km/h | 22506m | 3.7m/s | -53.3°C | 1.3% | 39.6hPa | 2.7V | 00:00:00 | 00:00:00 | 00:00:00 | |
| SQ9EZE-13 | 2026-09-05 00:27:24 | 48.96120 | 21.48962 | 92° | 13km/h | 22429m | 5.8m/s | -53.1°C | 1.2% | 40.1hPa | 2.7V | 00:00:00 | 00:00:00 | 00:00:00 | |
| SQ9EZE-14 | 2026-09-05 00:27:18 | 48.96112 | 21.48933 | 68° | 11km/h | 22395m | 5.0m/s | -53.2°C | 1.1% | 40.3hPa | 2.7V | 00:00:00 | 00:00:00 | 00:00:00 | |
| SQ9EZE-14 | 2026-09-05 00:27:02 | 48.96097 | 21.48827 | 74° | 18km/h | 22323m | 3.8m/s | -53.7°C | 1.2% | 40.8hPa | 2.7V | 00:00:00 | 00:00:00 | 00:00:00 | |
| SQ9EZE-13 | 2026-09-05 00:26:52 | 48.96071 | 21.48743 | 62° | 29km/h | 22272m | 4.8m/s | -54.1°C | 1.3% | 41.1hPa | 2.7V | 00:00:00 | 00:00:00 | 00:00:00 | |
| SQ9EZE-13 | 2026-09-05 00:26:37 | 48.96021 | 21.48620 | 43° | 26km/h | 22198m | 5.5m/s | -54.4°C | 1.3% | 41.6hPa | 2.7V | 00:00:00 | 00:00:00 | 00:00:00 | |
| GYPAP8-17 | 2026-09-05 00:26:33 | 48.96001 | 21.48597 | 41° | 29km/h | 22178m | 5.7m/s | -54.2°C | 1.3% | 41.7hPa | 2.7V | 00:00:00 | 00:00:00 | 00:00:00 | |
| SQ9EZE-13 | 2026-09-05 00:26:21 | 48.95945 | 21.48539 | 18° | 18km/h | 22117m | 5.5m/s | -53.9°C | 1.3% | 42.1hPa | 2.7V | 00:00:00 | 00:00:00 | 00:00:00 | |
| SQ9EZE-13 | 2026-09-05 00:26:06 | 48.95874 | 21.48494 | 26° | 15km/h | 22043m | 5.1m/s | -53.4°C | 1.3% | 42.6hPa | 2.7V | 00:00:00 | 00:00:00 | 00:00:00 | |
| HA6NAB-11 | 2026-09-05 00:25:58 | 48.95840 | 21.48472 | 19° | 16km/h | 22003m | 4.4m/s | 0°C | 0% | 0hPa | 2.7V | 00:00:00 | 00:00:00 | 00:00:00 | |
| HA6NAB-11 | 2026-09-05 00:25:50 | 48.95812 | 21.48472 | 14° | 13km/h | 21962m | 6.0m/s | 0°C | 0% | 0hPa | 2.7V | 00:00:00 | 00:00:00 | 00:00:00 | |
| HA6NAB-11 | 2026-09-05 00:25:43 | 48.95793 | 21.48462 | 348° | 13km/h | 21927m | 5.9m/s | 0°C | 0% | 0hPa | 2.7V | 00:00:00 | 00:00:00 | 00:00:00 | |
| HA6NAB-11 | 2026-09-05 00:25:37 | 48.95779 | 21.48474 | 342° | 7km/h | 21897m | 5.5m/s | 0°C | 0% | 0hPa | 2.7V | 00:00:00 | 00:00:00 | 00:00:00 | |
| GYPAP8-17 | 2026-09-05 00:25:34 | 48.95773 | 21.48474 | 29° | 7km/h | 21881m | 4.8m/s | -53.5°C | 1.2% | 43.7hPa | 2.7V | 00:00:00 | 00:00:00 | 00:00:00 | |
| HA6NAB-11 | 2026-09-05 00:25:29 | 48.95767 | 21.48465 | 329° | 4km/h | 21854m | 4.6m/s | 0°C | 0% | 0hPa | 2.7V | 00:00:00 | 00:00:00 | 00:00:00 | |
| SP9KGR-15 | 2026-09-05 00:25:25 | 48.95769 | 21.48478 | 239° | 13km/h | 21835m | 4.8m/s | -53.8°C | 1.3% | 44.0hPa | 2.7V | 00:00:00 | 00:00:00 | 00:00:00 | |
| HA6NAB-11 | 2026-09-05 00:25:23 | 48.95772 | 21.48487 | 248° | 13km/h | 21825m | 5.9m/s | 0°C | 0% | 0hPa | 2.7V | 00:00:00 | 00:00:00 | 00:00:00 | |
| SQ9EZE-13 | 2026-09-05 00:25:19 | 48.95777 | 21.48498 | 186° | 7km/h | 21804m | 5.1m/s | -53.8°C | 1.3% | 44.2hPa | 2.7V | 00:00:00 | 00:00:00 | 00:00:00 | |
| HA6NAB-11 | 2026-09-05 00:25:17 | 48.95780 | 21.48497 | 165° | 7km/h | 21794m | 5.7m/s | 0°C | 0% | 0hPa | 2.7V | 00:00:00 | 00:00:00 | 00:00:00 | |
| HA6NAB-11 | 2026-09-05 00:25:12 | 48.95790 | 21.48495 | 183° | 9km/h | 21769m | 4.3m/s | 0°C | 0% | 0hPa | 2.7V | 00:00:00 | 00:00:00 | 00:00:00 | |
| SP9KGR-15 | 2026-09-05 00:25:07 | 48.95798 | 21.48501 | 186° | 7km/h | 21744m | 5.1m/s | -54.2°C | 1.3% | 44.6hPa | 2.7V | 00:00:00 | 00:00:00 | 00:00:00 | |
| HA6NAB-11 | 2026-09-05 00:25:06 | 48.95800 | 21.48501 | 174° | 7km/h | 21739m | 4.5m/s | 0°C | 0% | 0hPa | 2.7V | 00:00:00 | 00:00:00 | 00:00:00 | |
| SQ9EZE-14 | 2026-09-05 00:25:02 | 48.95808 | 21.48494 | 139° | 15km/h | 21719m | 5.8m/s | -54.3°C | 1.3% | 44.8hPa | 2.7V | 00:00:00 | 00:00:00 | 00:00:00 | |
| HA6NAB-11 | 2026-09-05 00:25:01 | 48.95811 | 21.48490 | 139° | 18km/h | 21714m | 5.1m/s | 0°C | 0% | 0hPa | 2.7V | 00:00:00 | 00:00:00 | 00:00:00 | |
| HA6NAB-11 | 2026-09-05 00:24:55 | 48.95827 | 21.48469 | 154° | 11km/h | 21684m | 5.5m/s | 0°C | 0% | 0hPa | 2.7V | 00:00:00 | 00:00:00 | 00:00:00 | |
| SP9KGR-15 | 2026-09-05 00:24:50 | 48.95837 | 21.48462 | 163° | 5km/h | 21660m | 3.7m/s | -54.1°C | 1.3% | 45.2hPa | 2.7V | 00:00:00 | 00:00:00 | 00:00:00 | |
| SQ9EZE-13 | 2026-09-05 00:24:46 | 48.95848 | 21.48456 | 162° | 15km/h | 21640m | 4.5m/s | -54.0°C | 1.3% | 45.3hPa | 2.7V | 00:00:00 | 00:00:00 | 00:00:00 | |
| SQ9EZE-13 | 2026-09-05 00:24:30 | 48.95893 | 21.48442 | 198° | 15km/h | 21559m | 5.3m/s | -54.1°C | 1.3% | 45.9hPa | 2.7V | 00:00:00 | 00:00:00 | 00:00:00 | |
| SP9KGR-15 | 2026-09-05 00:24:28 | 48.95902 | 21.48445 | 194° | 18km/h | 21548m | 4.5m/s | -54.1°C | 1.3% | 46.0hPa | 2.7V | 00:00:00 | 00:00:00 | 00:00:00 | |
| SQ9EZE-13 | 2026-09-05 00:24:15 | 48.95934 | 21.48440 | 187° | 11km/h | 21483m | 5.2m/s | -53.7°C | 1.3% | 46.4hPa | 2.7V | 00:00:00 | 00:00:00 | 00:00:00 | |
| SP9KGR-15 | 2026-09-05 00:24:13 | 48.95940 | 21.48440 | 176° | 11km/h | 21474m | 4.7m/s | -53.7°C | 1.3% | 46.5hPa | 2.7V | 00:00:00 | 00:00:00 | 00:00:00 | |
| SQ9EZE-13 | 2026-09-05 00:23:59 | 48.95951 | 21.48420 | 135° | 7km/h | 21399m | 5.4m/s | -53.8°C | 1.3% | 47.0hPa | 2.7V | 00:00:00 | 00:00:00 | 00:00:00 | |
| SP9KGR-15 | 2026-09-05 00:23:55 | 48.95956 | 21.48404 | 119° | 15km/h | 21378m | 6.1m/s | -53.8°C | 1.3% | 47.2hPa | 2.7V | 00:00:00 | 00:00:00 | 00:00:00 | |
| SQ9EZE-13 | 2026-09-05 00:23:41 | 48.95982 | 21.48355 | 150° | 20km/h | 21309m | 5.7m/s | !°C | 1.3% | 47.7hPa | 2.7V | 00:00:00 | 00:00:00 | 00:00:00 | |
| SP9KGR-15 | 2026-09-05 00:23:39 | 48.95991 | 21.48349 | 159° | 16km/h | 21299m | 3.9m/s | -54.0°C | 1.3% | 47.8hPa | 2.7V | 00:00:00 | 00:00:00 | 00:00:00 | |
| GYPAP8-17 | 2026-09-05 00:23:14 | 48.96045 | 21.48270 | 73° | 13km/h | 21178m | 4.1m/s | -54.8°C | 1.3% | 48.7hPa | 2.7V | 00:00:00 | 00:00:00 | 00:00:00 | |
| SP9KGR-15 | 2026-09-05 00:23:07 | 48.96057 | 21.48236 | 115° | 22km/h | 21146m | 4.1m/s | -55.0°C | 1.4% | 48.9hPa | 2.7V | 00:00:00 | 00:00:00 | 00:00:00 | |
| SQ9EZE-13 | 2026-09-05 00:23:03 | 48.96066 | 21.48201 | 108° | 24km/h | 21127m | 4.2m/s | -55.0°C | 1.3% | 49.1hPa | 2.7V | 00:00:00 | 00:00:00 | 00:00:00 | |
| SP9KGR-15 | 2026-09-05 00:22:52 | 48.96069 | 21.48125 | 99° | 27km/h | 21074m | 4.5m/s | -55.3°C | 1.4% | 49.5hPa | 2.7V | 00:00:00 | 00:00:00 | 00:00:00 | |
| SQ9EZE-14 | 2026-09-05 00:22:44 | 48.96071 | 21.48038 | 86° | 24km/h | 21035m | 5.2m/s | -55.1°C | 1.4% | 49.8hPa | 2.7V | 00:00:00 | 00:00:00 | 00:00:00 | |
| SQ9EZE-13 | 2026-09-05 00:22:40 | 48.96070 | 21.48003 | 85° | 24km/h | 21016m | 4.3m/s | -55.0°C | 1.4% | 49.9hPa | 2.7V | 00:00:00 | 00:00:00 | 00:00:00 | |
| SP9KGR-15 | 2026-09-05 00:22:37 | 48.96070 | 21.47977 | 96° | 24km/h | 21003m | 4.3m/s | -54.9°C | 1.4% | 50.1hPa | 2.7V | 00:00:00 | 00:00:00 | 00:00:00 | |
| SQ9EZE-14 | 2026-09-05 00:22:28 | 48.96056 | 21.47896 | 68° | 18km/h | 20960m | 5.5m/s | -54.7°C | 1.4% | 50.4hPa | 2.7V | 00:00:00 | 00:00:00 | 00:00:00 | |
| SQ9EZE-13 | 2026-09-05 00:22:24 | 48.96052 | 21.47873 | 93° | 13km/h | 20941m | 4.4m/s | -54.7°C | 1.4% | 50.5hPa | 2.7V | 00:00:00 | 00:00:00 | 00:00:00 | |
| SP9KGR-15 | 2026-09-05 00:22:21 | 48.96049 | 21.47857 | 64° | 18km/h | 20927m | 4.8m/s | -54.7°C | 1.4% | 50.6hPa | 2.7V | 00:00:00 | 00:00:00 | 00:00:00 | |
| SQ9EZE-13 | 2026-09-05 00:22:09 | 48.96021 | 21.47782 | 73° | 15km/h | 20874m | 4.5m/s | -54.4°C | 1.3% | 51.1hPa | 2.7V | 00:00:00 | 00:00:00 | 00:00:00 | |
| SP9KGR-15 | 2026-09-05 00:22:06 | 48.96018 | 21.47768 | 76° | 13km/h | 20860m | 4.5m/s | -54.3°C | 1.4% | 51.2hPa | 2.7V | 00:00:00 | 00:00:00 | 00:00:00 | |
| SP9KGR-15 | 2026-09-05 00:21:50 | 48.96001 | 21.47658 | 101° | 22km/h | 20785m | 4.7m/s | -54.0°C | 1.3% | 51.8hPa | 2.7V | 00:00:00 | 00:00:00 | 00:00:00 | |
| SQ9EZE-13 | 2026-09-05 00:21:49 | 48.96002 | 21.47651 | 99° | 18km/h | 20780m | 4.9m/s | -54.0°C | 1.3% | 51.8hPa | 2.7V | 00:00:00 | 00:00:00 | 00:00:00 | |
| SP9KGR-15 | 2026-09-05 00:21:35 | 48.96016 | 21.47541 | 122° | 16km/h | 20716m | 4.6m/s | -54.5°C | 1.3% | 52.3hPa | 2.7V | 00:00:00 | 00:00:00 | 00:00:00 | |
| SQ9EZE-13 | 2026-09-05 00:21:34 | 48.96018 | 21.47536 | 125° | 16km/h | 20713m | 2.9m/s | -54.5°C | 1.3% | 52.4hPa | 2.7V | 00:00:00 | 00:00:00 | 00:00:00 | |
| GYPAP8-17 | 2026-09-05 00:21:28 | 48.96034 | 21.47507 | 130° | 11km/h | 20689m | 4.4m/s | -55.0°C | 1.3% | 52.6hPa | 2.7V | 00:00:00 | 00:00:00 | 00:00:00 | |
| SP9KGR-15 | 2026-09-05 00:21:19 | 48.96048 | 21.47457 | 115° | 24km/h | 20649m | 5.5m/s | -55.5°C | 1.4% | 52.9hPa | 2.7V | 00:00:00 | 00:00:00 | 00:00:00 | |
| SQ9EZE-13 | 2026-09-05 00:21:18 | 48.96051 | 21.47449 | 122° | 26km/h | 20645m | 4.3m/s | -55.6°C | 1.4% | 52.9hPa | 2.7V | 00:00:00 | 00:00:00 | 00:00:00 | |
| SP9KGR-15 | 2026-09-05 00:21:03 | 48.96073 | 21.47312 | 97° | 26km/h | 20579m | 5.1m/s | -55.6°C | 1.4% | 53.5hPa | 2.7V | 00:00:00 | 00:00:00 | 00:00:00 | |
| SQ9EZE-13 | 2026-09-05 00:21:02 | 48.96073 | 21.47302 | 97° | 26km/h | 20574m | 4.3m/s | -55.6°C | 1.4% | 53.5hPa | 2.7V | 00:00:00 | 00:00:00 | 00:00:00 | |
| SP9KGR-15 | 2026-09-05 00:20:47 | 48.96080 | 21.47148 | 97° | 31km/h | 20509m | 4.8m/s | -55.6°C | 1.5% | 54.1hPa | 2.7V | 00:00:00 | 00:00:00 | 00:00:00 | |
| SQ9EZE-13 | 2026-09-05 00:20:36 | 48.96075 | 21.47060 | 62° | 18km/h | 20460m | 5.0m/s | -55.4°C | 1.4% | 54.5hPa | 2.7V | 00:00:00 | 00:00:00 | 00:00:00 | |
| SP9KGR-15 | 2026-09-05 00:20:32 | 48.96070 | 21.47029 | 104° | 20km/h | 20442m | 5.4m/s | -55.3°C | 1.5% | 54.6hPa | 2.7V | 00:00:00 | 00:00:00 | 00:00:00 | |
| SQ9EZE-14 | 2026-09-05 00:20:28 | 48.96082 | 21.46993 | 118° | 16km/h | 20419m | 4.9m/s | -55.1°C | 1.4% | 54.9hPa | 2.7V | 00:00:00 | 00:00:00 | 00:00:00 | |
| SQ9EZE-13 | 2026-09-05 00:20:18 | 48.96088 | 21.46931 | 120° | 24km/h | 20379m | 4.9m/s | -54.8°C | 1.4% | 55.2hPa | 2.7V | 00:00:00 | 00:00:00 | 00:00:00 | |
| SP9KGR-15 | 2026-09-05 00:20:17 | 48.96091 | 21.46923 | 127° | 22km/h | 20374m | 4.2m/s | -54.8°C | 1.4% | 55.2hPa | 2.7V | 00:00:00 | 00:00:00 | 00:00:00 | |
| SQ9EZE-14 | 2026-09-05 00:20:12 | 48.96103 | 21.46891 | 101° | 16km/h | 20351m | 3.9m/s | -54.8°C | 1.4% | 55.4hPa | 2.7V | 00:00:00 | 00:00:00 | 00:00:00 | |
| SQ9EZE-13 | 2026-09-05 00:20:03 | 48.96120 | 21.46842 | 123° | 29km/h | 20311m | 5.6m/s | -55.2°C | 1.4% | 55.7hPa | 2.7V | 00:00:00 | 00:00:00 | 00:00:00 | |
| SP9KGR-15 | 2026-09-05 00:20:01 | 48.96130 | 21.46823 | 129° | 29km/h | 20302m | 3.9m/s | -55.2°C | 1.4% | 55.9hPa | 2.7V | 00:00:00 | 00:00:00 | 00:00:00 | |
| SQ9EZE-13 | 2026-09-05 00:19:48 | 48.96179 | 21.46735 | 138° | 26km/h | 20243m | 5.5m/s | -55.7°C | 1.5% | 56.4hPa | 2.7V | 00:00:00 | 00:00:00 | 00:00:00 | |
| SP9KGR-15 | 2026-09-05 00:19:46 | 48.96188 | 21.46722 | 137° | 27km/h | 20234m | 4.9m/s | -55.7°C | 1.5% | 56.4hPa | 2.7V | 00:00:00 | 00:00:00 | 00:00:00 | |
| GYPAP8-17 | 2026-09-05 00:19:43 | 48.96201 | 21.46699 | 126° | 26km/h | 20220m | 4.1m/s | -55.6°C | 1.4% | 56.6hPa | 2.7V | 00:00:00 | 00:00:00 | 00:00:00 | |
| SQ9EZE-13 | 2026-09-05 00:19:32 | 48.96248 | 21.46592 | 131° | 27km/h | 20170m | 4.5m/s | -55.7°C | 1.4% | 57.0hPa | 2.7V | 00:00:00 | 00:00:00 | 00:00:00 | |
| SP9KGR-15 | 2026-09-05 00:19:31 | 48.96252 | 21.46584 | 128° | 24km/h | 20165m | 5.5m/s | -55.8°C | 1.4% | 57.1hPa | 2.7V | 00:00:00 | 00:00:00 | 00:00:00 | |
| SQ9EZE-13 | 2026-09-05 00:19:18 | 48.96295 | 21.46445 | 106° | 29km/h | 20099m | 5.0m/s | -55.8°C | 1.5% | 57.7hPa | 2.7V | 00:00:00 | 00:00:00 | 00:00:00 | |
| SP9KGR-15 | 2026-09-05 00:19:17 | 48.96297 | 21.46434 | 104° | 29km/h | 20095m | 4.4m/s | -55.8°C | 1.5% | 57.7hPa | 2.7V | 00:00:00 | 00:00:00 | 00:00:00 | |
| SQ9EZE-13 | 2026-09-05 00:19:01 | 48.96321 | 21.46258 | 87° | 31km/h | 20027m | 5.1m/s | -56.1°C | 1.5% | 58.3hPa | 2.7V | 00:00:00 | 00:00:00 | 00:00:00 | |
| SP9KGR-15 | 2026-09-05 00:19:00 | 48.96320 | 21.46245 | 88° | 35km/h | 20021m | 5.3m/s | -56.1°C | 1.5% | 58.4hPa | 2.7V | 00:00:00 | 00:00:00 | 00:00:00 | |
| SP9KGR-15 | 2026-09-05 00:18:45 | 48.96308 | 21.46062 | 85° | 33km/h | 19953m | 3.4m/s | -56.1°C | 1.5% | 59.0hPa | 2.7V | 00:00:00 | 00:00:00 | 00:00:00 | |
| GYPAP8-17 | 2026-09-05 00:18:43 | 48.96305 | 21.46037 | 75° | 37km/h | 19943m | 5.2m/s | -56.2°C | 1.5% | 59.1hPa | 2.7V | 00:00:00 | 00:00:00 | 00:00:00 | |
| SQ9EZE-13 | 2026-09-05 00:18:29 | 48.96267 | 21.45890 | 65° | 29km/h | 19878m | 5.8m/s | -56.4°C | 1.5% | 59.7hPa | 2.7V | 00:00:00 | 00:00:00 | 00:00:00 | |
| SP9KGR-15 | 2026-09-05 00:18:14 | 48.96196 | 21.45751 | 53° | 33km/h | 19807m | 4.6m/s | -56.9°C | 1.6% | 60.4hPa | 2.7V | 00:00:00 | 00:00:00 | 00:00:00 | |
| SQ9EZE-13 | 2026-09-05 00:18:13 | 48.96192 | 21.45742 | 56° | 29km/h | 19802m | 5.4m/s | -56.9°C | 1.6% | 60.4hPa | 2.7V | 00:00:00 | 00:00:00 | 00:00:00 | |
| SQ9EZE-14 | 2026-09-05 00:18:12 | 48.96188 | 21.45732 | 61° | 27km/h | 19796m | 5.5m/s | -56.9°C | 1.6% | 60.4hPa | 2.7V | 00:00:00 | 00:00:00 | 00:00:00 | |
| SQ9EZE-13 | 2026-09-05 00:17:58 | 48.96141 | 21.45599 | 67° | 20km/h | 19731m | 4.0m/s | -57.0°C | 1.6% | 61.1hPa | 2.7V | 00:00:00 | 00:00:00 | 00:00:00 | |
| SQ9EZE-14 | 2026-09-05 00:17:56 | 48.96136 | 21.45585 | 60° | 22km/h | 19722m | 5.0m/s | -57.0°C | 1.6% | 61.2hPa | 2.7V | 00:00:00 | 00:00:00 | 00:00:00 | |
| SQ9EZE-13 | 2026-09-05 00:17:42 | 48.96106 | 21.45440 | 75° | 31km/h | 19656m | 3.4m/s | -57.1°C | 1.6% | 61.8hPa | 2.7V | 00:00:00 | 00:00:00 | 00:00:00 | |
| SQ9EZE-13 | 2026-09-05 00:17:26 | 48.96094 | 21.45230 | 91° | 35km/h | 19581m | 4.1m/s | -56.7°C | 1.5% | 62.5hPa | 2.7V | 00:00:00 | 00:00:00 | 00:00:00 | |
| SP9KGR-15 | 2026-09-05 00:17:25 | 48.96093 | 21.45217 | 86° | 35km/h | 19576m | 5.7m/s | -56.7°C | 1.5% | 62.6hPa | 2.7V | 00:00:00 | 00:00:00 | 00:00:00 | |
| GYPAP8-17 | 2026-09-05 00:17:18 | 48.96081 | 21.45109 | 81° | 46km/h | 19543m | 4.7m/s | -56.6°C | 1.5% | 62.9hPa | 2.7V | 00:00:00 | 00:00:00 | 00:00:00 | |
| SP9KGR-15 | 2026-09-05 00:17:10 | 48.96081 | 21.44990 | 92° | 33km/h | 19507m | 4.4m/s | -56.9°C | 1.5% | 63.2hPa | 2.7V | 00:00:00 | 00:00:00 | 00:00:00 | |
| SQ9EZE-13 | 2026-09-05 00:16:54 | 48.96096 | 21.44761 | 102° | 40km/h | 19435m | 5.1m/s | -57.3°C | 1.6% | 64.0hPa | 2.7V | 00:00:00 | 00:00:00 | 00:00:00 | |
| SQ9EZE-13 | 2026-09-05 00:16:38 | 48.96117 | 21.44524 | 101° | 35km/h | 19363m | 4.7m/s | -57.0°C | 1.6% | 64.7hPa | 2.7V | 00:00:00 | 00:00:00 | 00:00:00 | |
| SQ9EZE-13 | 2026-09-05 00:16:23 | 48.96135 | 21.44300 | 84° | 35km/h | 19292m | 4.0m/s | -56.5°C | 1.5% | 65.5hPa | 2.7V | 00:00:00 | 00:00:00 | 00:00:00 | |
| GYPAP8-17 | 2026-09-05 00:16:16 | 48.96131 | 21.44225 | 91° | 35km/h | 19265m | 4.0m/s | -56.5°C | 1.5% | 65.7hPa | 2.7V | 00:00:00 | 00:00:00 | 00:00:00 | |
| SP9KGR-15 | 2026-09-05 00:16:08 | 48.96136 | 21.44105 | 83° | 40km/h | 19231m | 3.8m/s | -56.4°C | 1.5% | 66.1hPa | 2.7V | 00:00:00 | 00:00:00 | 00:00:00 | |
| SQ9EZE-13 | 2026-09-05 00:16:07 | 48.96134 | 21.44090 | 85° | 38km/h | 19226m | 5.0m/s | -56.4°C | 1.5% | 66.1hPa | 2.7V | 00:00:00 | 00:00:00 | 00:00:00 | |
| SQ9EZE-14 | 2026-09-05 00:15:53 | 48.96120 | 21.43880 | 78° | 33km/h | 19164m | 5.0m/s | -55.9°C | 1.5% | 66.8hPa | 2.7V | 00:00:00 | 00:00:00 | 00:00:00 | |
| SP9KGR-15 | 2026-09-05 00:15:52 | 48.96119 | 21.43868 | 80° | 31km/h | 19159m | 4.2m/s | -55.9°C | 1.5% | 66.8hPa | 2.7V | 00:00:00 | 00:00:00 | 00:00:00 | |
| SQ9EZE-13 | 2026-09-05 00:15:51 | 48.96117 | 21.43856 | 78° | 33km/h | 19155m | 4.1m/s | -55.9°C | 1.5% | 66.9hPa | 2.7V | 00:00:00 | 00:00:00 | 00:00:00 | |
| SQ9EZE-14 | 2026-09-05 00:15:38 | 48.96094 | 21.43678 | 74° | 31km/h | 19095m | 5.3m/s | -55.6°C | 1.5% | 67.5hPa | 2.7V | 00:00:00 | 00:00:00 | 00:00:00 | |
| SP9KGR-15 | 2026-09-05 00:15:37 | 48.96091 | 21.43666 | 76° | 31km/h | 19090m | 4.2m/s | -55.6°C | 1.5% | 67.6hPa | 2.7V | 00:00:00 | 00:00:00 | 00:00:00 | |
| SQ9EZE-13 | 2026-09-05 00:15:34 | 48.96087 | 21.43633 | 85° | 29km/h | 19077m | 4.3m/s | -55.5°C | 1.5% | 67.7hPa | 2.7V | 00:00:00 | 00:00:00 | 00:00:00 | |
| SP9KGR-15 | 2026-09-05 00:15:21 | 48.96054 | 21.43469 | 75° | 31km/h | 19018m | 4.2m/s | -55.1°C | 1.4% | 68.3hPa | 2.7V | 00:00:00 | 00:00:00 | 00:00:00 | |
| SQ9EZE-13 | 2026-09-05 00:15:18 | 48.96047 | 21.43434 | 74° | 35km/h | 19005m | 5.3m/s | -55.2°C | 1.4% | 68.5hPa | 2.7V | 00:00:00 | 00:00:00 | 00:00:00 | |
| GYPAP8-17 | 2026-09-05 00:15:17 | 48.96045 | 21.43422 | 73° | 35km/h | 19001m | 3.9m/s | -55.2°C | 1.4% | 68.5hPa | 2.7V | 00:00:00 | 00:00:00 | 00:00:00 | |
| SP9KGR-15 | 2026-09-05 00:15:06 | 48.95997 | 21.43304 | 59° | 37km/h | 18950m | 4.7m/s | -55.0°C | 1.4% | 69.0hPa | 2.7V | 00:00:00 | 00:00:00 | 00:00:00 | |
| SQ9EZE-13 | 2026-09-05 00:15:03 | 48.95985 | 21.43267 | 68° | 33km/h | 18937m | 4.8m/s | -54.9°C | 1.4% | 69.2hPa | 2.7V | 00:00:00 | 00:00:00 | 00:00:00 | |
| SP9KGR-15 | 2026-09-05 00:14:50 | 48.95936 | 21.43132 | 57° | 33km/h | 18877m | 5.0m/s | -54.8°C | 1.4% | 69.8hPa | 2.7V | 00:00:00 | 00:00:00 | 00:00:00 | |
| SQ9EZE-13 | 2026-09-05 00:14:47 | 48.95923 | 21.43102 | 52° | 31km/h | 18863m | 4.7m/s | -54.9°C | 1.4% | 70.0hPa | 2.7V | 00:00:00 | 00:00:00 | 00:00:00 | |
| SP9KGR-15 | 2026-09-05 00:14:34 | 48.95861 | 21.43003 | 41° | 29km/h | 18799m | 5.1m/s | -55.0°C | 1.4% | 70.7hPa | 2.7V | 00:00:00 | 00:00:00 | 00:00:00 | |
| SQ9EZE-13 | 2026-09-05 00:14:29 | 48.95835 | 21.42962 | 48° | 26km/h | 18776m | 3.9m/s | -54.9°C | 1.4% | 70.9hPa | 2.7V | 00:00:00 | 00:00:00 | 00:00:00 | |
| SP9KGR-15 | 2026-09-05 00:14:18 | 48.95782 | 21.42891 | 40° | 29km/h | 18724m | 5.3m/s | -54.5°C | 1.4% | 71.5hPa | 2.7V | 00:00:00 | 00:00:00 | 00:00:00 | |
| SQ9EZE-13 | 2026-09-05 00:14:13 | 48.95753 | 21.42855 | 44° | 31km/h | 18699m | 3.4m/s | -54.3°C | 1.4% | 71.8hPa | 2.7V | 00:00:00 | 00:00:00 | 00:00:00 | |
| GYPAP8-17 | 2026-09-05 00:14:06 | 48.95718 | 21.42787 | 59° | 37km/h | 18667m | 4.4m/s | -54.1°C | 1.4% | 72.2hPa | 2.7V | 00:00:00 | 00:00:00 | 00:00:00 | |
| SP9KGR-15 | 2026-09-05 00:14:03 | 48.95704 | 21.42754 | 55° | 33km/h | 18653m | 3.8m/s | -54.1°C | 1.4% | 72.3hPa | 2.7V | 00:00:00 | 00:00:00 | 00:00:00 | |
| SQ9EZE-13 | 2026-09-05 00:13:58 | 48.95677 | 21.42707 | 41° | 31km/h | 18630m | 4.6m/s | -54.2°C | 1.3% | 72.6hPa | 2.7V | 00:00:00 | 00:00:00 | 00:00:00 | |
| SQ9EZE-13 | 2026-09-05 00:13:42 | 48.95605 | 21.42543 | 52° | 26km/h | 18552m | 5.7m/s | -53.8°C | 1.3% | 73.5hPa | 2.7V | 00:00:00 | 00:00:00 | 00:00:00 | |
| SQ9EZE-14 | 2026-09-05 00:13:38 | 48.95587 | 21.42511 | 54° | 26km/h | 18532m | 5.6m/s | -53.7°C | 1.3% | 73.7hPa | 2.7V | 00:00:00 | 00:00:00 | 00:00:00 | |
| SP9KGR-15 | 2026-09-05 00:13:31 | 48.95576 | 21.42448 | 88° | 20km/h | 18498m | 3.7m/s | -53.4°C | 1.3% | 74.0hPa | 2.7V | 00:00:00 | 00:00:00 | 00:00:00 | |
| SQ9EZE-13 | 2026-09-05 00:13:26 | 48.95564 | 21.42414 | 46° | 22km/h | 18475m | 5.3m/s | -53.2°C | 1.3% | 74.3hPa | 2.7V | 00:00:00 | 00:00:00 | 00:00:00 | |
| SQ9EZE-14 | 2026-09-05 00:13:22 | 48.95549 | 21.42386 | 61° | 24km/h | 18454m | 3.7m/s | -53.0°C | 1.3% | 74.6hPa | 2.7V | 00:00:00 | 00:00:00 | 00:00:00 | |
| SP9KGR-15 | 2026-09-05 00:13:16 | 48.95545 | 21.42341 | 92° | 20km/h | 18424m | 4.5m/s | -52.8°C | 1.3% | 74.9hPa | 2.7V | 00:00:00 | 00:00:00 | 00:00:00 | |
| SQ9EZE-13 | 2026-09-05 00:13:10 | 48.95538 | 21.42301 | 56° | 22km/h | 18394m | 4.8m/s | -52.6°C | 1.3% | 75.3hPa | 2.7V | 00:00:00 | 00:00:00 | 00:00:00 | |
| GYPAP8-17 | 2026-09-05 00:13:02 | 48.95523 | 21.42262 | 85° | 9km/h | 18356m | 5.4m/s | -52.5°C | 1.2% | 75.7hPa | 2.7V | 00:00:00 | 00:00:00 | 00:00:00 | |
| SP9KGR-15 | 2026-09-05 00:13:00 | 48.95522 | 21.42255 | 68° | 11km/h | 18347m | 4.4m/s | -52.5°C | 1.2% | 75.8hPa | 2.7V | 00:00:00 | 00:00:00 | 00:00:00 | |
| SQ9EZE-13 | 2026-09-05 00:12:54 | 48.95505 | 21.42232 | 37° | 15km/h | 18320m | 4.3m/s | -53.5°C | 1.3% | 76.1hPa | 2.7V | 00:00:00 | 00:00:00 | 00:00:00 | |
| SQ9EZE-13 | 2026-09-05 00:12:38 | 48.95477 | 21.42136 | 65° | 22km/h | 18248m | 3.9m/s | -53.9°C | 1.4% | 77.0hPa | 2.7V | 00:00:00 | 00:00:00 | 00:00:00 | |
| SP9KGR-15 | 2026-09-05 00:12:29 | 48.95476 | 21.42060 | 84° | 20km/h | 18208m | 3.9m/s | -53.7°C | 1.3% | 77.5hPa | 2.7V | 00:00:00 | 00:00:00 | 00:00:00 | |
| SQ9EZE-13 | 2026-09-05 00:12:23 | 48.95470 | 21.42009 | 82° | 22km/h | 18180m | 3.8m/s | -54.4°C | 1.4% | 77.8hPa | 2.7V | 00:00:00 | 00:00:00 | 00:00:00 | |
| SP9KGR-15 | 2026-09-05 00:12:14 | 48.95478 | 21.41917 | 118° | 29km/h | 18139m | 4.4m/s | -55.2°C | 1.4% | 78.3hPa | 2.7V | 00:00:00 | 00:00:00 | 00:00:00 | |
| SQ9EZE-13 | 2026-09-05 00:12:07 | 48.95493 | 21.41859 | 104° | 24km/h | 18108m | 4.2m/s | -56.4°C | 1.6% | 78.7hPa | 2.7V | 00:00:00 | 00:00:00 | 00:00:00 | |
| SP9KGR-15 | 2026-09-05 00:11:58 | 48.95498 | 21.41796 | 94° | 16km/h | 18067m | 5.3m/s | -56.3°C | 1.6% | 79.2hPa | 2.7V | 00:00:00 | 00:00:00 | 00:00:00 | |
| GYPAP8-17 | 2026-09-05 00:11:56 | 48.95498 | 21.41783 | 91° | 18km/h | 18058m | 3.8m/s | -56.2°C | 1.6% | 79.3hPa | 2.7V | 00:00:00 | 00:00:00 | 00:00:00 | |
| SQ9EZE-13 | 2026-09-05 00:11:51 | 48.95494 | 21.41745 | 69° | 15km/h | 18036m | 4.1m/s | -56.1°C | 1.6% | 79.6hPa | 2.7V | 00:00:00 | 00:00:00 | 00:00:00 | |
| SP9KGR-15 | 2026-09-05 00:11:43 | 48.95500 | 21.41714 | 138° | 15km/h | 18001m | 4.0m/s | -56.6°C | 1.6% | 80.0hPa | 2.7V | 00:00:00 | 00:00:00 | 00:00:00 | |
| SQ9EZE-13 | 2026-09-05 00:11:36 | 48.95505 | 21.41677 | 68° | 18km/h | 17969m | 4.2m/s | -57.0°C | 1.7% | 80.4hPa | 2.7V | 00:00:00 | 00:00:00 | 00:00:00 | |
| SP9KGR-15 | 2026-09-05 00:11:27 | 48.95507 | 21.41608 | 118° | 20km/h | 17926m | 3.9m/s | -56.9°C | 1.7% | 81.0hPa | 2.7V | 00:00:00 | 00:00:00 | 00:00:00 | |
| SQ9EZE-13 | 2026-09-05 00:11:20 | 48.95508 | 21.41542 | 88° | 27km/h | 17896m | 4.3m/s | -56.6°C | 1.7% | 81.3hPa | 2.7V | 00:00:00 | 00:00:00 | 00:00:00 | |
| SP9KGR-15 | 2026-09-05 00:11:12 | 48.95511 | 21.41481 | 112° | 31km/h | 17860m | 4.6m/s | -56.3°C | 1.7% | 81.8hPa | 2.7V | 00:00:00 | 00:00:00 | 00:00:00 | |
| GYPAP8-17 | 2026-09-05 00:10:58 | 48.95516 | 21.41362 | 116° | 27km/h | 17795m | 6.0m/s | -55.8°C | 1.6% | 82.6hPa | 2.7V | 00:00:00 | 00:00:00 | 00:00:00 | |
| SP9KGR-15 | 2026-09-05 00:10:57 | 48.95525 | 21.41342 | 129° | 35km/h | 17785m | 3.8m/s | -55.7°C | 1.5% | 82.8hPa | 2.7V | 00:00:00 | 00:00:00 | 00:00:00 | |
| SQ9EZE-13 | 2026-09-05 00:10:49 | 48.95527 | 21.41274 | 72° | 24km/h | 17749m | 4.2m/s | -56.8°C | 1.7% | 83.2hPa | 2.7V | 00:00:00 | 00:00:00 | 00:00:00 | |
| SP9KGR-15 | 2026-09-05 00:10:41 | 48.95537 | 21.41182 | 90° | 40km/h | 17709m | 5.4m/s | -57.4°C | 1.7% | 83.8hPa | 2.7V | 00:00:00 | 00:00:00 | 00:00:00 | |
| SQ9EZE-13 | 2026-09-05 00:10:33 | 48.95536 | 21.41062 | 91° | 38km/h | 17673m | 4.8m/s | -58.2°C | 1.7% | 84.3hPa | 2.7V | 00:00:00 | 00:00:00 | 00:00:00 | |
| SP9KGR-15 | 2026-09-05 00:10:25 | 48.95528 | 21.40920 | 76° | 46km/h | 17639m | 3.8m/s | -58.8°C | 2.0% | 84.7hPa | 2.7V | 00:00:00 | 00:00:00 | 00:00:00 | |
| SQ9EZE-13 | 2026-09-05 00:10:17 | 48.95505 | 21.40799 | 76° | 42km/h | 17603m | 3.8m/s | -59.0°C | 2.0% | 85.2hPa | 2.7V | 00:00:00 | 00:00:00 | 00:00:00 | |
| SP9KGR-15 | 2026-09-05 00:10:09 | 48.95477 | 21.40678 | 67° | 40km/h | 17568m | 5.3m/s | -58.9°C | 2.0% | 85.7hPa | 2.7V | 00:00:00 | 00:00:00 | 00:00:00 | |
| SQ9EZE-13 | 2026-09-05 00:10:02 | 48.95445 | 21.40572 | 68° | 46km/h | 17535m | 4.7m/s | -58.8°C | 1.9% | 86.1hPa | 2.7V | 00:00:00 | 00:00:00 | 00:00:00 | |
| SP9KGR-15 | 2026-09-05 00:09:53 | 48.95408 | 21.40438 | 68° | 40km/h | 17495m | 3.9m/s | -58.5°C | 1.9% | 86.7hPa | 2.7V | 00:00:00 | 00:00:00 | 00:00:00 | |
| SQ9EZE-13 | 2026-09-05 00:09:46 | 48.95382 | 21.40342 | 76° | 37km/h | 17464m | 3.8m/s | -58.3°C | 1.9% | 87.1hPa | 2.7V | 00:00:00 | 00:00:00 | 00:00:00 | |
| GYPAP8-17 | 2026-09-05 00:09:39 | 48.95360 | 21.40236 | 74° | 46km/h | 17432m | 4.0m/s | -58.2°C | 1.9% | 87.5hPa | 2.7V | 00:00:00 | 00:00:00 | 00:00:00 | |
| SP9KGR-15 | 2026-09-05 00:09:38 | 48.95356 | 21.40219 | 72° | 44km/h | 17428m | 5.1m/s | -58.3°C | 1.9% | 87.6hPa | 2.7V | 00:00:00 | 00:00:00 | 00:00:00 | |
| SQ9EZE-13 | 2026-09-05 00:09:30 | 48.95325 | 21.40109 | 57° | 33km/h | 17394m | 4.5m/s | -58.3°C | 1.9% | 88.1hPa | 2.7V | 00:00:00 | 00:00:00 | 00:00:00 | |
| SP9KGR-15 | 2026-09-05 00:09:22 | 48.95295 | 21.39992 | 71° | 49km/h | 17362m | 3.0m/s | -58.3°C | 1.9% | 88.5hPa | 2.7V | 00:00:00 | 00:00:00 | 00:00:00 | |
| SQ9EZE-13 | 2026-09-05 00:09:15 | 48.95272 | 21.39890 | 69° | 40km/h | 17334m | 3.1m/s | -58.2°C | 1.9% | 88.9hPa | 2.7V | 00:00:00 | 00:00:00 | 00:00:00 | |
| SP9KGR-15 | 2026-09-05 00:09:06 | 48.95248 | 21.39755 | 78° | 37km/h | 17297m | 4.7m/s | -58.4°C | 1.9% | 89.4hPa | 2.7V | 00:00:00 | 00:00:00 | 00:00:00 | |
| SQ9EZE-14 | 2026-09-05 00:09:04 | 48.95244 | 21.39728 | 77° | 37km/h | 17289m | 4.8m/s | -58.6°C | 1.9% | 89.6hPa | 2.7V | 00:00:00 | 00:00:00 | 00:00:00 | |
| SQ9EZE-13 | 2026-09-05 00:08:59 | 48.95234 | 21.39659 | 81° | 38km/h | 17268m | 3.8m/s | -58.6°C | 2.0% | 89.9hPa | 2.7V | 00:00:00 | 00:00:00 | 00:00:00 | |
| SP9KGR-15 | 2026-09-05 00:08:51 | 48.95215 | 21.39531 | 75° | 46km/h | 17235m | 3.7m/s | -58.3°C | 1.9% | 90.3hPa | 2.7V | 00:00:00 | 00:00:00 | 00:00:00 | |
| SQ9EZE-14 | 2026-09-05 00:08:49 | 48.95210 | 21.39498 | 79° | 42km/h | 17227m | 5.0m/s | -58.3°C | 2.0% | 90.5hPa | 2.7V | 00:00:00 | 00:00:00 | 00:00:00 | |
| SQ9EZE-13 | 2026-09-05 00:08:43 | 48.95197 | 21.39404 | 82° | 42km/h | 17203m | 4.4m/s | -58.1°C | 1.9% | 90.8hPa | 2.7V | 00:00:00 | 00:00:00 | 00:00:00 | |
| GYPAP8-17 | 2026-09-05 00:08:36 | 48.95179 | 21.39295 | 80° | 42km/h | 17174m | 3.9m/s | -58.0°C | 1.9% | 91.2hPa | 2.7V | 00:00:00 | 00:00:00 | 00:00:00 | |
| SP9KGR-15 | 2026-09-05 00:08:35 | 48.95177 | 21.39280 | 81° | 42km/h | 17170m | 4.1m/s | -57.9°C | 1.9% | 91.3hPa | 2.7V | 00:00:00 | 00:00:00 | 00:00:00 | |
| SQ9EZE-13 | 2026-09-05 00:08:27 | 48.95162 | 21.39150 | 78° | 47km/h | 17138m | 3.7m/s | -57.7°C | 1.8% | 91.7hPa | 2.7V | 00:00:00 | 00:00:00 | 00:00:00 | |
| SP9KGR-15 | 2026-09-05 00:08:19 | 48.95150 | 21.39009 | 88° | 44km/h | 17107m | 3.8m/s | -57.5°C | 1.9% | 92.2hPa | 2.7V | 00:00:00 | 00:00:00 | 00:00:00 | |
| SQ9EZE-13 | 2026-09-05 00:08:17 | 48.95137 | 21.38877 | 83° | 44km/h | 17076m | 4.6m/s | -57.8°C | 1.9% | 92.6hPa | 2.7V | 00:00:00 | 00:00:00 | 00:00:00 | |
| SP9KGR-15 | 2026-09-05 00:08:12 | 48.95133 | 21.38751 | 88° | 49km/h | 17048m | 2.9m/s | -57.7°C | 1.9% | 93.0hPa | 2.7V | 00:00:00 | 00:00:00 | 00:00:00 | |
| SP9KGR-15 | 2026-09-05 00:07:57 | 48.95092 | 21.38499 | 77° | 47km/h | 16994m | 4.3m/s | -57.6°C | 1.8% | 93.8hPa | 2.7V | 00:00:00 | 00:00:00 | 00:00:00 | |
| SQ9EZE-13 | 2026-09-05 00:07:40 | 48.95062 | 21.38334 | 71° | 42km/h | 16959m | 4.6m/s | -57.4°C | 1.9% | 94.4hPa | 2.7V | 00:00:00 | 00:00:00 | 00:00:00 | |
| SP9KGR-15 | 2026-09-05 00:07:27 | 48.95019 | 21.38123 | 74° | 40km/h | 16906m | 4.0m/s | -57.4°C | 1.8% | 95.1hPa | 2.7V | 00:00:00 | 00:00:00 | 00:00:00 | |
| SQ9EZE-13 | 2026-09-05 00:07:25 | 48.95011 | 21.38079 | 76° | 37km/h | 16893m | 3.7m/s | -57.3°C | 1.8% | 95.3hPa | 2.7V | 00:00:00 | 00:00:00 | 00:00:00 | |
| GYPAP8-17 | 2026-09-05 00:07:23 | 48.95009 | 21.38066 | 76° | 35km/h | 16889m | 4.9m/s | -57.3°C | 1.8% | 95.4hPa | 2.7V | 00:00:00 | 00:00:00 | 00:00:00 | |
| SP9KGR-15 | 2026-09-05 00:07:11 | 48.94965 | 21.37899 | 78° | 38km/h | 16840m | 3.6m/s | -56.9°C | 1.8% | 96.1hPa | 2.7V | 00:00:00 | 00:00:00 | 00:00:00 | |
| SQ9EZE-13 | 2026-09-05 00:07:09 | 48.94961 | 21.37872 | 77° | 35km/h | 16831m | 3.8m/s | -56.8°C | 1.8% | 96.3hPa | 2.7V | 00:00:00 | 00:00:00 | 00:00:00 | |
| SP9KGR-15 | 2026-09-05 00:06:54 | 48.94913 | 21.37661 | 84° | 37km/h | 16771m | 4.6m/s | -56.4°C | 1.8% | 97.2hPa | 2.7V | 00:00:00 | 00:00:00 | 00:00:00 | |
| SQ9EZE-13 | 2026-09-05 00:06:53 | 48.94912 | 21.37647 | 84° | 37km/h | 16767m | 3.9m/s | -56.4°C | 1.8% | 97.2hPa | 2.7V | 00:00:00 | 00:00:00 | 00:00:00 | |
| SP9KGR-15 | 2026-09-05 00:06:39 | 48.94872 | 21.37456 | 80° | 40km/h | 16708m | 3.9m/s | -56.4°C | 1.8% | 98.1hPa | 2.7V | 00:00:00 | 00:00:00 | 00:00:00 | |
| SQ9EZE-13 | 2026-09-05 00:06:36 | 48.94864 | 21.37413 | 71° | 38km/h | 16695m | 4.4m/s | -56.4°C | 1.8% | 98.3hPa | 2.7V | 00:00:00 | 00:00:00 | 00:00:00 | |
| GYPAP8-17 | 2026-09-05 00:06:27 | 48.94847 | 21.37284 | 100° | 37km/h | 16656m | 2.9m/s | -56.2°C | 1.8% | 98.9hPa | 2.7V | 00:00:00 | 00:00:00 | 00:00:00 | |
| SP9KGR-15 | 2026-09-05 00:06:23 | 48.94846 | 21.37233 | 71° | 33km/h | 16639m | 5.2m/s | -56.0°C | 1.8% | 99.2hPa | 2.7V | 00:00:00 | 00:00:00 | 00:00:00 | |
| SQ9EZE-13 | 2026-09-05 00:06:20 | 48.94835 | 21.37195 | 71° | 38km/h | 16623m | 5.5m/s | -56.0°C | 1.8% | 99.4hPa | 2.7V | 00:00:00 | 00:00:00 | 00:00:00 | |
| SP9KGR-15 | 2026-09-05 00:06:08 | 48.94822 | 21.37054 | 66° | 24km/h | 16561m | 5.3m/s | -55.9°C | 1.8% | 100.4hPa | 2.7V | 00:00:00 | 00:00:00 | 00:00:00 | |
| SQ9EZE-14 | 2026-09-05 00:06:07 | 48.94820 | 21.37046 | 75° | 26km/h | 16556m | 4.3m/s | -55.9°C | 1.8% | 100.5hPa | 2.7V | 00:00:00 | 00:00:00 | 00:00:00 | |
| SQ9EZE-13 | 2026-09-05 00:06:05 | 48.94818 | 21.37027 | 84° | 26km/h | 16546m | 5.9m/s | -55.9°C | 1.8% | 100.6hPa | 2.7V | 00:00:00 | 00:00:00 | 00:00:00 | |
| SP9KGR-15 | 2026-09-05 00:05:51 | 48.94811 | 21.36856 | 92° | 20km/h | 16473m | 5.3m/s | -55.8°C | 1.8% | 101.8hPa | 2.7V | 00:00:00 | 00:00:00 | 00:00:00 | |
| SQ9EZE-13 | 2026-09-05 00:05:50 | 48.94811 | 21.36848 | 98° | 22km/h | 16468m | 4.4m/s | -55.8°C | 1.8% | 101.9hPa | 2.7V | 00:00:00 | 00:00:00 | 00:00:00 | |
| SP9KGR-15 | 2026-09-05 00:05:36 | 48.94826 | 21.36668 | 112° | 37km/h | 16400m | 5.0m/s | -55.9°C | 1.9% | 103.0hPa | 2.7V | 00:00:00 | 00:00:00 | 00:00:00 | |
| SQ9EZE-13 | 2026-09-05 00:05:35 | 48.94830 | 21.36655 | 114° | 38km/h | 16394m | 5.9m/s | -55.8°C | 1.9% | 103.1hPa | 2.7V | 00:00:00 | 00:00:00 | 00:00:00 | |
| SP9KGR-15 | 2026-09-05 00:05:21 | 48.94871 | 21.36460 | 111° | 37km/h | 16327m | 4.6m/s | -55.5°C | 1.9% | 104.2hPa | 2.7V | 00:00:00 | 00:00:00 | 00:00:00 | |
| GYPAP8-17 | 2026-09-05 00:05:19 | 48.94878 | 21.36433 | 109° | 37km/h | 16317m | 5.0m/s | -55.5°C | 1.9% | 104.3hPa | 2.7V | 00:00:00 | 00:00:00 | 00:00:00 | |
| SP9KGR-15 | 2026-09-05 00:05:05 | 48.94923 | 21.36236 | 107° | 37km/h | 16249m | 4.4m/s | -55.2°C | 2.0% | 105.5hPa | 2.7V | 00:00:00 | 00:00:00 | 00:00:00 | |
| SQ9EZE-13 | 2026-09-05 00:05:03 | 48.94929 | 21.36207 | 109° | 42km/h | 16239m | 5.4m/s | -55.2°C | 2.1% | 105.6hPa | 2.7V | 00:00:00 | 00:00:00 | 00:00:00 | |
| SP9KGR-15 | 2026-09-05 00:04:49 | 48.94984 | 21.35995 | 110° | 49km/h | 16170m | 4.0m/s | -55.7°C | 2.1% | 106.8hPa | 2.7V | 00:00:00 | 00:00:00 | 00:00:00 | |
| SQ9EZE-13 | 2026-09-05 00:04:48 | 48.94988 | 21.35978 | 111° | 47km/h | 16165m | 5.9m/s | -55.7°C | 2.1% | 106.8hPa | 2.7V | 00:00:00 | 00:00:00 | 00:00:00 | |
| SP9KGR-15 | 2026-09-05 00:04:32 | 48.95079 | 21.35663 | 114° | 64km/h | 16087m | 5.0m/s | -56.9°C | 2.4% | 108.2hPa | 2.7V | 00:00:00 | 00:00:00 | 00:00:00 | |
| GYPAP8-17 | 2026-09-05 00:04:22 | 48.95139 | 21.35449 | 124° | 58km/h | 16045m | 3.1m/s | -57.9°C | 2.6% | 108.9hPa | 2.7V | 00:00:00 | 00:00:00 | 00:00:00 | |
| SQ9EZE-13 | 2026-09-05 00:04:17 | 48.95185 | 21.35332 | 112° | 55km/h | 16024m | 2.9m/s | -58.3°C | 2.7% | 109.2hPa | 2.7V | 00:00:00 | 00:00:00 | 00:00:00 | |
| SQ9EZE-14 | 2026-09-05 00:04:07 | 48.95243 | 21.35150 | 124° | 51km/h | 15987m | 4.2m/s | -59.1°C | 3.0% | 109.9hPa | 2.7V | 00:00:00 | 00:00:00 | 00:00:00 | |
| SQ9EZE-13 | 2026-09-05 00:04:02 | 48.95274 | 21.35065 | 121° | 53km/h | 15968m | 3.5m/s | -59.3°C | 3.0% | 110.2hPa | 2.7V | 00:00:00 | 00:00:00 | 00:00:00 | |
| SP9KGR-15 | 2026-09-05 00:04:01 | 48.95274 | 21.35065 | 121° | 53km/h | 15968m | 3.5m/s | -59.3°C | 3.0% | 110.2hPa | 2.7V | 00:00:00 | 00:00:00 | 00:00:00 | |
| SQ9EZE-14 | 2026-09-05 00:03:51 | 48.95351 | 21.34896 | 124° | 55km/h | 15935m | 3.2m/s | -59.5°C | 3.1% | 110.8hPa | 2.7V | 00:00:00 | 00:00:00 | 00:00:00 | |
| SP9KGR-15 | 2026-09-05 00:03:45 | 48.95400 | 21.34794 | 130° | 57km/h | 15915m | 3.8m/s | -59.5°C | 3.1% | 111.2hPa | 2.7V | 00:00:00 | 00:00:00 | 00:00:00 | |
| SP9KGR-15 | 2026-09-05 00:03:30 | 48.95538 | 21.34524 | 128° | 66km/h | 15867m | 3.1m/s | -60.1°C | 3.2% | 112.0hPa | 2.7V | 00:00:00 | 00:00:00 | 00:00:00 | |
| SQ9EZE-13 | 2026-09-05 00:03:29 | 48.95547 | 21.34504 | 126° | 62km/h | 15863m | 3.6m/s | -60.1°C | 3.2% | 112.1hPa | 2.7V | 00:00:00 | 00:00:00 | 00:00:00 | |
| GYPAP8-17 | 2026-09-05 00:03:25 | 48.95581 | 21.34431 | 126° | 55km/h | 15850m | 3.1m/s | -60.3°C | 3.2% | 112.4hPa | 2.7V | 00:00:00 | 00:00:00 | 00:00:00 | |
| SQ9EZE-13 | 2026-09-05 00:03:14 | 48.95684 | 21.34243 | 126° | 55km/h | 15812m | 3.9m/s | -61.0°C | 3.4% | 113.0hPa | 2.7V | 00:00:00 | 00:00:00 | 00:00:00 | |
| SQ9EZE-13 | 2026-09-05 00:02:49 | 48.95858 | 21.33548 | 103° | 66km/h | 15685m | 4.8m/s | -61.5°C | 3.5% | 115.4hPa | 2.7V | 00:00:00 | 00:00:00 | 00:00:00 | |
| SP9KGR-15 | 2026-09-05 00:02:48 | 48.95862 | 21.33524 | 104° | 64km/h | 15680m | 4.0m/s | -61.4°C | 3.5% | 115.5hPa | 2.7V | 00:00:00 | 00:00:00 | 00:00:00 | |
| SP9KGR-15 | 2026-09-05 00:02:28 | 48.95918 | 21.33133 | 100° | 68km/h | 15610m | 5.6m/s | -61.0°C | 3.4% | 116.8hPa | 2.7V | 00:00:00 | 00:00:00 | 00:00:00 | |
| SQ9EZE-13 | 2026-09-05 00:02:16 | 48.95977 | 21.32732 | 99° | 71km/h | 15537m | 6.5m/s | -61.0°C | 3.5% | 118.1hPa | 2.7V | 00:00:00 | 00:00:00 | 00:00:00 | |
| SP9KGR-15 | 2026-09-05 00:02:15 | 48.95980 | 21.32703 | 98° | 77km/h | 15531m | 5.3m/s | -60.9°C | 3.5% | 118.3hPa | 2.7V | 00:00:00 | 00:00:00 | 00:00:00 | |
| SP9KGR-15 | 2026-09-05 00:02:00 | 48.96012 | 21.32199 | 93° | 82km/h | 15440m | 5.4m/s | -60.4°C | 3.3% | 120.0hPa | 2.7V | 00:00:00 | 00:00:00 | 00:00:00 | |
| GYPAP8-17 | 2026-09-05 00:01:48 | 48.96014 | 21.31893 | 92° | 77km/h | 15384m | 6.1m/s | -60.2°C | 3.4% | 121.1hPa | 2.7V | 00:00:00 | 00:00:00 | 00:00:00 | |
| SQ9EZE-13 | 2026-09-05 00:01:44 | 48.96014 | 21.31771 | 93° | 86km/h | 15362m | 6.2m/s | -60.0°C | 3.3% | 121.5hPa | 2.7V | 00:00:00 | 00:00:00 | 00:00:00 | |
| SP9KGR-15 | 2026-09-05 00:01:43 | 48.96015 | 21.31738 | 93° | 88km/h | 15356m | 5.5m/s | -60.0°C | 3.3% | 121.6hPa | 2.7V | 00:00:00 | 00:00:00 | 00:00:00 | |
| SQ9EZE-14 | 2026-09-05 00:01:39 | 48.96014 | 21.31574 | 89° | 78km/h | 15329m | 6.3m/s | -59.7°C | 3.3% | 122.1hPa | 2.7V | 00:00:00 | 00:00:00 | 00:00:00 | |
| SQ9EZE-13 | 2026-09-05 00:01:29 | 48.96010 | 21.31277 | 91° | 86km/h | 15271m | 5.4m/s | -59.2°C | 3.1% | 123.3hPa | 2.7V | 00:00:00 | 00:00:00 | 00:00:00 | |
| SP9KGR-15 | 2026-09-05 00:01:27 | 48.96010 | 21.31244 | 92° | 86km/h | 15265m | 6.2m/s | -59.2°C | 3.1% | 123.4hPa | 2.7V | 00:00:00 | 00:00:00 | 00:00:00 | |
| SQ9EZE-13 | 2026-09-05 00:01:13 | 48.96001 | 21.30822 | 91° | 82km/h | 15189m | 4.5m/s | -59.4°C | 3.2% | 124.9hPa | 2.7V | 00:00:00 | 00:00:00 | 00:00:00 | |
| SP9KGR-15 | 2026-09-05 00:01:11 | 48.96001 | 21.30759 | 89° | 82km/h | 15178m | 6.2m/s | -59.3°C | 3.2% | 125.1hPa | 2.7V | 00:00:00 | 00:00:00 | 00:00:00 | |
| SQ9EZE-13 | 2026-09-05 00:00:55 | 48.95983 | 21.30363 | 82° | 69km/h | 15108m | 4.9m/s | -59.1°C | 3.2% | 126.5hPa | 2.7V | 00:00:00 | 00:00:00 | 00:00:00 | |
| SP9KGR-15 | 2026-09-05 00:00:54 | 48.95980 | 21.30337 | 82° | 68km/h | 15103m | 4.4m/s | -59.1°C | 3.2% | 126.6hPa | 2.7V | 00:00:00 | 00:00:00 | 00:00:00 | |
| GYPAP8-17 | 2026-09-05 00:00:49 | 48.95971 | 21.30239 | 83° | 64km/h | 15084m | 4.9m/s | -59.0°C | 3.2% | 127.0hPa | 2.7V | 00:00:00 | 00:00:00 | 00:00:00 | |
| SP9KGR-15 | 2026-09-05 00:00:40 | 48.95946 | 21.29931 | 81° | 64km/h | 15028m | 3.9m/s | -59.0°C | 3.2% | 128.1hPa | 2.7V | 00:00:00 | 00:00:00 | 00:00:00 | |
| SQ9EZE-13 | 2026-09-05 00:00:24 | 48.95926 | 21.29596 | 85° | 55km/h | 14968m | 4.1m/s | -58.7°C | 3.2% | 129.4hPa | 2.7V | 00:00:00 | 00:00:00 | 00:00:00 | |
| SP9KGR-15 | 2026-09-05 00:00:23 | 48.95924 | 21.29575 | 87° | 57km/h | 14964m | 4.8m/s | -58.6°C | 3.1% | 129.4hPa | 2.7V | 00:00:00 | 00:00:00 | 00:00:00 | |
| GYPAP8-17 | 2026-09-04 23:59:53 | 48.95898 | 21.28932 | 94° | 57km/h | 14843m | 3.4m/s | -57.9°C | 3.1% | 131.9hPa | 2.7V | 00:00:00 | 00:00:00 | 00:00:00 | |
| SQ9EZE-13 | 2026-09-04 23:59:51 | 48.95898 | 21.28889 | 89° | 57km/h | 14835m | 4.7m/s | -57.8°C | 3.1% | 132.1hPa | 2.7V | 00:00:00 | 00:00:00 | 00:00:00 | |
| SQ9EZE-13 | 2026-09-04 23:59:36 | 48.95900 | 21.28557 | 93° | 57km/h | 14777m | 4.4m/s | -57.4°C | 3.0% | 133.3hPa | 2.7V | 00:00:00 | 00:00:00 | 00:00:00 | |
| SP9KGR-15 | 2026-09-04 23:59:35 | 48.95901 | 21.28536 | 95° | 55km/h | 14772m | 4.1m/s | -57.4°C | 3.0% | 133.4hPa | 2.7V | 00:00:00 | 00:00:00 | 00:00:00 | |
| SQ9EZE-14 | 2026-09-04 23:59:34 | 48.95902 | 21.28515 | 96° | 53km/h | 14768m | 3.7m/s | -57.4°C | 3.1% | 133.5hPa | 2.7V | 00:00:00 | 00:00:00 | 00:00:00 | |
| SP9KGR-15 | 2026-09-04 23:59:21 | 48.95918 | 21.28239 | 96° | 58km/h | 14715m | 3.1m/s | -57.6°C | 3.2% | 134.6hPa | 2.7V | 00:00:00 | 00:00:00 | 00:00:00 | |
| SQ9EZE-14 | 2026-09-04 23:59:19 | 48.95919 | 21.28217 | 98° | 57km/h | 14711m | 4.9m/s | -57.5°C | 3.2% | 134.7hPa | 2.7V | 00:00:00 | 00:00:00 | 00:00:00 | |
| SQ9EZE-13 | 2026-09-04 23:59:05 | 48.95956 | 21.27942 | 100° | 53km/h | 14654m | 4.6m/s | -57.6°C | 3.3% | 135.9hPa | 2.7V | 00:00:00 | 00:00:00 | 00:00:00 | |
| SP9KGR-15 | 2026-09-04 23:59:04 | 48.95958 | 21.27922 | 100° | 51km/h | 14650m | 3.4m/s | -57.5°C | 3.3% | 136.0hPa | 2.7V | 00:00:00 | 00:00:00 | 00:00:00 | |
| GYPAP8-17 | 2026-09-04 23:58:54 | 48.95980 | 21.27723 | 99° | 57km/h | 14613m | 3.9m/s | -57.3°C | 3.3% | 136.8hPa | 2.7V | 00:00:00 | 00:00:00 | 00:00:00 | |
| SQ9EZE-13 | 2026-09-04 23:58:49 | 48.95992 | 21.27617 | 104° | 55km/h | 14595m | 3.1m/s | -57.2°C | 3.4% | 137.2hPa | 2.7V | 00:00:00 | 00:00:00 | 00:00:00 | |
| SP9KGR-15 | 2026-09-04 23:58:48 | 48.95995 | 21.27596 | 103° | 53km/h | 14592m | 4.3m/s | -57.2°C | 3.4% | 137.3hPa | 2.7V | 00:00:00 | 00:00:00 | 00:00:00 | |
| SQ9EZE-13 | 2026-09-04 23:58:34 | 48.96015 | 21.27312 | 94° | 57km/h | 14542m | 3.1m/s | -56.7°C | 3.5% | 138.4hPa | 2.7V | 00:00:00 | 00:00:00 | 00:00:00 | |
| SP9KGR-15 | 2026-09-04 23:58:33 | 48.96016 | 21.27291 | 96° | 57km/h | 14538m | 4.2m/s | -56.7°C | 3.6% | 138.4hPa | 2.7V | 00:00:00 | 00:00:00 | 00:00:00 | |
| SQ9EZE-13 | 2026-09-04 23:58:18 | 48.96030 | 21.26972 | 98° | 58km/h | 14482m | 3.9m/s | -56.4°C | 3.9% | 139.6hPa | 2.7V | 00:00:00 | 00:00:00 | 00:00:00 | |
| SP9KGR-15 | 2026-09-04 23:58:17 | 48.96032 | 21.26950 | 98° | 58km/h | 14478m | 3.1m/s | -56.4°C | 4.0% | 139.7hPa | 2.7V | 00:00:00 | 00:00:00 | 00:00:00 | |
| SQ9EZE-13 | 2026-09-04 23:58:03 | 48.96046 | 21.26646 | 94° | 60km/h | 14428m | 3.3m/s | -56.0°C | 4.4% | 140.9hPa | 2.7V | 00:00:00 | 00:00:00 | 00:00:00 | |
| SP9KGR-15 | 2026-09-04 23:58:02 | 48.96047 | 21.26623 | 94° | 60km/h | 14424m | 4.4m/s | -56.0°C | 4.5% | 140.9hPa | 2.7V | 00:00:00 | 00:00:00 | 00:00:00 | |
| GYPAP8-17 | 2026-09-04 23:57:50 | 48.96064 | 21.26348 | 99° | 62km/h | 14378m | 3.2m/s | -56.0°C | 5.4% | 141.9hPa | 2.7V | 00:00:00 | 00:00:00 | 00:00:00 | |
| SP9KGR-15 | 2026-09-04 23:57:47 | 48.96067 | 21.26277 | 92° | 60km/h | 14367m | 3.2m/s | -56.5°C | 5.7% | 142.2hPa | 2.7V | 00:00:00 | 00:00:00 | 00:00:00 | |
| SP9KGR-15 | 2026-09-04 23:57:31 | 48.96080 | 21.25874 | 97° | 75km/h | 14303m | 4.1m/s | -57.5°C | 7.1% | 143.7hPa | 2.7V | 00:00:00 | 00:00:00 | 00:00:00 | |
| SQ9EZE-13 | 2026-09-04 23:57:16 | 48.96109 | 21.25399 | 98° | 88km/h | 14245m | 2.9m/s | -59.1°C | 8.9% | 145.0hPa | 2.7V | 00:00:00 | 00:00:00 | 00:00:00 | |
| SQ9EZE-14 | 2026-09-04 23:57:15 | 48.96112 | 21.25366 | 98° | 86km/h | 14241m | 3.8m/s | -59.2°C | 8.9% | 145.0hPa | 2.7V | 00:00:00 | 00:00:00 | 00:00:00 | |
| SP9KGR-15 | 2026-09-04 23:57:00 | 48.96137 | 21.24869 | 96° | 95km/h | 14185m | 3.6m/s | -61.1°C | 11.1% | 146.4hPa | 2.7V | 00:00:00 | 00:00:00 | 00:00:00 | |
| SQ9EZE-14 | 2026-09-04 23:56:59 | 48.96139 | 21.24832 | 96° | 95km/h | 14181m | 3.7m/s | -61.1°C | 11.3% | 146.5hPa | 2.7V | 00:00:00 | 00:00:00 | 00:00:00 | |
| GYPAP8-17 | 2026-09-04 23:56:54 | 48.96145 | 21.24647 | 93° | 95km/h | 14163m | 3.6m/s | -61.5°C | 11.9% | 147.0hPa | 2.7V | 00:00:00 | 00:00:00 | 00:00:00 | |
| SQ9EZE-13 | 2026-09-04 23:56:44 | 48.96151 | 21.24279 | 93° | 97km/h | 14126m | 4.0m/s | -62.6°C | 14.5% | 147.9hPa | 2.7V | 00:00:00 | 00:00:00 | 00:00:00 | |
| SP9KGR-15 | 2026-09-04 23:56:29 | 48.96158 | 21.23708 | 91° | 97km/h | 14070m | 4.2m/s | -63.0°C | 16.6% | 149.2hPa | 2.7V | 00:00:00 | 00:00:00 | 00:00:00 | |
| SQ9EZE-13 | 2026-09-04 23:56:28 | 48.96158 | 21.23672 | 91° | 95km/h | 14067m | 3.3m/s | -63.0°C | 16.8% | 149.3hPa | 2.7V | 00:00:00 | 00:00:00 | 00:00:00 | |
| SQ9EZE-13 | 2026-09-04 23:56:13 | 48.96158 | 21.23129 | 87° | 95km/h | 14010m | 4.6m/s | -63.5°C | 19.3% | 150.7hPa | 2.7V | 00:00:00 | 00:00:00 | 00:00:00 | |
| GYPAP8-17 | 2026-09-04 23:55:58 | 48.96138 | 21.22616 | 91° | 89km/h | 13947m | 4.3m/s | -63.3°C | 21.2% | 152.3hPa | 2.7V | 00:00:00 | 00:00:00 | 00:00:00 | |
| SP9KGR-15 | 2026-09-04 23:55:57 | 48.96138 | 21.22581 | 91° | 89km/h | 13944m | 2.8m/s | -63.3°C | 21.0% | 152.3hPa | 2.7V | 00:00:00 | 00:00:00 | 00:00:00 | |
| SP9KGR-15 | 2026-09-04 23:55:42 | 48.96153 | 21.22079 | 94° | 91km/h | 13881m | 3.6m/s | -63.5°C | 23.5% | 154.0hPa | 2.7V | 00:00:00 | 00:00:00 | 00:00:00 | |
| SQ9EZE-13 | 2026-09-04 23:55:27 | 48.96212 | 21.21551 | 110° | 89km/h | 13806m | 5.1m/s | -63.4°C | 26.4% | 155.8hPa | 2.7V | 00:00:00 | 00:00:00 | 00:00:00 | |
| SP9KGR-15 | 2026-09-04 23:55:26 | 48.96218 | 21.21520 | 107° | 80km/h | 13800m | 5.4m/s | -63.4°C | 25.9% | 155.9hPa | 2.7V | 00:00:00 | 00:00:00 | 00:00:00 | |
| GYPAP8-17 | 2026-09-04 23:55:12 | 48.96309 | 21.21034 | 107° | 78km/h | 13712m | 5.1m/s | -62.6°C | 26.0% | 158.1hPa | 2.7V | 00:00:00 | 00:00:00 | 00:00:00 | |
| SQ9EZE-14 | 2026-09-04 23:54:58 | 48.96407 | 21.20548 | 109° | 108km/h | 13631m | 4.5m/s | -63.2°C | 28.7% | 160.3hPa | 2.7V | 00:00:00 | 00:00:00 | 00:00:00 | |
| SP9KGR-15 | 2026-09-04 23:54:56 | 48.96423 | 21.20466 | 107° | 113km/h | 13621m | 4.5m/s | -63.2°C | 28.1% | 160.5hPa | 2.7V | 00:00:00 | 00:00:00 | 00:00:00 | |
| SQ9EZE-14 | 2026-09-04 23:54:42 | 48.96533 | 21.19924 | 105° | 106km/h | 13545m | 4.9m/s | -63.4°C | 30.2% | 162.5hPa | 2.7V | 00:00:00 | 00:00:00 | 00:00:00 | |
| SQ9EZE-13 | 2026-09-04 23:54:41 | 48.96544 | 21.19844 | 102° | 106km/h | 13534m | 4.0m/s | -63.5°C | 30.8% | 162.8hPa | 2.7V | 00:00:00 | 00:00:00 | 00:00:00 | |
| SP9KGR-15 | 2026-09-04 23:54:40 | 48.96544 | 21.19844 | 102° | 106km/h | 13534m | 4.0m/s | -63.5°C | 30.8% | 162.8hPa | 2.7V | 00:00:00 | 00:00:00 | 00:00:00 | |
| SP9KGR-15 | 2026-09-04 23:54:25 | 48.96660 | 21.19252 | 107° | 104km/h | 13457m | 4.9m/s | -63.8°C | 32.5% | 164.9hPa | 2.7V | 00:00:00 | 00:00:00 | 00:00:00 | |
| GYPAP8-17 | 2026-09-04 23:54:16 | 48.96740 | 21.18893 | 108° | 111km/h | 13411m | 3.4m/s | -63.5°C | 32.3% | 166.1hPa | 2.7V | 00:00:00 | 00:00:00 | 00:00:00 | |
| SQ9EZE-13 | 2026-09-04 23:54:11 | 48.96794 | 21.18654 | 111° | 108km/h | 13381m | 6.9m/s | -63.3°C | 31.9% | 166.9hPa | 2.7V | 00:00:00 | 00:00:00 | 00:00:00 | |
| SP9KGR-15 | 2026-09-04 23:54:09 | 48.96803 | 21.18616 | 110° | 106km/h | 13375m | 4.5m/s | -63.3°C | 32.1% | 167.0hPa | 2.7V | 00:00:00 | 00:00:00 | 00:00:00 | |
| SQ9EZE-13 | 2026-09-04 23:53:55 | 48.96946 | 21.18050 | 112° | 104km/h | 13299m | 4.0m/s | -62.7°C | 32.3% | 169.1hPa | 2.7V | 00:00:00 | 00:00:00 | 00:00:00 | |
| SP9KGR-15 | 2026-09-04 23:53:54 | 48.96946 | 21.18050 | 112° | 104km/h | 13299m | 4.0m/s | -62.7°C | 32.3% | 169.1hPa | 2.7V | 00:00:00 | 00:00:00 | 00:00:00 | |
| SP9KGR-15 | 2026-09-04 23:53:38 | 48.97116 | 21.17466 | 113° | 110km/h | 13214m | 4.8m/s | -62.4°C | 32.8% | 171.5hPa | 2.7V | 00:00:00 | 00:00:00 | 00:00:00 | |
| OM5KV | 2026-09-04 23:53:20 | 48.97314 | 21.16756 | 114° | 111km/h | 13121m | 6.5m/s | -61.8°C | 0% | 0hPa | 2.7V | 00:00:00 | 00:00:00 | 00:00:00 | |
| OM5KV | 2026-09-04 23:53:14 | 48.97381 | 21.16524 | 115° | 111km/h | 13092m | 5.1m/s | -61.7°C | 34.2% | 174.9hPa | 2.7V | 00:00:00 | 00:00:00 | 00:00:00 | |
| SQ9EZE-13 | 2026-09-04 23:53:07 | 48.97457 | 21.16249 | 113° | 111km/h | 13057m | 5.5m/s | -61.7°C | 35.3% | 175.9hPa | 2.7V | 00:00:00 | 00:00:00 | 00:00:00 | |
| GYPAP8-17 | 2026-09-04 23:53:06 | 48.97468 | 21.16209 | 113° | 113km/h | 13052m | 4.1m/s | -61.6°C | 35.9% | 176.1hPa | 2.7V | 00:00:00 | 00:00:00 | 00:00:00 | |
| OM5KV | 2026-09-04 23:52:55 | 48.97567 | 21.15763 | 107° | 108km/h | 12993m | 7.4m/s | -61.3°C | 0% | 0hPa | 2.7V | 00:00:00 | 00:00:00 | 00:00:00 | |
| SQ9EZE-13 | 2026-09-04 23:52:52 | 48.97592 | 21.15643 | 110° | 110km/h | 12976m | 5.2m/s | -61.4°C | 37.9% | 178.2hPa | 2.7V | 00:00:00 | 00:00:00 | 00:00:00 | |
| SQ9EZE-14 | 2026-09-04 23:52:41 | 48.97693 | 21.15187 | 107° | 115km/h | 12914m | 2.9m/s | -62.0°C | 41.0% | 179.9hPa | 2.7V | 00:00:00 | 00:00:00 | 00:00:00 | |
| SQ9EZE-13 | 2026-09-04 23:52:36 | 48.97734 | 21.14961 | 106° | 130km/h | 12888m | 6.2m/s | -61.7°C | 40.5% | 180.8hPa | 2.7V | 00:00:00 | 00:00:00 | 00:00:00 | |
| SQ9EZE-14 | 2026-09-04 23:52:26 | 48.97815 | 21.14485 | 107° | 126km/h | 12834m | 4.1m/s | -61.6°C | 41.6% | 182.3hPa | 2.7V | 00:00:00 | 00:00:00 | 00:00:00 | |
| SP9KGR-15 | 2026-09-04 23:52:22 | 48.97866 | 21.14245 | 111° | 133km/h | 12806m | 6.7m/s | -61.4°C | 40.7% | 183.1hPa | 2.7V | 00:00:00 | 00:00:00 | 00:00:00 | |
| SQ9EZE-13 | 2026-09-04 23:52:21 | 48.97866 | 21.14245 | 111° | 133km/h | 12806m | 6.7m/s | -61.4°C | 40.7% | 183.1hPa | 2.7V | 00:00:00 | 00:00:00 | 00:00:00 | |
| GYPAP8-17 | 2026-09-04 23:52:20 | 48.97877 | 21.14197 | 110° | 131km/h | 12801m | 3.8m/s | -61.4°C | 40.9% | 183.3hPa | 2.7V | 00:00:00 | 00:00:00 | 00:00:00 | |
| OM5KV | 2026-09-04 23:52:07 | 48.97994 | 21.13562 | 109° | 131km/h | 12735m | 5.7m/s | -60.9°C | 41.2% | 185.1hPa | 2.7V | 00:00:00 | 00:00:00 | 00:00:00 | |
| SP9KGR-15 | 2026-09-04 23:52:06 | 48.98004 | 21.13514 | 109° | 133km/h | 12730m | 3.8m/s | -60.8°C | 41.4% | 185.3hPa | 2.7V | 00:00:00 | 00:00:00 | 00:00:00 | |
| SQ9EZE-13 | 2026-09-04 23:52:05 | 48.98015 | 21.13465 | 109° | 133km/h | 12725m | 5.4m/s | -60.8°C | 41.1% | 185.4hPa | 2.7V | 00:00:00 | 00:00:00 | 00:00:00 | |
| SP9KGR-15 | 2026-09-04 23:51:51 | 48.98146 | 21.12749 | 108° | 126km/h | 12649m | 5.3m/s | -60.5°C | 41.1% | 187.8hPa | 2.7V | 00:00:00 | 00:00:00 | 00:00:00 | |
| OM5KV | 2026-09-04 23:51:42 | 48.98214 | 21.12375 | 106° | 124km/h | 12608m | 3.6m/s | -60.3°C | 0% | 0hPa | 2.7V | 00:00:00 | 00:00:00 | 00:00:00 | |
| OM5KV | 2026-09-04 23:51:36 | 48.98264 | 21.12098 | 108° | 124km/h | 12578m | 3.2m/s | -60.1°C | 0% | 0hPa | 2.7V | 00:00:00 | 00:00:00 | 00:00:00 | |
| SP9KGR-15 | 2026-09-04 23:51:35 | 48.98273 | 21.12052 | 109° | 124km/h | 12574m | 5.3m/s | -60.1°C | 41.3% | 189.9hPa | 2.7V | 00:00:00 | 00:00:00 | 00:00:00 | |
| SQ9EZE-13 | 2026-09-04 23:51:34 | 48.98283 | 21.12007 | 110° | 124km/h | 12569m | 3.3m/s | -60.1°C | 41.4% | 190.1hPa | 2.7V | 00:00:00 | 00:00:00 | 00:00:00 | |
| GYPAP8-17 | 2026-09-04 23:51:25 | 48.98371 | 21.11574 | 107° | 133km/h | 12528m | 4.8m/s | -59.7°C | 40.3% | 191.3hPa | 2.7V | 00:00:00 | 00:00:00 | 00:00:00 | |
| SP9KGR-15 | 2026-09-04 23:51:19 | 48.98427 | 21.11292 | 109° | 128km/h | 12498m | 3.5m/s | -59.5°C | 40.8% | 192.2hPa | 2.7V | 00:00:00 | 00:00:00 | 00:00:00 | |
| SQ9EZE-13 | 2026-09-04 23:51:18 | 48.98437 | 21.11245 | 108° | 130km/h | 12493m | 5.3m/s | -59.5°C | 40.5% | 192.4hPa | 2.7V | 00:00:00 | 00:00:00 | 00:00:00 | |
| SP9KGR-15 | 2026-09-04 23:51:05 | 48.98567 | 21.10564 | 105° | 128km/h | 12431m | 7.0m/s | -59.1°C | 39.0% | 194.3hPa | 2.7V | 00:00:00 | 00:00:00 | 00:00:00 | |
| SQ9EZE-13 | 2026-09-04 23:51:02 | 48.98581 | 21.10469 | 102° | 126km/h | 12421m | 6.0m/s | -59.0°C | 39.1% | 194.6hPa | 2.7V | 00:00:00 | 00:00:00 | 00:00:00 | |
| OM5KV | 2026-09-04 23:50:54 | 48.98640 | 21.10083 | 106° | 130km/h | 12381m | 2.9m/s | -58.8°C | 0% | 0hPa | 2.7V | 00:00:00 | 00:00:00 | 00:00:00 | |
| OM5KV | 2026-09-04 23:50:51 | 48.98665 | 21.09940 | 105° | 126km/h | 12368m | 5.3m/s | -58.8°C | 39.5% | 196.3hPa | 2.7V | 00:00:00 | 00:00:00 | 00:00:00 | |
| SP9KGR-15 | 2026-09-04 23:50:49 | 48.98679 | 21.09847 | 104° | 124km/h | 12361m | 3.1m/s | -58.7°C | 39.4% | 196.5hPa | 2.7V | 00:00:00 | 00:00:00 | 00:00:00 | |
| SQ9EZE-13 | 2026-09-04 23:50:46 | 48.98703 | 21.09709 | 107° | 124km/h | 12349m | 5.2m/s | -58.6°C | 38.9% | 196.8hPa | 2.7V | 00:00:00 | 00:00:00 | 00:00:00 | |
| OM5KV | 2026-09-04 23:50:44 | 48.98719 | 21.09616 | 106° | 126km/h | 12341m | 5.7m/s | 0°C | 0% | 0hPa | 2.7V | 00:00:00 | 00:00:00 | 00:00:00 | |
| GYPAP8-17 | 2026-09-04 23:50:41 | 48.98748 | 21.09418 | 102° | 135km/h | 12326m | 5.7m/s | -58.4°C | 38.2% | 197.5hPa | 2.7V | 00:00:00 | 00:00:00 | 00:00:00 | |
| SP9KGR-15 | 2026-09-04 23:50:33 | 48.98797 | 21.09071 | 104° | 130km/h | 12295m | 3.0m/s | -58.2°C | 37.9% | 198.5hPa | 2.7V | 00:00:00 | 00:00:00 | 00:00:00 | |
| SQ9EZE-13 | 2026-09-04 23:50:30 | 48.98819 | 21.08928 | 103° | 128km/h | 12282m | 5.5m/s | -58.1°C | 37.3% | 198.9hPa | 2.7V | 00:00:00 | 00:00:00 | 00:00:00 | |
| OM5KV | 2026-09-04 23:50:29 | 48.98825 | 21.08880 | 103° | 130km/h | 12277m | 2.9m/s | -58.1°C | 37.7% | 199.0hPa | 2.7V | 00:00:00 | 00:00:00 | 00:00:00 | |
| OM5KV | 2026-09-04 23:50:24 | 48.98859 | 21.08636 | 102° | 130km/h | 12257m | 4.7m/s | -57.9°C | 37.0% | 199.7hPa | 2.7V | 00:00:00 | 00:00:00 | 00:00:00 | |
| SP9KGR-15 | 2026-09-04 23:50:18 | 48.98899 | 21.08341 | 104° | 131km/h | 12233m | 5.4m/s | -57.7°C | 36.0% | 200.4hPa | 2.7V | 00:00:00 | 00:00:00 | 00:00:00 | |
| OM5KV | 2026-09-04 23:50:17 | 48.98907 | 21.08292 | 104° | 131km/h | 12229m | 3.2m/s | 0°C | 0% | 0hPa | 2.7V | 00:00:00 | 00:00:00 | 00:00:00 | |
| SQ9EZE-13 | 2026-09-04 23:50:16 | 48.98930 | 21.08147 | 104° | 128km/h | 12216m | 5.7m/s | -57.6°C | 36.0% | 201.0hPa | 2.7V | 00:00:00 | 00:00:00 | 00:00:00 | |
| OM5KV | 2026-09-04 23:50:09 | 48.98963 | 21.07904 | 104° | 131km/h | 12197m | 3.0m/s | -57.5°C | 36.2% | 201.7hPa | 2.7V | 00:00:00 | 00:00:00 | 00:00:00 | |
| OM5KV | 2026-09-04 23:50:08 | 48.98970 | 21.07854 | 104° | 131km/h | 12193m | 3.6m/s | 0°C | 0% | 0hPa | 2.7V | 00:00:00 | 00:00:00 | 00:00:00 | |
| SQ9EZE-14 | 2026-09-04 23:50:07 | 48.98978 | 21.07805 | 104° | 130km/h | 12189m | 4.3m/s | -57.4°C | 35.8% | 201.9hPa | 2.7V | 00:00:00 | 00:00:00 | 00:00:00 | |
| SP9KGR-15 | 2026-09-04 23:50:02 | 48.99013 | 21.07560 | 101° | 130km/h | 12169m | 3.9m/s | -57.3°C | 35.8% | 202.6hPa | 2.7V | 00:00:00 | 00:00:00 | 00:00:00 | |
| SQ9EZE-13 | 2026-09-04 23:49:58 | 48.99036 | 21.07360 | 101° | 130km/h | 12152m | 3.6m/s | -57.1°C | 36.5% | 203.1hPa | 2.7V | 00:00:00 | 00:00:00 | 00:00:00 | |
| SQ9EZE-14 | 2026-09-04 23:49:52 | 48.99075 | 21.07065 | 102° | 130km/h | 12126m | 3.4m/s | -56.9°C | 37.6% | 203.9hPa | 2.7V | 00:00:00 | 00:00:00 | 00:00:00 | |
| GYPAP8-17 | 2026-09-04 23:49:50 | 48.99087 | 21.06968 | 101° | 128km/h | 12117m | 3.5m/s | -56.9°C | 37.9% | 204.1hPa | 2.7V | 00:00:00 | 00:00:00 | 00:00:00 | |
| SP9KGR-15 | 2026-09-04 23:49:46 | 48.99110 | 21.06773 | 101° | 131km/h | 12099m | 2.7m/s | -56.9°C | 37.6% | 204.6hPa | 2.7V | 00:00:00 | 00:00:00 | 00:00:00 | |
| SQ9EZE-13 | 2026-09-04 23:49:43 | 48.99137 | 21.06571 | 104° | 135km/h | 12081m | 2.4m/s | -56.7°C | 37.3% | 205.3hPa | 2.7V | 00:00:00 | 00:00:00 | 00:00:00 | |
| OM5KV | 2026-09-04 23:49:39 | 48.99162 | 21.06424 | 106° | 128km/h | 12071m | 4.1m/s | -56.6°C | 36.1% | 205.5hPa | 2.7V | 00:00:00 | 00:00:00 | 00:00:00 | |
| OE3JTB-15 | 2026-09-04 23:49:38 | 48.99177 | 21.06329 | 103° | 124km/h | 12062m | 4.8m/s | -56.5°C | 43.4% | 205.8hPa | 2.7V | 00:00:00 | 00:00:00 | 00:00:00 | |
| SP9KGR-15 | 2026-09-04 23:49:31 | 48.99207 | 21.06032 | 98° | 131km/h | 12037m | 4.7m/s | -56.3°C | 36.2% | 206.7hPa | 2.7V | 00:00:00 | 00:00:00 | 00:00:00 | |
| SQ9EZE-13 | 2026-09-04 23:49:27 | 48.99224 | 21.05842 | 101° | 120km/h | 12021m | 4.4m/s | -56.2°C | 36.4% | 207.3hPa | 2.7V | 00:00:00 | 00:00:00 | 00:00:00 | |
| OM5KV | 2026-09-04 23:49:21 | 48.99261 | 21.05572 | 104° | 119km/h | 11998m | 6.1m/s | -56.0°C | 35.3% | 207.9hPa | 2.7V | 00:00:00 | 00:00:00 | 00:00:00 | |
| SP9KGR-15 | 2026-09-04 23:49:15 | 48.99295 | 21.05287 | 99° | 130km/h | 11972m | 4.8m/s | -55.8°C | 35.1% | 208.7hPa | 2.7V | 00:00:00 | 00:00:00 | 00:00:00 | |
| SQ9EZE-13 | 2026-09-04 23:49:11 | 48.99316 | 21.05097 | 102° | 124km/h | 11951m | 3.2m/s | -55.7°C | 35.6% | 209.4hPa | 2.7V | 00:00:00 | 00:00:00 | 00:00:00 | |
| OE3JTB-15 | 2026-09-04 23:49:09 | 48.99333 | 21.04959 | 101° | 120km/h | 11938m | 4.2m/s | -55.6°C | 42.5% | 209.8hPa | 2.7V | 00:00:00 | 00:00:00 | 00:00:00 | |
| SP9KGR-15 | 2026-09-04 23:49:00 | 48.99371 | 21.04588 | 98° | 126km/h | 11904m | 5.1m/s | -55.5°C | 35.7% | 210.9hPa | 2.7V | 00:00:00 | 00:00:00 | 00:00:00 | |
| SQ9EZE-13 | 2026-09-04 23:48:56 | 48.99387 | 21.04395 | 98° | 124km/h | 11888m | 5.1m/s | -55.4°C | 35.7% | 211.5hPa | 2.7V | 00:00:00 | 00:00:00 | 00:00:00 | |
| GYPAP8-17 | 2026-09-04 23:48:52 | 48.99401 | 21.04207 | 97° | 122km/h | 11872m | 5.2m/s | -55.3°C | 35.6% | 212.1hPa | 2.7V | 00:00:00 | 00:00:00 | 00:00:00 | |
| OM5KV | 2026-09-04 23:48:46 | 48.99418 | 21.03927 | 96° | 120km/h | 11847m | 5.6m/s | -55.2°C | 35.2% | 212.9hPa | 2.7V | 00:00:00 | 00:00:00 | 00:00:00 | |
| SP9KGR-15 | 2026-09-04 23:48:45 | 48.99421 | 21.03880 | 96° | 122km/h | 11842m | 3.6m/s | -55.1°C | 35.7% | 213.2hPa | 2.7V | 00:00:00 | 00:00:00 | 00:00:00 | |
| SQ9EZE-13 | 2026-09-04 23:48:40 | 48.99436 | 21.03644 | 96° | 124km/h | 11821m | 3.4m/s | -55.0°C | 36.0% | 213.9hPa | 2.7V | 00:00:00 | 00:00:00 | 00:00:00 | |
| SP9KGR-15 | 2026-09-04 23:48:29 | 48.99462 | 21.03130 | 95° | 120km/h | 11774m | 5.1m/s | -54.6°C | 36.6% | 215.5hPa | 2.7V | 00:00:00 | 00:00:00 | 00:00:00 | |
| OM5KV | 2026-09-04 23:48:27 | 48.99466 | 21.03038 | 95° | 119km/h | 11764m | 4.8m/s | -54.6°C | 36.9% | 215.8hPa | 2.7V | 00:00:00 | 00:00:00 | 00:00:00 | |
| SQ9EZE-13 | 2026-09-04 23:48:25 | 48.99471 | 21.02947 | 95° | 119km/h | 11754m | 6.9m/s | -54.5°C | 36.9% | 216.1hPa | 2.7V | 00:00:00 | 00:00:00 | 00:00:00 | |
| OE3JTB-15 | 2026-09-04 23:48:15 | 48.99492 | 21.02441 | 93° | 119km/h | 11702m | 3.7m/s | -54.0°C | 43.2% | 217.7hPa | 2.7V | 00:00:00 | 01:09:45 | 00:00:00 | |
| SP9KGR-15 | 2026-09-04 23:48:14 | 48.99492 | 21.02440 | 93° | 117km/h | 11702m | 3.8m/s | -54.0°C | 36.6% | 217.8hPa | 2.7V | 00:00:00 | 00:00:00 | 00:00:00 | |
| OM5KV | 2026-09-04 23:48:09 | 48.99503 | 21.02214 | 95° | 117km/h | 11677m | 6.7m/s | -53.8°C | 36.4% | 218.6hPa | 2.7V | 00:00:00 | 00:00:00 | 00:00:00 | |
| OM5KV | 2026-09-04 23:48:03 | 48.99508 | 21.01899 | 94° | 119km/h | 11642m | 3.6m/s | -53.7°C | 37.4% | 219.7hPa | 2.7V | 00:00:00 | 00:00:00 | 00:00:00 | |
| SP9KGR-15 | 2026-09-04 23:47:58 | 48.99516 | 21.01714 | 95° | 119km/h | 11623m | 3.4m/s | -53.6°C | 37.2% | 220.4hPa | 2.7V | 00:00:00 | 00:00:00 | 00:00:00 | |
| GYPAP8-17 | 2026-09-04 23:47:57 | 48.99518 | 21.01669 | 95° | 119km/h | 11618m | 5.9m/s | -53.5°C | 36.8% | 220.5hPa | 2.7V | 00:00:00 | 00:00:00 | 00:00:00 | |
| OM5KV | 2026-09-04 23:47:55 | 48.99521 | 21.01577 | 93° | 117km/h | 11609m | 5.0m/s | -53.5°C | 36.6% | 220.8hPa | 2.7V | 00:00:00 | 00:00:00 | 00:00:00 | |
| SQ9EZE-13 | 2026-09-04 23:47:54 | 48.99522 | 21.01532 | 92° | 115km/h | 11604m | 4.2m/s | -53.4°C | 36.8% | 221.1hPa | 2.7V | 00:00:00 | 00:00:00 | 00:00:00 | |
| SQ9EZE-14 | 2026-09-04 23:47:51 | 48.99523 | 21.01398 | 91° | 119km/h | 11590m | 5.1m/s | -53.4°C | 36.4% | 221.6hPa | 2.7V | 00:00:00 | 00:00:00 | 00:00:00 | |
| OM5KV | 2026-09-04 23:47:48 | 48.99525 | 21.01261 | 94° | 119km/h | 11577m | 3.8m/s | -53.3°C | 36.6% | 222.0hPa | 2.7V | 00:00:00 | 00:00:00 | 00:00:00 | |
| OE3JTB-15 | 2026-09-04 23:47:46 | 48.99530 | 21.01127 | 94° | 108km/h | 11563m | 4.8m/s | -53.1°C | 0% | 222.5hPa | 2.7V | 00:00:00 | 00:00:00 | 00:00:00 | |
| SP9KGR-15 | 2026-09-04 23:47:43 | 48.99532 | 21.01040 | 94° | 111km/h | 11554m | 4.6m/s | -53.1°C | 36.1% | 222.9hPa | 0V | 00:00:00 | 00:00:00 | 00:00:00 | |
| OM5KV | 2026-09-04 23:47:41 | 48.99535 | 21.00955 | 95° | 111km/h | 11544m | 5.2m/s | -53.0°C | 35.6% | 223.1hPa | 0V | 00:00:00 | 00:00:00 | 00:00:00 | |
| SQ9EZE-13 | 2026-09-04 23:47:38 | 48.99541 | 21.00826 | 96° | 113km/h | 11529m | 4.5m/s | -52.9°C | 35.7% | 223.7hPa | 0V | 00:00:00 | 00:00:00 | 00:00:00 | |
| SQ9EZE-14 | 2026-09-04 23:47:36 | 48.99545 | 21.00740 | 94° | 111km/h | 11520m | 4.3m/s | -52.8°C | 35.6% | 224.1hPa | 0V | 00:00:00 | 00:00:00 | 00:00:00 | |
| OM5KV | 2026-09-04 23:47:35 | 48.99547 | 21.00697 | 94° | 111km/h | 11515m | 4.7m/s | -52.7°C | 35.1% | 224.2hPa | 0V | 00:00:00 | 00:00:00 | 00:00:00 | |
| OM5KV | 2026-09-04 23:47:28 | 48.99551 | 21.00398 | 92° | 113km/h | 11482m | 5.3m/s | -52.5°C | 34.9% | 225.4hPa | 0V | 00:00:00 | 00:00:00 | 00:00:00 | |
| SP9KGR-15 | 2026-09-04 23:47:27 | 48.99552 | 21.00355 | 93° | 113km/h | 11478m | 5.3m/s | -52.5°C | 34.7% | 225.6hPa | 0V | 00:00:00 | 00:00:00 | 00:00:00 | |
| SQ9EZE-13 | 2026-09-04 23:47:21 | 48.99563 | 21.00100 | 94° | 108km/h | 11447m | 4.5m/s | -52.2°C | 34.0% | 226.6hPa | 0V | 00:00:00 | 00:00:00 | 00:00:00 | |
| SP9KGR-15 | 2026-09-04 23:47:11 | 48.99569 | 20.99666 | 94° | 113km/h | 11398m | 5.2m/s | -51.8°C | 33.3% | 228.4hPa | 0V | 00:00:00 | 00:00:00 | 00:00:00 | |
| OM5KV | 2026-09-04 23:47:09 | 48.99572 | 20.99580 | 94° | 110km/h | 11387m | 5.0m/s | -51.8°C | 33.4% | 228.8hPa | 0V | 00:00:00 | 00:00:00 | 00:00:00 | |
| SQ9EZE-13 | 2026-09-04 23:47:05 | 48.99580 | 20.99416 | 94° | 108km/h | 11367m | 5.1m/s | -51.6°C | 33.1% | 229.5hPa | 0V | 00:00:00 | 00:00:00 | 00:00:00 | |
| OM5KV | 2026-09-04 23:46:56 | 48.99584 | 20.99030 | 93° | 111km/h | 11320m | 7.0m/s | -51.3°C | 35.2% | 231.1hPa | 0V | 00:00:00 | 00:00:00 | 00:00:00 | |
| SP9KGR-15 | 2026-09-04 23:46:55 | 48.99584 | 20.98987 | 93° | 110km/h | 11314m | 4.3m/s | -51.3°C | 35.2% | 231.3hPa | 0V | 00:00:00 | 00:00:00 | 00:00:00 | |
| OM5KV | 2026-09-04 23:46:49 | 48.99587 | 20.98742 | 90° | 106km/h | 11281m | 4.0m/s | -51.1°C | 35.2% | 232.5hPa | 0V | 00:00:00 | 00:00:00 | 00:00:00 | |
| GYPAP8-17 | 2026-09-04 23:46:43 | 48.99588 | 20.98490 | 92° | 108km/h | 11250m | 4.5m/s | -50.8°C | 34.8% | 233.7hPa | 0V | 00:00:00 | 00:00:00 | 00:00:00 | |
| OM5KV | 2026-09-04 23:46:42 | 48.99589 | 20.98449 | 92° | 106km/h | 11246m | 5.4m/s | -50.8°C | 34.4% | 233.8hPa | 0V | 00:00:00 | 00:00:00 | 00:00:00 | |
| SP9KGR-15 | 2026-09-04 23:46:40 | 48.99588 | 20.98368 | 90° | 104km/h | 11235m | 5.0m/s | -50.7°C | 34.5% | 234.2hPa | 0V | 00:00:00 | 00:00:00 | 00:00:00 | |
| OM5KV | 2026-09-04 23:46:35 | 48.99584 | 20.98165 | 90° | 108km/h | 11207m | 7.1m/s | -50.6°C | 35.1% | 235.2hPa | 0V | 00:00:00 | 00:00:00 | 00:00:00 | |
| SQ9EZE-13 | 2026-09-04 23:46:33 | 48.99584 | 20.98082 | 91° | 110km/h | 11197m | 6.7m/s | -50.6°C | 35.2% | 235.5hPa | 0V | 00:00:00 | 00:00:00 | 00:00:00 | |
| SP9KGR-15 | 2026-09-04 23:46:25 | 48.99598 | 20.97749 | 94° | 104km/h | 11153m | 6.6m/s | -50.3°C | 35.0% | 237.1hPa | 0V | 00:00:00 | 00:00:00 | 00:00:00 | |
| OM5KV | 2026-09-04 23:46:21 | 48.99600 | 20.97596 | 90° | 99km/h | 11131m | 6.4m/s | -50.1°C | 34.8% | 237.9hPa | 0V | 00:00:00 | 00:00:00 | 00:00:00 | |
| SQ9EZE-13 | 2026-09-04 23:46:17 | 48.99601 | 20.97441 | 94° | 106km/h | 11110m | 5.2m/s | -50.0°C | 34.9% | 238.6hPa | 0V | 00:00:00 | 00:00:00 | 00:00:00 | |
| OM5KV | 2026-09-04 23:46:15 | 48.99605 | 20.97357 | 97° | 111km/h | 11100m | 4.6m/s | -49.9°C | 34.4% | 239.0hPa | 0V | 00:00:00 | 00:00:00 | 00:00:00 | |
| SP9KGR-15 | 2026-09-04 23:46:09 | 48.99623 | 20.97108 | 97° | 102km/h | 11069m | 6.8m/s | -49.6°C | 33.5% | 240.1hPa | 0V | 00:00:00 | 00:00:00 | 00:00:00 | |
| OM5KV | 2026-09-04 23:46:04 | 48.99630 | 20.96911 | 92° | 106km/h | 11041m | 4.6m/s | -49.3°C | 32.9% | 241.1hPa | 0V | 00:00:00 | 00:00:00 | 00:00:00 | |
| SQ9EZE-13 | 2026-09-04 23:46:01 | 48.99632 | 20.96788 | 93° | 104km/h | 11025m | 5.8m/s | -49.2°C | 32.7% | 241.7hPa | 0V | 00:00:00 | 00:00:00 | 00:00:00 | |
| GYPAP8-17 | 2026-09-04 23:45:59 | 48.99635 | 20.96709 | 95° | 102km/h | 11014m | 4.5m/s | -49.1°C | 32.5% | 242.0hPa | 0V | 00:00:00 | 00:00:00 | 00:00:00 | |
| SP9KGR-15 | 2026-09-04 23:45:54 | 48.99643 | 20.96514 | 92° | 100km/h | 10987m | 5.9m/s | -48.9°C | 31.1% | 243.1hPa | 0V | 00:00:00 | 00:00:00 | 00:00:00 | |
| SQ9EZE-13 | 2026-09-04 23:45:46 | 48.99653 | 20.96203 | 95° | 104km/h | 10944m | 6.3m/s | -48.5°C | 29.0% | 244.7hPa | 0V | 00:00:00 | 00:00:00 | 00:00:00 | |
| SP9KGR-15 | 2026-09-04 23:45:38 | 48.99659 | 20.95887 | 93° | 100km/h | 10903m | 6.0m/s | -48.2°C | 27.3% | 246.4hPa | 0V | 00:00:00 | 00:00:00 | 00:00:00 | |
| SQ9EZE-14 | 2026-09-04 23:45:36 | 48.99662 | 20.95810 | 96° | 102km/h | 10892m | 6.5m/s | -48.1°C | 27.2% | 246.8hPa | 0V | 00:00:00 | 00:00:00 | 00:00:00 | |
| OM5KV | 2026-09-04 23:45:31 | 48.99679 | 20.95610 | 98° | 106km/h | 10869m | 5.2m/s | -47.9°C | 26.9% | 247.7hPa | 0V | 00:00:00 | 00:00:00 | 00:00:00 | |
| SQ9EZE-13 | 2026-09-04 23:45:30 | 48.99681 | 20.95569 | 96° | 106km/h | 10863m | 5.6m/s | -47.8°C | 27.3% | 247.9hPa | 0V | 00:00:00 | 00:00:00 | 00:00:00 | |
| OE3JTB-15 | 2026-09-04 23:45:27 | 48.99685 | 20.95411 | 91° | 104km/h | 10844m | 6.3m/s | 0°C | 0% | 0hPa | 0V | 00:00:00 | 00:00:00 | 00:00:00 | |
| OM5KV | 2026-09-04 23:45:26 | 48.99685 | 20.95411 | 91° | 102km/h | 10844m | 6.4m/s | -47.7°C | 26.5% | 248.6hPa | 0V | 00:00:00 | 00:00:00 | 00:00:00 | |
| SP9KGR-15 | 2026-09-04 23:45:22 | 48.99692 | 20.95252 | 98° | 106km/h | 10823m | 5.0m/s | -47.5°C | 26.5% | 249.4hPa | 0V | 00:00:00 | 00:00:00 | 00:00:00 | |
| SQ9EZE-14 | 2026-09-04 23:45:20 | 48.99699 | 20.95173 | 98° | 104km/h | 10812m | 6.8m/s | -47.4°C | 26.2% | 249.8hPa | 0V | 00:00:00 | 00:00:00 | 00:00:00 | |
| SQ9EZE-13 | 2026-09-04 23:45:17 | 48.99712 | 20.94973 | 95° | 104km/h | 10783m | 4.5m/s | -47.1°C | 25.8% | 250.9hPa | 0V | 00:00:00 | 00:00:00 | 00:00:00 | |
| OM5KV | 2026-09-04 23:45:13 | 48.99714 | 20.94892 | 94° | 106km/h | 10772m | 4.8m/s | -47.1°C | 25.5% | 251.4hPa | 0V | 00:00:00 | 00:00:00 | 00:00:00 | |
| SP9KGR-15 | 2026-09-04 23:45:09 | 48.99724 | 20.94651 | 98° | 102km/h | 10736m | 5.6m/s | -46.8°C | 25.3% | 252.7hPa | 0V | 00:00:00 | 00:00:00 | 00:00:00 | |
| GYPAP8-17 | 2026-09-04 23:44:59 | 48.99751 | 20.94334 | 97° | 106km/h | 10689m | 4.8m/s | -46.4°C | 25.0% | 254.5hPa | 0V | 00:00:00 | 00:00:00 | 00:00:00 | |
| OE3JTB-15 | 2026-09-04 23:44:58 | 48.99756 | 20.94253 | 96° | 102km/h | 10678m | 5.2m/s | 0°C | 0% | 0hPa | 0V | 00:00:00 | 01:06:28 | 00:00:00 | |
| SP9KGR-15 | 2026-09-04 23:44:51 | 48.99769 | 20.94017 | 97° | 100km/h | 10644m | 4.8m/s | -46.0°C | 25.1% | 256.2hPa | 0V | 00:00:00 | 00:00:00 | 00:00:00 | |
| OM5KV | 2026-09-04 23:44:45 | 48.99788 | 20.93789 | 97° | 100km/h | 10610m | 6.1m/s | -45.7°C | 24.7% | 257.5hPa | 0V | 00:00:00 | 00:00:00 | 00:00:00 | |
| SQ9EZE-13 | 2026-09-04 23:44:44 | 48.99791 | 20.93750 | 96° | 102km/h | 10604m | 7.8m/s | -45.7°C | 25.0% | 257.8hPa | 0V | 00:00:00 | 00:00:00 | 00:00:00 | |
| SP9KGR-15 | 2026-09-04 23:44:36 | 48.99804 | 20.93435 | 96° | 100km/h | 10558m | 6.7m/s | -45.3°C | 26.0% | 259.4hPa | 0V | 00:00:00 | 00:00:00 | 00:00:00 | |
| OM5KV | 2026-09-04 23:44:30 | 48.99820 | 20.93202 | 98° | 104km/h | 10524m | 7.1m/s | -45.1°C | 26.0% | 260.8hPa | 0V | 00:00:00 | 00:00:00 | 00:00:00 | |
| OE3JTB-15 | 2026-09-04 23:44:29 | 48.99827 | 20.93123 | 98° | 104km/h | 10513m | 6.0m/s | 0°C | 0% | 0hPa | 0V | 00:00:00 | 00:00:00 | 08:30:00 | |
| SQ9EZE-13 | 2026-09-04 23:44:28 | 48.99827 | 20.93123 | 99° | 102km/h | 10513m | 6.0m/s | -45.0°C | 26.0% | 261.2hPa | 0V | 00:00:00 | 00:00:00 | 00:00:00 | |
| OM5KV | 2026-09-04 23:44:24 | 48.99840 | 20.92966 | 97° | 104km/h | 10492m | 6.0m/s | -44.8°C | 25.7% | 262.0hPa | 0V | 00:00:00 | 00:00:00 | 00:00:00 | |
| SP9KGR-15 | 2026-09-04 23:44:20 | 48.99849 | 20.92808 | 95° | 102km/h | 10472m | 6.2m/s | -44.7°C | 25.0% | 262.8hPa | 0V | 00:00:00 | 00:00:00 | 00:00:00 | |
| OM5KV | 2026-09-04 23:44:18 | 48.99853 | 20.92731 | 97° | 100km/h | 10461m | 6.1m/s | -44.6°C | 24.8% | 263.3hPa | 0V | 00:00:00 | 00:00:00 | 00:00:00 | |
| OM5KV | 2026-09-04 23:44:12 | 48.99871 | 20.92498 | 97° | 104km/h | 10432m | 5.0m/s | -44.3°C | 25.0% | 264.5hPa | 0V | 00:00:00 | 00:00:00 | 00:00:00 | |
| OM5KV | 2026-09-04 23:44:07 | 48.99882 | 20.92266 | 97° | 99km/h | 10400m | 4.8m/s | -44.1°C | 24.7% | 265.8hPa | 0V | 00:00:00 | 00:00:00 | 00:00:00 | |
| SP9KGR-15 | 2026-09-04 23:44:05 | 48.99889 | 20.92190 | 101° | 99km/h | 10389m | 4.2m/s | -44.0°C | 24.7% | 266.2hPa | 0V | 00:00:00 | 00:00:00 | 00:00:00 | |
| GYPAP8-17 | 2026-09-04 23:44:03 | 48.99893 | 20.92153 | 100° | 99km/h | 10384m | 6.9m/s | -44.0°C | 24.6% | 266.4hPa | 0V | 00:00:00 | 00:00:00 | 00:00:00 | |
| SQ9EZE-13 | 2026-09-04 23:43:58 | 48.99912 | 20.91933 | 96° | 95km/h | 10351m | 6.9m/s | -43.7°C | 24.8% | 267.7hPa | 0V | 00:00:00 | 00:00:00 | 00:00:00 | |
| OM5KV | 2026-09-04 23:43:51 | 48.99925 | 20.91704 | 99° | 106km/h | 10318m | 7.1m/s | -43.5°C | 25.2% | 269.0hPa | 0V | 00:00:00 | 00:00:00 | 00:00:00 | |
| SP9KGR-15 | 2026-09-04 23:43:48 | 48.99938 | 20.91584 | 101° | 102km/h | 10302m | 4.5m/s | -43.4°C | 25.6% | 269.6hPa | 0V | 00:00:00 | 00:00:00 | 00:00:00 | |
| OM5KV | 2026-09-04 23:43:46 | 48.99946 | 20.91508 | 98° | 99km/h | 10292m | 4.2m/s | -43.3°C | 25.8% | 269.9hPa | 0V | 00:00:00 | 00:00:00 | 00:00:00 | |
| SQ9EZE-13 | 2026-09-04 23:43:42 | 48.99957 | 20.91353 | 95° | 106km/h | 10269m | 4.7m/s | -43.2°C | 26.6% | 270.8hPa | 0V | 00:00:00 | 00:00:00 | 00:00:00 | |
| OM5KV | 2026-09-04 23:43:38 | 48.99964 | 20.91189 | 95° | 108km/h | 10249m | 5.0m/s | -43.1°C | 27.8% | 271.6hPa | 0V | 00:00:00 | 00:00:00 | 00:00:00 | |
| SP9KGR-15 | 2026-09-04 23:43:33 | 48.99976 | 20.90988 | 98° | 104km/h | 10224m | 4.6m/s | -43.0°C | 29.0% | 272.6hPa | 0V | 00:00:00 | 00:00:00 | 00:00:00 | |
| OM5KV | 2026-09-04 23:43:28 | 48.99995 | 20.90793 | 100° | 102km/h | 10198m | 5.3m/s | -42.9°C | 30.6% | 273.7hPa | 0V | 00:00:00 | 00:00:00 | 00:00:00 | |
| SQ9EZE-13 | 2026-09-04 23:43:26 | 49.00003 | 20.90716 | 100° | 102km/h | 10188m | 6.3m/s | -42.8°C | 30.4% | 274.0hPa | 0V | 00:00:00 | 00:00:00 | 00:00:00 | |
| SQ9EZE-14 | 2026-09-04 23:43:20 | 49.00027 | 20.90486 | 99° | 100km/h | 10158m | 6.2m/s | -42.6°C | 29.7% | 275.3hPa | 0V | 00:00:00 | 00:00:00 | 00:00:00 | |
| SP9KGR-15 | 2026-09-04 23:43:18 | 49.00035 | 20.90369 | 96° | 104km/h | 10143m | 4.2m/s | -42.4°C | 30.3% | 276.0hPa | 0V | 00:00:00 | 00:00:00 | 00:00:00 | |
| SQ9EZE-13 | 2026-09-04 23:43:10 | 49.00054 | 20.90097 | 97° | 100km/h | 10112m | 5.5m/s | -42.2°C | 30.4% | 277.3hPa | 0V | 00:00:00 | 00:00:00 | 00:00:00 | |
| OM5KV | 2026-09-04 23:43:07 | 49.00062 | 20.89982 | 97° | 97km/h | 10099m | 3.4m/s | -42.1°C | 31.2% | 277.9hPa | 0V | 00:00:00 | 00:00:00 | 00:00:00 | |
| GYPAP8-17 | 2026-09-04 23:43:04 | 49.00071 | 20.89869 | 98° | 100km/h | 10086m | 5.6m/s | -42.0°C | 31.4% | 278.4hPa | 0V | 00:00:00 | 00:00:00 | 00:00:00 | |
| SP9KGR-15 | 2026-09-04 23:43:01 | 49.00080 | 20.89753 | 98° | 100km/h | 10073m | 5.5m/s | -41.9°C | 31.7% | 278.9hPa | 0V | 00:00:00 | 00:00:00 | 00:00:00 | |
| OM5KV | 2026-09-04 23:42:57 | 49.00092 | 20.89599 | 96° | 104km/h | 10057m | 3.7m/s | -41.8°C | 32.3% | 279.6hPa | 0V | 00:00:00 | 00:00:00 | 00:00:00 | |
| SQ9EZE-13 | 2026-09-04 23:42:54 | 49.00101 | 20.89481 | 99° | 104km/h | 10045m | 4.1m/s | -41.7°C | 32.1% | 280.2hPa | 0V | 00:00:00 | 00:00:00 | 00:00:00 | |
| OM5KV | 2026-09-04 23:42:50 | 49.00115 | 20.89325 | 98° | 102km/h | 10029m | 3.8m/s | -41.6°C | 31.7% | 280.8hPa | 0V | 00:00:00 | 00:00:00 | 00:00:00 | |
| SP9KGR-15 | 2026-09-04 23:42:46 | 49.00126 | 20.89169 | 96° | 102km/h | 10007m | 4.2m/s | -41.5°C | 32.5% | 281.7hPa | 0V | 00:00:00 | 00:00:00 | 00:00:00 | |
| OM5KV | 2026-09-04 23:42:44 | 49.00130 | 20.89089 | 94° | 106km/h | 9997m | 4.0m/s | -41.5°C | 32.8% | 282.1hPa | 0V | 00:00:00 | 00:00:00 | 00:00:00 | |
| SQ9EZE-13 | 2026-09-04 23:42:39 | 49.00135 | 20.88884 | 92° | 102km/h | 9976m | 4.2m/s | -41.3°C | 33.9% | 283.0hPa | 0V | 00:00:00 | 00:00:00 | 00:00:00 | |
| OM5KV | 2026-09-04 23:42:32 | 49.00159 | 20.88620 | 103° | 104km/h | 9938m | 5.6m/s | -41.0°C | 33.1% | 284.5hPa | 0V | 00:00:00 | 00:00:00 | 00:00:00 | |
| SP9KGR-15 | 2026-09-04 23:42:30 | 49.00168 | 20.88539 | 99° | 110km/h | 9929m | 4.5m/s | -40.9°C | 33.1% | 284.9hPa | 0V | 00:00:00 | 00:00:00 | 00:00:00 | |
| SQ9EZE-13 | 2026-09-04 23:42:24 | 49.00180 | 20.88293 | 96° | 97km/h | 9896m | 5.7m/s | -40.8°C | 30.9% | 286.3hPa | 0V | 00:00:00 | 00:00:00 | 00:00:00 | |
| OE3JTB-15 | 2026-09-04 23:42:18 | 49.00196 | 20.88038 | 93° | 95km/h | 9857m | 6.0m/s | 0°C | 0% | 0hPa | 0V | 00:00:00 | 00:00:00 | 00:00:00 | |
| SP9KGR-15 | 2026-09-04 23:42:14 | 49.00199 | 20.87923 | 94° | 97km/h | 9843m | 3.2m/s | -40.4°C | 28.9% | 288.5hPa | 0V | 00:00:00 | 00:00:00 | 00:00:00 | |
| OM5KV | 2026-09-04 23:42:13 | 49.00200 | 20.87886 | 95° | 97km/h | 9839m | 4.6m/s | -40.4°C | 28.7% | 288.6hPa | 0V | 00:00:00 | 00:00:00 | 00:00:00 | |
| GYPAP8-17 | 2026-09-04 23:42:08 | 49.00209 | 20.87697 | 97° | 99km/h | 9818m | 3.0m/s | -40.1°C | 27.8% | 289.6hPa | 0V | 00:00:00 | 00:00:00 | 00:00:00 | |
| OM5KV | 2026-09-04 23:42:02 | 49.00219 | 20.87476 | 93° | 97km/h | 9791m | 3.4m/s | -39.9°C | 26.7% | 290.8hPa | 0V | 00:00:00 | 00:00:00 | 00:00:00 | |
| SP9KGR-15 | 2026-09-04 23:41:59 | 49.00221 | 20.87366 | 93° | 95km/h | 9778m | 5.4m/s | -39.8°C | 26.4% | 291.3hPa | 0V | 00:00:00 | 00:00:00 | 00:00:00 | |
| SQ9EZE-13 | 2026-09-04 23:41:52 | 49.00223 | 20.87123 | 95° | 91km/h | 9750m | 3.6m/s | -39.6°C | 26.5% | 292.6hPa | 0V | 00:00:00 | 00:00:00 | 00:00:00 | |
| OM5KV | 2026-09-04 23:41:50 | 49.00229 | 20.87014 | 96° | 97km/h | 9736m | 6.0m/s | -39.5°C | 26.3% | 293.1hPa | 0V | 00:00:00 | 00:00:00 | 00:00:00 | |
| OE3JTB-15 | 2026-09-04 23:41:49 | 49.00231 | 20.86977 | 97° | 100km/h | 9731m | 3.4m/s | 0°C | 0% | 0hPa | 0V | 00:00:00 | 01:03:19 | 00:00:00 | |
| SP9KGR-15 | 2026-09-04 23:41:43 | 49.00238 | 20.86791 | 92° | 93km/h | 9708m | 6.2m/s | -39.2°C | 26.0% | 294.2hPa | 0V | 00:00:00 | 00:00:00 | 00:00:00 | |
| OM5KV | 2026-09-04 23:41:38 | 49.00238 | 20.86611 | 92° | 95km/h | 9686m | 4.6m/s | -39.1°C | 26.1% | 295.1hPa | 0V | 00:00:00 | 00:00:00 | 00:00:00 | |
| SQ9EZE-13 | 2026-09-04 23:41:36 | 49.00240 | 20.86536 | 94° | 99km/h | 9678m | 4.8m/s | -39.0°C | 26.0% | 295.5hPa | 0V | 00:00:00 | 00:00:00 | 00:00:00 | |
| OM5KV | 2026-09-04 23:41:32 | 49.00246 | 20.86383 | 94° | 97km/h | 9660m | 3.7m/s | -38.9°C | 26.3% | 296.2hPa | 0V | 00:00:00 | 00:00:00 | 00:00:00 | |
| SP9KGR-15 | 2026-09-04 23:41:27 | 49.00245 | 20.86195 | 90° | 100km/h | 9640m | 3.2m/s | -38.7°C | 26.9% | 297.1hPa | 0V | 00:00:00 | 00:00:00 | 00:00:00 | |
| OM5KV | 2026-09-04 23:41:25 | 49.00244 | 20.86116 | 90° | 104km/h | 9632m | 3.1m/s | -38.7°C | 26.8% | 297.5hPa | 0V | 00:00:00 | 00:00:00 | 00:00:00 | |
| SQ9EZE-13 | 2026-09-04 23:41:21 | 49.00242 | 20.85954 | 89° | 104km/h | 9616m | 2.8m/s | -38.6°C | 27.3% | 298.1hPa | 0V | 00:00:00 | 00:00:00 | 00:00:00 | |
| OE3JTB-15 | 2026-09-04 23:41:20 | 49.00242 | 20.85874 | 91° | 91km/h | 9609m | 2.8m/s | 0°C | 0% | 0hPa | 0V | 00:00:00 | 00:00:00 | 00:00:00 | |
| OM5KV | 2026-09-04 23:41:19 | 49.00242 | 20.85874 | 92° | 102km/h | 9609m | 2.9m/s | -38.5°C | 27.6% | 298.5hPa | 0V | 00:00:00 | 00:00:00 | 00:00:00 | |
| GYPAP8-17 | 2026-09-04 23:41:13 | 49.00250 | 20.85652 | 94° | 99km/h | 9586m | 2.5m/s | -38.4°C | 28.7% | 299.5hPa | 0V | 00:00:00 | 00:00:00 | 00:00:00 | |
| SP9KGR-15 | 2026-09-04 23:41:11 | 49.00251 | 20.85577 | 90° | 99km/h | 9578m | 4.1m/s | -38.3°C | 28.8% | 299.8hPa | 0V | 00:00:00 | 00:00:00 | 00:00:00 | |
| SQ9EZE-13 | 2026-09-04 23:41:07 | 49.00251 | 20.85390 | 96° | 95km/h | 9557m | 2.2m/s | -38.2°C | 29.5% | 300.7hPa | 0V | 00:00:00 | 00:00:00 | 00:00:00 | |
| SQ9EZE-14 | 2026-09-04 23:41:04 | 49.00255 | 20.85320 | 95° | 88km/h | 9551m | 3.0m/s | -38.2°C | 29.6% | 301.0hPa | 0V | 00:00:00 | 00:00:00 | 00:00:00 | |
| OM5KV | 2026-09-04 23:40:56 | 49.00256 | 20.85018 | 87° | 93km/h | 9516m | 5.5m/s | -37.9°C | 30.3% | 302.5hPa | 0V | 00:00:00 | 00:00:00 | 00:00:00 | |
| SQ9EZE-13 | 2026-09-04 23:40:50 | 49.00251 | 20.84834 | 92° | 97km/h | 9497m | 2.8m/s | -37.8°C | 31.1% | 303.4hPa | 0V | 00:00:00 | 00:00:00 | 00:00:00 | |
| SQ9EZE-14 | 2026-09-04 23:40:49 | 49.00253 | 20.84760 | 95° | 97km/h | 9489m | 2.5m/s | -37.7°C | 30.9% | 303.7hPa | 0V | 00:00:00 | 00:00:00 | 00:00:00 | |
| SP9KGR-15 | 2026-09-04 23:40:40 | 49.00264 | 20.84468 | 93° | 93km/h | 9460m | 3.6m/s | -37.5°C | 32.3% | 305.1hPa | 0V | 00:00:00 | 00:00:00 | 00:00:00 | |
| OM5KV | 2026-09-04 23:40:38 | 49.00266 | 20.84396 | 93° | 95km/h | 9451m | 5.5m/s | -37.5°C | 32.5% | 305.4hPa | 0V | 00:00:00 | 00:00:00 | 00:00:00 | |
| SQ9EZE-13 | 2026-09-04 23:40:35 | 49.00270 | 20.84288 | 95° | 91km/h | 9438m | 4.1m/s | -37.4°C | 32.7% | 306.0hPa | 0V | 00:00:00 | 00:00:00 | 00:00:00 | |
| OM5KV | 2026-09-04 23:40:28 | 49.00270 | 20.84044 | 92° | 91km/h | 9408m | 3.3m/s | -37.2°C | 32.9% | 307.3hPa | 0V | 00:00:00 | 00:00:00 | 00:00:00 | |
| SP9KGR-15 | 2026-09-04 23:40:25 | 49.00273 | 20.83937 | 93° | 95km/h | 9398m | 4.3m/s | -37.1°C | 32.7% | 307.8hPa | 0V | 00:00:00 | 00:00:00 | 00:00:00 | |
| OM5KV | 2026-09-04 23:40:22 | 49.00274 | 20.83829 | 91° | 95km/h | 9388m | 1.5m/s | -37.0°C | 33.5% | 308.3hPa | 0V | 00:00:00 | 00:00:00 | 00:00:00 | |
| GYPAP8-17 | 2026-09-04 23:40:19 | 49.00276 | 20.83723 | 94° | 89km/h | 9378m | 4.9m/s | -36.9°C | 33.7% | 308.8hPa | 0V | 00:00:00 | 00:00:00 | 00:00:00 | |
| OM5KV | 2026-09-04 23:40:16 | 49.00279 | 20.83621 | 92° | 88km/h | 9365m | 2.8m/s | -36.9°C | 35.5% | 309.3hPa | 0V | 00:00:00 | 00:00:00 | 00:00:00 | |
| SP9KGR-15 | 2026-09-04 23:40:09 | 49.00270 | 20.83371 | 89° | 93km/h | 9335m | 5.4m/s | -36.6°C | 35.6% | 310.6hPa | 0V | 00:00:00 | 00:00:00 | 00:00:00 | |
| OM5KV | 2026-09-04 23:40:05 | 49.00271 | 20.83231 | 94° | 89km/h | 9319m | 4.2m/s | -36.5°C | 35.3% | 311.3hPa | 0V | 00:00:00 | 00:00:00 | 00:00:00 | |
| SQ9EZE-13 | 2026-09-04 23:40:03 | 49.00273 | 20.83164 | 90° | 86km/h | 9312m | 3.4m/s | -36.5°C | 35.8% | 311.6hPa | 0V | 00:00:00 | 00:00:00 | 00:00:00 | |
| OM5KV | 2026-09-04 23:39:59 | 49.00268 | 20.83030 | 88° | 89km/h | 9300m | 2.8m/s | -36.4°C | 35.8% | 312.2hPa | 0V | 00:00:00 | 00:00:00 | 00:00:00 | |
| SP9KGR-15 | 2026-09-04 23:39:53 | 49.00260 | 20.82823 | 87° | 84km/h | 9278m | 3.2m/s | -36.2°C | 35.4% | 313.2hPa | 0V | 00:00:00 | 00:00:00 | 00:00:00 | |
| OM5KV | 2026-09-04 23:39:48 | 49.00256 | 20.82664 | 90° | 84km/h | 9260m | 5.2m/s | -36.1°C | 36.2% | 314.1hPa | 0V | 00:00:00 | 00:00:00 | 00:00:00 | |
| SQ9EZE-13 | 2026-09-04 23:39:47 | 49.00256 | 20.82631 | 91° | 88km/h | 9256m | 3.0m/s | -36.1°C | 36.6% | 314.3hPa | 0V | 00:00:00 | 00:00:00 | 00:00:00 | |
| SP9KGR-15 | 2026-09-04 23:39:38 | 49.00260 | 20.82314 | 90° | 95km/h | 9220m | 3.0m/s | -35.9°C | 37.2% | 315.8hPa | 0V | 00:00:00 | 00:00:00 | 00:00:00 | |
| OM5KV | 2026-09-04 23:39:36 | 49.00258 | 20.82242 | 87° | 91km/h | 9213m | 3.5m/s | -35.8°C | 36.7% | 316.1hPa | 0V | 00:00:00 | 00:00:00 | 00:00:00 | |
| SQ9EZE-13 | 2026-09-04 23:39:31 | 49.00248 | 20.82080 | 85° | 80km/h | 9191m | 2.7m/s | -35.6°C | 36.1% | 317.2hPa | 0V | 00:00:00 | 00:00:00 | 00:00:00 | |
| OM5KV | 2026-09-04 23:39:30 | 49.00246 | 20.82049 | 85° | 78km/h | 9187m | 4.8m/s | -35.6°C | 35.6% | 317.3hPa | 0V | 00:00:00 | 00:00:00 | 00:00:00 | |
| OM5KV | 2026-09-04 23:39:25 | 49.00242 | 20.81897 | 94° | 82km/h | 9167m | 3.0m/s | -35.4°C | 0% | 0hPa | 0V | 00:00:00 | 00:00:00 | 00:00:00 | |
| GYPAP8-17 | 2026-09-04 23:39:24 | 49.00243 | 20.81865 | 95° | 84km/h | 9163m | 5.5m/s | -35.4°C | 34.6% | 318.5hPa | 0V | 00:00:00 | 00:00:00 | 00:00:00 | |
| SP9KGR-15 | 2026-09-04 23:39:23 | 49.00246 | 20.81799 | 94° | 89km/h | 9154m | 3.6m/s | -35.3°C | 34.5% | 318.8hPa | 0V | 00:00:00 | 00:00:00 | 00:00:00 | |
| OM5KV | 2026-09-04 23:39:19 | 49.00245 | 20.81695 | 88° | 91km/h | 9144m | 4.1m/s | -35.2°C | 0% | 0hPa | 0V | 00:00:00 | 00:00:00 | 00:00:00 | |
| SQ9EZE-13 | 2026-09-04 23:39:15 | 49.00238 | 20.81559 | 86° | 86km/h | 9129m | 4.5m/s | -35.0°C | 34.4% | 320.0hPa | 0V | 00:00:00 | 00:00:00 | 00:00:00 | |
| OM5KV | 2026-09-04 23:39:13 | 49.00233 | 20.81495 | 83° | 84km/h | 9121m | 6.3m/s | -35.0°C | 0% | 0hPa | 0V | 00:00:00 | 00:00:00 | 00:00:00 | |
| OM5KV | 2026-09-04 23:39:08 | 49.00219 | 20.81337 | 87° | 80km/h | 9099m | 2.8m/s | -35.0°C | 0% | 0hPa | 0V | 00:00:00 | 00:00:00 | 00:00:00 | |
| SP9KGR-15 | 2026-09-04 23:39:06 | 49.00217 | 20.81276 | 89° | 77km/h | 9091m | 4.1m/s | -34.9°C | 34.8% | 321.8hPa | 0V | 00:00:00 | 00:00:00 | 00:00:00 | |
| OM5KV | 2026-09-04 23:39:02 | 49.00213 | 20.81158 | 88° | 78km/h | 9074m | 4.3m/s | -34.7°C | 0% | 0hPa | 0V | 00:00:00 | 00:00:00 | 00:00:00 | |
| SQ9EZE-13 | 2026-09-04 23:38:59 | 49.00208 | 20.81065 | 87° | 82km/h | 9064m | 2.4m/s | -34.6°C | 34.5% | 323.0hPa | 0V | 00:00:00 | 00:00:00 | 00:00:00 | |
| OM5KV | 2026-09-04 23:38:56 | 49.00206 | 20.80971 | 90° | 82km/h | 9052m | 4.9m/s | -34.5°C | 0% | 0hPa | 0V | 00:00:00 | 00:00:00 | 00:00:00 | |
| SP9KGR-15 | 2026-09-04 23:38:51 | 49.00204 | 20.80817 | 87° | 78km/h | 9032m | 3.6m/s | -34.3°C | 32.8% | 324.6hPa | 0V | 00:00:00 | 00:00:00 | 00:00:00 | |
| SQ9EZE-14 | 2026-09-04 23:38:48 | 49.00199 | 20.80723 | 85° | 86km/h | 9018m | 4.8m/s | -34.2°C | 32.3% | 325.2hPa | 0V | 00:00:00 | 00:00:00 | 00:00:00 | |
| SQ9EZE-13 | 2026-09-04 23:38:43 | 49.00186 | 20.80561 | 87° | 80km/h | 9000m | 5.1m/s | -34.0°C | 32.1% | 326.1hPa | 0V | 00:00:00 | 00:00:00 | 00:00:00 | |
| SP9KGR-15 | 2026-09-04 23:38:36 | 49.00188 | 20.80346 | 87° | 75km/h | 8968m | 4.0m/s | -33.7°C | 31.0% | 327.5hPa | 0V | 00:00:00 | 00:00:00 | 00:00:00 | |
| SQ9EZE-14 | 2026-09-04 23:38:32 | 49.00181 | 20.80231 | 85° | 78km/h | 8951m | 5.3m/s | -33.5°C | 29.3% | 328.3hPa | 0V | 00:00:00 | 00:00:00 | 00:00:00 | |
| GYPAP8-17 | 2026-09-04 23:38:29 | 49.00175 | 20.80136 | 86° | 86km/h | 8933m | 6.2m/s | -33.4°C | 27.6% | 329.1hPa | 0V | 00:00:00 | 00:00:00 | 00:00:00 | |
| OM5KV | 2026-09-04 23:38:28 | 49.00173 | 20.80103 | 88° | 88km/h | 8927m | 5.1m/s | 0°C | 0% | 0hPa | 0V | 00:00:00 | 00:00:00 | 00:00:00 | |
| SP9KGR-15 | 2026-09-04 23:38:20 | 49.00177 | 20.79832 | 86° | 84km/h | 8892m | 3.5m/s | -33.0°C | 25.8% | 331.1hPa | 0V | 00:00:00 | 00:00:00 | 00:00:00 | |
| OM5KV | 2026-09-04 23:38:19 | 49.00175 | 20.79800 | 85° | 84km/h | 8887m | 6.4m/s | 0°C | 0% | 0hPa | 0V | 00:00:00 | 00:00:00 | 00:00:00 | |
| OE3JTB-15 | 2026-09-04 23:38:16 | 49.00169 | 20.79682 | 87° | 89km/h | 8870m | 2.0m/s | 0°C | 0% | 0hPa | 0V | 00:00:00 | 00:00:00 | 00:00:00 | |
| SQ9EZE-13 | 2026-09-04 23:38:12 | 49.00163 | 20.79598 | 86° | 77km/h | 8860m | 4.7m/s | -32.7°C | 24.0% | 332.6hPa | 0V | 00:00:00 | 00:00:00 | 00:00:00 | |
| OM5KV | 2026-09-04 23:38:06 | 49.00160 | 20.79401 | 89° | 88km/h | 8831m | 6.0m/s | 0°C | 0% | 0hPa | 0V | 00:00:00 | 00:00:00 | 00:00:00 | |
| SP9KGR-15 | 2026-09-04 23:38:05 | 49.00159 | 20.79367 | 88° | 89km/h | 8827m | 3.5m/s | -32.4°C | 21.9% | 334.3hPa | 0V | 00:00:00 | 00:00:00 | 00:00:00 | |
| SQ9EZE-13 | 2026-09-04 23:37:57 | 49.00159 | 20.79113 | 94° | 88km/h | 8790m | 5.5m/s | -32.1°C | 21.9% | 336.0hPa | 0V | 00:00:00 | 00:00:00 | 00:00:00 | |
| OM5KV | 2026-09-04 23:37:54 | 49.00164 | 20.79012 | 94° | 91km/h | 8771m | 4.8m/s | 0°C | 0% | 0hPa | 0V | 00:00:00 | 00:00:00 | 00:00:00 | |
| SP9KGR-15 | 2026-09-04 23:37:49 | 49.00164 | 20.78829 | 89° | 97km/h | 8747m | 6.4m/s | -31.8°C | 21.3% | 338.1hPa | 0V | 00:00:00 | 00:00:00 | 00:00:00 | |
| OM5KV | 2026-09-04 23:37:47 | 49.00162 | 20.78756 | 91° | 93km/h | 8737m | 5.6m/s | 0°C | 0% | 0hPa | 0V | 00:00:00 | 00:00:00 | 00:00:00 | |
| OM5KV | 2026-09-04 23:37:42 | 49.00167 | 20.78594 | 95° | 82km/h | 8710m | 4.2m/s | 0°C | 0% | 0hPa | 0V | 00:00:00 | 00:00:00 | 00:00:00 | |
| SQ9EZE-13 | 2026-09-04 23:37:41 | 49.00168 | 20.78563 | 93° | 82km/h | 8705m | 6.3m/s | -31.4°C | 20.0% | 340.0hPa | 0V | 00:00:00 | 00:00:00 | 00:00:00 | |
| OM5KV | 2026-09-04 23:37:36 | 49.00169 | 20.78390 | 91° | 93km/h | 8681m | 4.3m/s | 0°C | 0% | 0hPa | 0V | 00:00:00 | 00:00:00 | 00:00:00 | |
| GYPAP8-17 | 2026-09-04 23:37:34 | 49.00168 | 20.78319 | 91° | 93km/h | 8673m | 5.0m/s | -31.1°C | 17.3% | 341.5hPa | 0V | 00:00:00 | 00:00:00 | 00:00:00 | |
| SQ9EZE-13 | 2026-09-04 23:37:25 | 49.00171 | 20.78011 | 91° | 84km/h | 8623m | 7.4m/s | -30.7°C | 14.8% | 343.8hPa | 0V | 00:00:00 | 00:00:00 | 00:00:00 | |
| SP9KGR-15 | 2026-09-04 23:37:18 | 49.00176 | 20.77769 | 94° | 95km/h | 8588m | 5.6m/s | -30.4°C | 13.0% | 345.5hPa | 0V | 00:00:00 | 00:00:00 | 00:00:00 | |
| SQ9EZE-13 | 2026-09-04 23:37:09 | 49.00176 | 20.77468 | 89° | 88km/h | 8548m | 5.8m/s | -30.1°C | 10.5% | 347.6hPa | 0V | 00:00:00 | 00:00:00 | 00:00:00 | |
| SP9KGR-15 | 2026-09-04 23:37:02 | 49.00179 | 20.77237 | 89° | 91km/h | 8510m | 4.9m/s | -29.7°C | 9.8% | 349.3hPa | 0V | 00:00:00 | 00:00:00 | 00:00:00 | |
| SQ9EZE-13 | 2026-09-04 23:36:54 | 49.00178 | 20.76963 | 96° | 82km/h | 8467m | 6.1m/s | -29.4°C | 8.8% | 351.4hPa | 0V | 00:00:00 | 00:00:00 | 00:00:00 | |
| SP9KGR-15 | 2026-09-04 23:36:47 | 49.00187 | 20.76735 | 94° | 93km/h | 8427m | 5.0m/s | -29.1°C | 8.6% | 353.3hPa | 0V | 00:00:00 | 00:00:00 | 00:00:00 | |
| SQ9EZE-13 | 2026-09-04 23:36:39 | 49.00193 | 20.76438 | 94° | 89km/h | 8384m | 5.4m/s | -28.7°C | 7.2% | 355.4hPa | 0V | 00:00:00 | 00:00:00 | 00:00:00 | |
| SP9KGR-15 | 2026-09-04 23:36:32 | 49.00203 | 20.76193 | 95° | 95km/h | 8346m | 4.6m/s | -28.4°C | 6.4% | 357.3hPa | 0V | 00:00:00 | 00:00:00 | 00:00:00 | |
| SQ9EZE-14 | 2026-09-04 23:36:31 | 49.00204 | 20.76157 | 95° | 95km/h | 8341m | 4.7m/s | -28.3°C | 6.3% | 357.6hPa | 0V | 00:00:00 | 00:00:00 | 00:00:00 | |
| SQ9EZE-13 | 2026-09-04 23:36:23 | 49.00212 | 20.75877 | 94° | 84km/h | 8295m | 6.8m/s | -27.9°C | 6.5% | 359.9hPa | 0V | 00:00:00 | 00:00:00 | 00:00:00 | |
| OE3JTB-15 | 2026-09-04 23:36:20 | 49.00222 | 20.75741 | 98° | 91km/h | 8274m | 5.8m/s | 0°C | 0% | 0hPa | 0V | 00:00:00 | 00:57:50 | 00:00:00 | |
| SQ9EZE-13 | 2026-09-04 23:36:08 | 49.00243 | 20.75359 | 96° | 93km/h | 8212m | 5.2m/s | -27.2°C | 8.0% | 364.2hPa | 0V | 00:00:00 | 00:00:00 | 00:00:00 | |
| SP9KGR-15 | 2026-09-04 23:36:00 | 49.00262 | 20.75086 | 94° | 86km/h | 8165m | 7.9m/s | -26.8°C | 9.0% | 366.7hPa | 0V | 00:00:00 | 00:00:00 | 00:00:00 | |
| SQ9EZE-13 | 2026-09-04 23:35:52 | 49.00262 | 20.74827 | 99° | 86km/h | 8115m | 6.5m/s | -26.4°C | 9.6% | 369.1hPa | 0V | 00:00:00 | 00:00:00 | 00:00:00 | |
| SP9KGR-15 | 2026-09-04 23:35:45 | 49.00274 | 20.74594 | 89° | 88km/h | 8072m | 6.5m/s | -26.0°C | 9.5% | 371.3hPa | 0V | 00:00:00 | 00:00:00 | 00:00:00 | |
| GYPAP8-17 | 2026-09-04 23:35:41 | 49.00271 | 20.74464 | 90° | 86km/h | 8043m | 7.3m/s | -25.7°C | 9.3% | 372.8hPa | 0V | 00:00:00 | 00:00:00 | 00:00:00 | |
| SQ9EZE-13 | 2026-09-04 23:35:36 | 49.00272 | 20.74294 | 95° | 88km/h | 8012m | 5.2m/s | -25.4°C | 9.2% | 374.4hPa | 0V | 00:00:00 | 00:00:00 | 00:00:00 | |
| SP9KGR-15 | 2026-09-04 23:35:29 | 49.00276 | 20.74051 | 89° | 80km/h | 7971m | 4.3m/s | -25.0°C | 9.2% | 376.5hPa | 0V | 00:00:00 | 00:00:00 | 00:00:00 | |
| OE3JTB-15 | 2026-09-04 23:35:24 | 49.00273 | 20.73854 | 91° | 86km/h | 7934m | 5.3m/s | 0°C | 0% | 0hPa | 0V | 00:00:00 | 00:00:00 | 00:00:00 | |
| SQ9EZE-13 | 2026-09-04 23:35:20 | 49.00275 | 20.73749 | 94° | 93km/h | 7915m | 7.7m/s | -24.5°C | 9.1% | 379.6hPa | 0V | 00:00:00 | 00:00:00 | 00:00:00 | |
| SP9KGR-15 | 2026-09-04 23:35:14 | 49.00280 | 20.73541 | 91° | 82km/h | 7872m | 7.1m/s | -24.2°C | 8.9% | 381.6hPa | 0V | 00:00:00 | 00:00:00 | 00:00:00 | |
| SQ9EZE-13 | 2026-09-04 23:35:04 | 49.00284 | 20.73210 | 95° | 80km/h | 7805m | 6.3m/s | -23.6°C | 8.1% | 385.2hPa | 0V | 00:00:00 | 00:00:00 | 00:00:00 | |
| SP9KGR-15 | 2026-09-04 23:34:58 | 49.00281 | 20.73029 | 87° | 80km/h | 7766m | 7.6m/s | -23.2°C | 7.9% | 387.3hPa | 0V | 00:00:00 | 00:00:00 | 00:00:00 | |
| SQ9EZE-13 | 2026-09-04 23:34:48 | 49.00285 | 20.72697 | 92° | 80km/h | 7697m | 7.9m/s | -22.5°C | 7.3% | 390.9hPa | 0V | 00:00:00 | 00:00:00 | 00:00:00 | |
| GYPAP8-17 | 2026-09-04 23:34:44 | 49.00287 | 20.72578 | 88° | 77km/h | 7670m | 7.1m/s | -22.3°C | 6.9% | 392.4hPa | 0V | 00:00:00 | 00:00:00 | 00:00:00 | |
| SP9KGR-15 | 2026-09-04 23:34:43 | 49.00286 | 20.72548 | 86° | 77km/h | 7662m | 9.4m/s | -22.2°C | 6.8% | 392.8hPa | 0V | 00:00:00 | 00:00:00 | 00:00:00 | |
| SQ9EZE-13 | 2026-09-04 23:34:32 | 49.00288 | 20.72179 | 98° | 86km/h | 7591m | 5.1m/s | -21.5°C | 6.3% | 396.6hPa | 0V | 00:00:00 | 00:00:00 | 00:00:00 | |
| SP9KGR-15 | 2026-09-04 23:34:28 | 49.00297 | 20.72052 | 94° | 80km/h | 7566m | 6.3m/s | -21.3°C | 6.2% | 398.0hPa | 0V | 00:00:00 | 00:00:00 | 00:00:00 | |
| SQ9EZE-14 | 2026-09-04 23:34:16 | 49.00286 | 20.71672 | 91° | 86km/h | 7486m | 6.3m/s | -20.7°C | 5.4% | 402.3hPa | 0V | 00:00:00 | 00:00:00 | 00:00:00 | |
| SP9KGR-15 | 2026-09-04 23:34:13 | 49.00288 | 20.71573 | 94° | 84km/h | 7463m | 8.7m/s | -20.5°C | 5.4% | 403.5hPa | 0V | 00:00:00 | 00:00:00 | 00:00:00 | |
| OE3JTB-15 | 2026-09-04 23:34:12 | 49.00292 | 20.71507 | 96° | 88km/h | 7449m | 8.0m/s | 0°C | 0% | 0hPa | 0V | 00:00:00 | 00:00:00 | 00:00:00 | |
| SQ9EZE-13 | 2026-09-04 23:34:00 | 49.00317 | 20.71132 | 102° | 88km/h | 7383m | 6.3m/s | -19.8°C | 4.9% | 408.1hPa | 0V | 00:00:00 | 00:00:00 | 00:00:00 | |
| SP9KGR-15 | 2026-09-04 23:33:57 | 49.00328 | 20.71034 | 101° | 84km/h | 7365m | 5.7m/s | -19.7°C | 4.8% | 409.0hPa | 0V | 00:00:00 | 00:00:00 | 00:00:00 | |
| SQ9EZE-13 | 2026-09-04 23:33:45 | 49.00360 | 20.70646 | 101° | 80km/h | 7293m | 7.2m/s | -19.2°C | 4.6% | 413.1hPa | 0V | 00:00:00 | 00:00:00 | 00:00:00 | |
| SP9KGR-15 | 2026-09-04 23:33:41 | 49.00374 | 20.70521 | 100° | 84km/h | 7269m | 7.7m/s | -19.1°C | 4.8% | 414.3hPa | 0V | 00:00:00 | 00:00:00 | 00:00:00 | |
| GYPAP8-17 | 2026-09-04 23:33:39 | 49.00380 | 20.70456 | 99° | 86km/h | 7256m | 7.9m/s | -19.0°C | 4.9% | 415.0hPa | 0V | 00:00:00 | 00:00:00 | 00:00:00 | |
| SQ9EZE-13 | 2026-09-04 23:33:30 | 49.00405 | 20.70165 | 97° | 88km/h | 7200m | 6.2m/s | -18.6°C | 4.8% | 418.1hPa | 0V | 00:00:00 | 00:00:00 | 00:00:00 | |
| SP9KGR-15 | 2026-09-04 23:33:26 | 49.00415 | 20.70032 | 97° | 88km/h | 7174m | 8.2m/s | -18.4°C | 4.7% | 419.4hPa | 0V | 00:00:00 | 00:00:00 | 00:00:00 | |
| SQ9EZE-13 | 2026-09-04 23:33:14 | 49.00447 | 20.69624 | 98° | 86km/h | 7102m | 5.4m/s | -17.8°C | 5.1% | 423.6hPa | 0V | 00:00:00 | 00:00:00 | 00:00:00 | |
| SP9KGR-15 | 2026-09-04 23:33:10 | 49.00454 | 20.69493 | 94° | 84km/h | 7077m | 6.2m/s | -17.6°C | 4.9% | 425.0hPa | 0V | 00:00:00 | 00:00:00 | 00:00:00 | |
| OE3JTB-15 | 2026-09-04 23:32:59 | 49.00488 | 20.69107 | 94° | 88km/h | 7005m | 6.9m/s | 0°C | 0% | 0hPa | 0V | 00:00:00 | 00:54:29 | 00:00:00 | |
| SQ9EZE-13 | 2026-09-04 23:32:44 | 49.00513 | 20.68660 | 98° | 89km/h | 6926m | 4.9m/s | -16.5°C | 6.5% | 433.7hPa | 0V | 00:00:00 | 00:00:00 | 00:00:00 | |
| SP9KGR-15 | 2026-09-04 23:32:39 | 49.00520 | 20.68479 | 94° | 93km/h | 6901m | 4.7m/s | -16.3°C | 6.3% | 435.2hPa | 0V | 00:00:00 | 00:00:00 | 00:00:00 | |
| OE3JTB-15 | 2026-09-04 23:32:30 | 49.00548 | 20.68138 | 97° | 84km/h | 6842m | 5.7m/s | 0°C | 0% | 0hPa | 0V | 00:00:00 | 00:00:00 | 00:00:00 | |
| SP9KGR-15 | 2026-09-04 23:32:23 | 49.00560 | 20.67945 | 92° | 82km/h | 6807m | 5.7m/s | -16.0°C | 10.4% | 440.4hPa | 0V | 00:00:00 | 00:00:00 | 00:00:00 | |
| SQ9EZE-13 | 2026-09-04 23:32:14 | 49.00589 | 20.67624 | 97° | 82km/h | 6751m | 6.1m/s | -15.7°C | 11.8% | 443.7hPa | 0V | 00:00:00 | 00:00:00 | 00:00:00 | |
| GYPAP8-17 | 2026-09-04 23:32:10 | 49.00595 | 20.67529 | 97° | 82km/h | 6735m | 5.9m/s | -15.6°C | 11.9% | 444.8hPa | 0V | 00:00:00 | 00:00:00 | 00:00:00 | |
| SP9KGR-15 | 2026-09-04 23:32:07 | 49.00599 | 20.67436 | 95° | 78km/h | 6718m | 4.7m/s | -15.4°C | 12.0% | 445.8hPa | 0V | 00:00:00 | 00:00:00 | 00:00:00 | |
| SQ9EZE-14 | 2026-09-04 23:31:59 | 49.00600 | 20.67186 | 93° | 84km/h | 6671m | 6.1m/s | -15.0°C | 11.6% | 448.4hPa | 0V | 00:00:00 | 00:00:00 | 00:00:00 | |
| SQ9EZE-13 | 2026-09-04 23:31:58 | 49.00601 | 20.67153 | 95° | 86km/h | 6665m | 4.4m/s | -15.0°C | 11.5% | 448.8hPa | 0V | 00:00:00 | 00:00:00 | 00:00:00 | |
| SP9KGR-15 | 2026-09-04 23:31:51 | 49.00610 | 20.66926 | 90° | 80km/h | 6627m | 5.2m/s | -14.6°C | 11.2% | 451.2hPa | 0V | 00:00:00 | 00:00:00 | 00:00:00 | |
| SQ9EZE-13 | 2026-09-04 23:31:44 | 49.00615 | 20.66656 | 96° | 86km/h | 6582m | 5.0m/s | -14.2°C | 10.9% | 453.7hPa | 0V | 00:00:00 | 00:00:00 | 00:00:00 | |
| SP9KGR-15 | 2026-09-04 23:31:37 | 49.00628 | 20.66433 | 93° | 86km/h | 6548m | 4.5m/s | -13.9°C | 10.6% | 455.9hPa | 0V | 00:00:00 | 00:00:00 | 00:00:00 | |
| SQ9EZE-13 | 2026-09-04 23:31:28 | 49.00644 | 20.66132 | 95° | 93km/h | 6501m | 4.1m/s | -13.5°C | 10.1% | 458.7hPa | 0V | 00:00:00 | 00:00:00 | 00:00:00 | |
| GYPAP8-17 | 2026-09-04 23:31:26 | 49.00646 | 20.66096 | 95° | 91km/h | 6495m | 7.6m/s | -13.4°C | 10.1% | 459.1hPa | 0V | 00:00:00 | 00:00:00 | 00:00:00 | |
| SP9KGR-15 | 2026-09-04 23:31:20 | 49.00658 | 20.65896 | 95° | 84km/h | 6460m | 5.4m/s | -13.1°C | 10.1% | 461.3hPa | 0V | 00:00:00 | 00:00:00 | 00:00:00 | |
| SQ9EZE-13 | 2026-09-04 23:31:11 | 49.00656 | 20.65599 | 91° | 86km/h | 6403m | 7.5m/s | -12.6°C | 10.6% | 464.7hPa | 0V | 00:00:00 | 00:00:00 | 00:00:00 | |
| SP9KGR-15 | 2026-09-04 23:31:04 | 49.00649 | 20.65368 | 91° | 93km/h | 6365m | 5.3m/s | -12.4°C | 11.6% | 467.0hPa | 0V | 00:00:00 | 00:00:00 | 00:00:00 | |
| SQ9EZE-13 | 2026-09-04 23:30:56 | 49.00650 | 20.65098 | 89° | 88km/h | 6325m | 4.7m/s | -12.4°C | 13.8% | 469.4hPa | 0V | 00:00:00 | 00:00:00 | 00:00:00 | |
| SP9KGR-15 | 2026-09-04 23:30:48 | 49.00652 | 20.64830 | 96° | 89km/h | 6292m | 3.6m/s | -12.3°C | 16.3% | 471.4hPa | 0V | 00:00:00 | 00:00:00 | 00:00:00 | |
| GYPAP8-17 | 2026-09-04 23:30:42 | 49.00665 | 20.64625 | 95° | 88km/h | 6267m | 3.4m/s | -12.3°C | 18.7% | 473.0hPa | 0V | 00:00:00 | 00:00:00 | 00:00:00 | |
| SQ9EZE-13 | 2026-09-04 23:30:40 | 49.00667 | 20.64558 | 94° | 88km/h | 6261m | 4.0m/s | -12.2°C | 18.5% | 473.4hPa | 0V | 00:00:00 | 00:00:00 | 00:00:00 | |
| SP9KGR-15 | 2026-09-04 23:30:33 | 49.00682 | 20.64312 | 100° | 95km/h | 6234m | 3.3m/s | -12.0°C | 18.5% | 475.1hPa | 0V | 00:00:00 | 00:00:00 | 00:00:00 | |
| SQ9EZE-13 | 2026-09-04 23:30:25 | 49.00698 | 20.64024 | 88° | 86km/h | 6206m | 3.5m/s | -11.7°C | 19.0% | 476.8hPa | 0V | 00:00:00 | 00:00:00 | 00:00:00 | |
| SP9KGR-15 | 2026-09-04 23:30:18 | 49.00689 | 20.63787 | 89° | 89km/h | 6176m | 8.0m/s | -11.7°C | 23.3% | 478.6hPa | 0V | 00:00:00 | 00:00:00 | 00:00:00 | |
| SQ9EZE-13 | 2026-09-04 23:30:10 | 49.00700 | 20.63518 | 97° | 88km/h | 6121m | 4.8m/s | -11.6°C | 28.8% | 482.2hPa | 0V | 00:00:00 | 00:00:00 | 00:00:00 | |
| GYPAP8-17 | 2026-09-04 23:29:58 | 49.00691 | 20.63086 | 87° | 89km/h | 6059m | 4.6m/s | -11.4°C | 34.9% | 486.0hPa | 0V | 00:00:00 | 00:00:00 | 00:00:00 | |
| SQ9EZE-13 | 2026-09-04 23:29:54 | 49.00689 | 20.62951 | 92° | 88km/h | 6036m | 7.1m/s | -11.4°C | 36.7% | 487.5hPa | 0V | 00:00:00 | 00:00:00 | 00:00:00 | |
| SP9KGR-15 | 2026-09-04 23:29:47 | 49.00701 | 20.62685 | 92° | 100km/h | 6003m | 3.7m/s | -11.2°C | 41.5% | 489.7hPa | 0V | 00:00:00 | 00:00:00 | 00:00:00 | |
| SQ9EZE-14 | 2026-09-04 23:29:44 | 49.00701 | 20.62573 | 89° | 95km/h | 5989m | 6.7m/s | -11.0°C | 40.9% | 490.6hPa | 0V | 00:00:00 | 00:00:00 | 00:00:00 | |
| SQ9EZE-13 | 2026-09-04 23:29:38 | 49.00713 | 20.62369 | 100° | 88km/h | 5961m | 5.2m/s | -10.8°C | 40.7% | 492.3hPa | 0V | 00:00:00 | 00:00:00 | 00:00:00 | |
| SP9KGR-15 | 2026-09-04 23:29:31 | 49.00712 | 20.62128 | 94° | 88km/h | 5920m | 4.8m/s | -10.4°C | 39.8% | 494.9hPa | 0V | 00:00:00 | 00:00:00 | 00:00:00 | |
| SQ9EZE-14 | 2026-09-04 23:29:28 | 49.00719 | 20.62023 | 98° | 91km/h | 5903m | 4.4m/s | 0°C | 0% | 496.0hPa | 0V | 00:00:00 | 00:00:00 | 00:00:00 | |
| SQ9EZE-13 | 2026-09-04 23:29:23 | 49.00727 | 20.61839 | 93° | 99km/h | 5877m | 3.8m/s | -10.0°C | 38.4% | 497.7hPa | 0V | 00:00:00 | 00:00:00 | 00:00:00 | |
| SP9KGR-15 | 2026-09-04 23:29:17 | 49.00740 | 20.61592 | 95° | 91km/h | 5848m | 3.2m/s | -9.7°C | 35.4% | 499.6hPa | 0V | 00:00:00 | 00:00:00 | 00:00:00 | |
| GYPAP8-17 | 2026-09-04 23:29:13 | 49.00745 | 20.61485 | 95° | 97km/h | 5839m | 3.4m/s | -9.6°C | 35.3% | 500.2hPa | 0V | 00:00:00 | 00:00:00 | 00:00:00 | |
| SQ9EZE-13 | 2026-09-04 23:29:07 | 49.00750 | 20.61260 | 92° | 102km/h | 5817m | 3.0m/s | -9.4°C | 34.8% | 501.5hPa | 0V | 00:00:00 | 00:00:00 | 00:00:00 | |
| SP9KGR-15 | 2026-09-04 23:29:00 | 49.00755 | 20.60987 | 93° | 93km/h | 5787m | 6.0m/s | -9.1°C | 30.6% | 503.5hPa | 0V | 00:00:00 | 00:00:00 | 00:00:00 | |
| SQ9EZE-13 | 2026-09-04 23:28:51 | 49.00772 | 20.60695 | 99° | 82km/h | 5743m | 2.5m/s | -9.0°C | 33.3% | 506.3hPa | 0V | 00:00:00 | 00:00:00 | 00:00:00 | |
| SP9KGR-15 | 2026-09-04 23:28:45 | 49.00789 | 20.60514 | 95° | 80km/h | 5713m | 4.9m/s | -9.0°C | 34.5% | 508.2hPa | 0V | 00:00:00 | 00:00:00 | 00:00:00 | |
| SQ9EZE-13 | 2026-09-04 23:28:35 | 49.00799 | 20.60183 | 95° | 88km/h | 5659m | 3.8m/s | -9.0°C | 37.6% | 511.9hPa | 0V | 00:00:00 | 00:00:00 | 00:00:00 | |
| SP9KGR-15 | 2026-09-04 23:28:30 | 49.00810 | 20.60014 | 97° | 89km/h | 5637m | 3.8m/s | -9.1°C | 43.2% | 513.3hPa | 0V | 00:00:00 | 00:00:00 | 00:00:00 | |
| GYPAP8-17 | 2026-09-04 23:28:29 | 49.00812 | 20.59980 | 96° | 91km/h | 5634m | 2.8m/s | -9.2°C | 44.6% | 513.5hPa | 0V | 00:00:00 | 00:00:00 | 00:00:00 | |
| SQ9EZE-13 | 2026-09-04 23:28:19 | 49.00850 | 20.59627 | 96° | 89km/h | 5595m | 6.0m/s | -9.1°C | 51.3% | 516.1hPa | 0V | 00:00:00 | 00:00:00 | 00:00:00 | |
| SP9KGR-15 | 2026-09-04 23:28:14 | 49.00865 | 20.59454 | 100° | 89km/h | 5571m | 7.1m/s | -9.0°C | 52.5% | 517.7hPa | 0V | 00:00:00 | 00:00:00 | 00:00:00 | |
| SQ9EZE-13 | 2026-09-04 23:28:04 | 49.00903 | 20.59092 | 96° | 99km/h | 5524m | 5.0m/s | -8.8°C | 59.2% | 521.0hPa | 0V | 00:00:00 | 00:00:00 | 00:00:00 | |
| SP9KGR-15 | 2026-09-04 23:27:59 | 49.00916 | 20.58903 | 99° | 97km/h | 5501m | 6.4m/s | -8.7°C | 62.1% | 522.4hPa | 0V | 00:00:00 | 00:00:00 | 00:00:00 | |
| SQ9EZE-13 | 2026-09-04 23:27:49 | 49.00968 | 20.58538 | 102° | 97km/h | 5460m | 4.6m/s | -8.4°C | 62.1% | 525.4hPa | 0V | 00:00:00 | 00:00:00 | 00:00:00 | |
| SP9KGR-15 | 2026-09-04 23:27:43 | 49.00989 | 20.58318 | 100° | 97km/h | 5440m | 2.6m/s | -8.2°C | 62.5% | 526.8hPa | 0V | 00:00:00 | 00:00:00 | 00:00:00 | |
| SQ9EZE-13 | 2026-09-04 23:27:34 | 49.01036 | 20.57984 | 101° | 100km/h | 5407m | 2.2m/s | -7.9°C | 64.7% | 528.8hPa | 0V | 00:00:00 | 00:00:00 | 00:00:00 | |
| SQ9EZE-14 | 2026-09-04 23:27:28 | 49.01046 | 20.57767 | 95° | 86km/h | 5388m | 3.4m/s | 0°C | 0% | 530.1hPa | 0V | 00:00:00 | 00:00:00 | 00:00:00 | |
| SP9KGR-15 | 2026-09-04 23:27:27 | 49.01048 | 20.57735 | 98° | 86km/h | 5385m | 3.4m/s | -7.7°C | 63.6% | 530.4hPa | 0V | 00:00:00 | 00:00:00 | 00:00:00 | |
| SQ9EZE-13 | 2026-09-04 23:27:18 | 49.01102 | 20.57411 | 103° | 110km/h | 5337m | 6.1m/s | -7.3°C | 59.1% | 533.6hPa | 0V | 00:00:00 | 00:00:00 | 00:00:00 | |
| SQ9EZE-14 | 2026-09-04 23:27:12 | 49.01135 | 20.57170 | 105° | 97km/h | 5307m | 5.6m/s | 0°C | 0% | 535.7hPa | 0V | 00:00:00 | 00:00:00 | 00:00:00 | |
| SP9KGR-15 | 2026-09-04 23:27:11 | 49.01140 | 20.57135 | 105° | 95km/h | 5301m | 6.9m/s | -7.0°C | 60.8% | 536.2hPa | 0V | 00:00:00 | 00:00:00 | 00:00:00 | |
| SQ9EZE-13 | 2026-09-04 23:27:03 | 49.01182 | 20.56843 | 102° | 99km/h | 5257m | 4.8m/s | -6.9°C | 62.8% | 539.2hPa | 0V | 00:00:00 | 00:00:00 | 00:00:00 | |
| GYPAP8-17 | 2026-09-04 23:27:01 | 49.01199 | 20.56730 | 106° | 102km/h | 5244m | 4.4m/s | -6.9°C | 64.8% | 540.0hPa | 0V | 00:00:00 | 00:00:00 | 00:00:00 | |
| SP9KGR-15 | 2026-09-04 23:26:56 | 49.01226 | 20.56539 | 98° | 100km/h | 5228m | 4.4m/s | -6.8°C | 68.9% | 541.2hPa | 0V | 00:00:00 | 00:00:00 | 00:00:00 | |
| SQ9EZE-13 | 2026-09-04 23:26:48 | 49.01239 | 20.56292 | 99° | 78km/h | 5205m | 4.9m/s | -6.7°C | 69.4% | 542.8hPa | 0V | 00:00:00 | 00:00:00 | 00:00:00 | |
| SP9KGR-15 | 2026-09-04 23:26:40 | 49.01289 | 20.55983 | 105° | 91km/h | 5154m | 4.8m/s | -6.2°C | 65.7% | 546.4hPa | 0V | 00:00:00 | 00:00:00 | 00:00:00 | |
| SQ9EZE-13 | 2026-09-04 23:26:31 | 49.01339 | 20.55729 | 104° | 91km/h | 5114m | 5.2m/s | -6.0°C | 66.2% | 549.2hPa | 0V | 00:00:00 | 00:00:00 | 00:00:00 | |
| SP9KGR-15 | 2026-09-04 23:26:23 | 49.01381 | 20.55459 | 99° | 78km/h | 5073m | 4.2m/s | -5.9°C | 69.4% | 552.1hPa | 0V | 00:00:00 | 00:00:00 | 00:00:00 | |
| SQ9EZE-13 | 2026-09-04 23:26:16 | 49.01407 | 20.55241 | 105° | 86km/h | 5041m | 7.4m/s | -5.7°C | 69.9% | 554.4hPa | 0V | 00:00:00 | 00:00:00 | 00:00:00 | |
| GYPAP8-17 | 2026-09-04 23:26:13 | 49.01432 | 20.55113 | 106° | 91km/h | 5016m | 4.9m/s | -5.8°C | 75.4% | 556.1hPa | 0V | 00:00:00 | 00:00:00 | 00:00:00 | |
| SP9KGR-15 | 2026-09-04 23:26:09 | 49.01452 | 20.54973 | 103° | 95km/h | 4998m | 3.4m/s | -5.6°C | 75.9% | 557.5hPa | 0V | 00:00:00 | 00:00:00 | 00:00:00 | |
| SQ9EZE-13 | 2026-09-04 23:26:00 | 49.01501 | 20.54717 | 110° | 75km/h | 4969m | 4.1m/s | -5.4°C | 75.0% | 559.5hPa | 0V | 00:00:00 | 00:00:00 | 00:00:00 | |
| SP9KGR-15 | 2026-09-04 23:25:53 | 49.01555 | 20.54478 | 103° | 91km/h | 4927m | 7.5m/s | -5.1°C | 78.0% | 562.4hPa | 0V | 00:00:00 | 00:00:00 | 00:00:00 | |
| SQ9EZE-13 | 2026-09-04 23:25:44 | 49.01590 | 20.54211 | 106° | 84km/h | 4883m | 4.0m/s | -4.9°C | 79.3% | 565.7hPa | 0V | 00:00:00 | 00:00:00 | 00:00:00 | |
| SP9KGR-15 | 2026-09-04 23:25:37 | 49.01652 | 20.53943 | 109° | 95km/h | 4852m | 3.0m/s | -4.6°C | 80.5% | 567.9hPa | 0V | 00:00:00 | 00:00:00 | 00:00:00 | |
| GYPAP8-17 | 2026-09-04 23:25:30 | 49.01683 | 20.53750 | 107° | 80km/h | 4827m | 4.8m/s | -4.4°C | 79.3% | 569.6hPa | 0V | 00:00:00 | 00:00:00 | 00:00:00 | |
| SP9KGR-15 | 2026-09-04 23:25:21 | 49.01771 | 20.53456 | 115° | 95km/h | 4781m | 6.2m/s | -4.1°C | 79.1% | 572.8hPa | 0V | 00:00:00 | 00:00:00 | 00:00:00 | |
| SQ9EZE-13 | 2026-09-04 23:25:13 | 49.01836 | 20.53205 | 111° | 89km/h | 4742m | 3.9m/s | -3.8°C | 79.4% | 575.9hPa | 0V | 00:00:00 | 00:00:00 | 00:00:00 | |
| SQ9EZE-14 | 2026-09-04 23:25:11 | 49.01851 | 20.53139 | 108° | 93km/h | 4734m | 4.1m/s | 0°C | 0% | 576.4hPa | 0V | 00:00:00 | 00:00:00 | 00:00:00 | |
| GYPAP8-17 | 2026-09-04 23:25:10 | 49.01857 | 20.53104 | 106° | 97km/h | 4730m | 3.6m/s | -3.7°C | 79.1% | 576.6hPa | 0V | 00:00:00 | 00:00:00 | 00:00:00 | |
| SP9KGR-15 | 2026-09-04 23:25:05 | 49.01888 | 20.52918 | 105° | 95km/h | 4713m | 3.4m/s | -3.6°C | 79.0% | 578.0hPa | 0V | 00:00:00 | 00:00:00 | 00:00:00 | |
| SQ9EZE-13 | 2026-09-04 23:24:57 | 49.01945 | 20.52649 | 112° | 93km/h | 4678m | 3.4m/s | -3.3°C | 0% | 0hPa | 0V | 00:00:00 | 00:00:00 | 00:00:00 | |
| SQ9EZE-14 | 2026-09-04 23:24:56 | 49.01954 | 20.52614 | 111° | 95km/h | 4674m | 4.3m/s | 0°C | 0% | 0hPa | 0V | 00:00:00 | 00:00:00 | 00:00:00 | |
| SP9KGR-15 | 2026-09-04 23:24:49 | 49.02006 | 20.52383 | 105° | 84km/h | 4650m | 4.0m/s | -3.1°C | 78.9% | 582.5hPa | 0V | 00:00:00 | 00:00:00 | 00:00:00 | |
| SQ9EZE-13 | 2026-09-04 23:24:42 | 49.02048 | 20.52166 | 115° | 95km/h | 4627m | 4.3m/s | -2.9°C | 0% | 0hPa | 0V | 00:00:00 | 00:00:00 | 00:00:00 | |
| SP9KGR-15 | 2026-09-04 23:24:34 | 49.02104 | 20.51870 | 105° | 104km/h | 4582m | 4.9m/s | -2.5°C | 77.7% | 587.6hPa | 0V | 00:00:00 | 00:00:00 | 00:00:00 | |
| SQ9EZE-13 | 2026-09-04 23:24:26 | 49.02171 | 20.51583 | 110° | 93km/h | 4541m | 6.6m/s | 0°C | 0% | 0hPa | 0V | 00:00:00 | 00:00:00 | 00:00:00 | |
| SP9KGR-15 | 2026-09-04 23:24:18 | 49.02228 | 20.51306 | 108° | 93km/h | 4507m | 3.7m/s | -1.8°C | 78.0% | 593.2hPa | 0V | 00:00:00 | 00:00:00 | 00:00:00 | |
| GYPAP8-17 | 2026-09-04 23:24:17 | 49.02234 | 20.51272 | 108° | 93km/h | 4503m | 4.2m/s | -1.8°C | 0% | 593.6hPa | 0V | 00:00:00 | 00:00:00 | 00:00:00 | |
| SQ9EZE-13 | 2026-09-04 23:24:10 | 49.02273 | 20.51059 | 104° | 84km/h | 4479m | 2.4m/s | 0°C | 0% | 0hPa | 0V | 00:00:00 | 00:00:00 | 00:00:00 | |
| SP9KGR-15 | 2026-09-04 23:24:02 | 49.02324 | 20.50781 | 111° | 93km/h | 4444m | 5.7m/s | -1.3°C | 76.9% | 598.0hPa | 0V | 00:00:00 | 00:00:00 | 00:00:00 | |
| SQ9EZE-13 | 2026-09-04 23:23:54 | 49.02374 | 20.50467 | 106° | 93km/h | 4401m | 6.9m/s | 0°C | 0% | 0hPa | 0V | 00:00:00 | 00:00:00 | 00:00:00 | |
| SP9KGR-15 | 2026-09-04 23:23:47 | 49.02409 | 20.50245 | 99° | 89km/h | 4367m | 4.4m/s | -0.7°C | 0% | 603.6hPa | 0V | 00:00:00 | 00:00:00 | 00:00:00 | |
| GYPAP8-17 | 2026-09-04 23:23:32 | 49.02502 | 20.49757 | 100° | 88km/h | 4293m | 5.7m/s | 0°C | 0% | 609.1hPa | 0V | 00:00:00 | 00:00:00 | 00:00:00 | |
| SP9KGR-15 | 2026-09-04 23:23:31 | 49.02505 | 20.49725 | 100° | 84km/h | 4287m | 5.9m/s | 0°C | 0% | 609.5hPa | 0V | 00:00:00 | 00:00:00 | 00:00:00 | |
| SP9KGR-15 | 2026-09-04 23:23:17 | 49.02582 | 20.49259 | 106° | 88km/h | 4226m | 3.3m/s | 0°C | 0% | 0hPa | 0V | 00:00:00 | 00:00:00 | 00:00:00 | |
| GYPAP8-17 | 2026-09-04 23:23:12 | 49.02609 | 20.49097 | 101° | 84km/h | 4212m | 3.4m/s | 0°C | 0% | 0hPa | 0V | 00:00:00 | 00:00:00 | 00:00:00 | |
| SP9KGR-15 | 2026-09-04 23:23:01 | 49.02657 | 20.48755 | 101° | 95km/h | 4168m | 2.8m/s | 0°C | 0% | 0hPa | 0V | 00:00:00 | 00:00:00 | 00:00:00 | |
| SP9KGR-15 | 2026-09-04 23:22:45 | 49.02732 | 20.48282 | 113° | 77km/h | 4089m | 3.7m/s | 0°C | 0% | 0hPa | 0V | 00:00:00 | 00:00:00 | 00:00:00 | |
| SP9KGR-15 | 2026-09-04 23:22:30 | 49.02839 | 20.47815 | 114° | 77km/h | 4022m | 2.0m/s | 0°C | 0% | 0hPa | 0V | 00:00:00 | 00:00:00 | 00:00:00 | |
| GYPAP8-17 | 2026-09-04 23:21:06 | 49.03176 | 20.45666 | 109° | 69km/h | 3637m | 5.3m/s | 0°C | 0% | 0hPa | 0V | 00:00:00 | 00:00:00 | 00:00:00 | |
| GYPAP8-17 | 2026-09-04 23:20:18 | 49.03397 | 20.44453 | 108° | 80km/h | 3391m | 5.1m/s | 0°C | 0% | 0hPa | 0V | 00:00:00 | 00:00:00 | 00:00:00 | |
| GYPAP8-17 | 2026-09-04 23:19:24 | 49.03612 | 20.43097 | 113° | 57km/h | 3127m | 5.5m/s | 0°C | 0% | 0hPa | 0V | 00:00:00 | 00:00:00 | 00:00:00 | |
| GYPAP8-17 | 2026-09-04 23:18:37 | 49.03804 | 20.41904 | 113° | 69km/h | 2905m | 4.5m/s | 0°C | 0% | 0hPa | 0V | 00:00:00 | 00:00:00 | 00:00:00 |